Darstellungsparameter: Aktuell verwendete Einstellungen:
Skalierung der Graphiken ... ?
xyx+y,   Skalierungsfaktor:      Skalierung: Modus: x, Faktor: 1
Darstellungszeitraum ... ?
Vom - - bis: - -   Zeitraum: 11.02.2008 - 10.08.2008
Min/Max/Avg-Anzeige ... ?
Zeige MMA aktuell
Zeige MMA Monat
Zeige MMA alles
Zeige --A aktuell
Zeige --A Monat
Zeige --A alles
Keine MMA-Anzeige
MMA:
Average (ber die Originaldaten)
MMA-Basis: 17.04.2019 - 19.05.2019
Quicknavigation für Darstellung... ?
Tage:      1T, 2T, 3T, 5T -1T -2T -3T -5T +1T +2T +3T +5T
Wochen: 1W, 2W, 3W -1W -2W -3W +1W +2W +3W
Monate: 1M, 3M, 6M -1M -3M -6M +1M +3M +6M
Jahre:    1J, 3J, 5J, 10J -1J -3J -5J -10J +1J +3J +5J +10J
Nutze für die Darstellung ... ?
Originaldaten oder Mittelwerte auf ...
Stundenbasis Tagesbasis Wochenbasis
Monatsbasis Jahresbasis      Datenbasis: Original-Daten
Darstellen als:
Statistik (Auto) Statistik J:M      Darstellung:
Zur Graphik,    zurück zur Übersicht aller Sensoren.
 
Tabellarische Datenbersicht: ?
 
Sensor: Nr:Datum:Temp:Abs-Feuchte:Windchill:Wind:
Aussen-T/F 1 11-02-2008 00:10:03 0.8 C 4.1 g/m*3 0.8 C 0 km/h
2 11-02-2008 00:22:03 0.8 C 4.1 g/m*3 0.8 C 0 km/h
3 11-02-2008 00:34:03 0.6 C 4.09 g/m*3 0.6 C 0 km/h
4 11-02-2008 00:46:03 0.6 C 4.09 g/m*3 0.6 C 0 km/h
5 11-02-2008 00:58:03 0.4 C 4.08 g/m*3 0.4 C 0 km/h
6 11-02-2008 01:10:03 0.3 C 4.06 g/m*3 0.3 C 0 km/h
7 11-02-2008 01:22:03 0.2 C 4.03 g/m*3 0.2 C 0 km/h
8 11-02-2008 01:34:03 0.1 C 4.05 g/m*3 0.1 C 0 km/h
9 11-02-2008 01:46:03 0 C 4.02 g/m*3 0 C 0 km/h
10 11-02-2008 01:58:03 -0.1 C 3.99 g/m*3 -0.1 C 0 km/h
11 11-02-2008 02:10:03 -0.1 C 3.99 g/m*3 -0.1 C 0 km/h
12 11-02-2008 02:22:03 -0.3 C 3.94 g/m*3 -0.3 C 0 km/h
13 11-02-2008 02:34:03 -0.4 C 3.91 g/m*3 -0.4 C 0 km/h
14 11-02-2008 02:46:04 -0.4 C 3.91 g/m*3 -0.4 C 0 km/h
15 11-02-2008 02:58:04 -0.4 C 3.96 g/m*3 -0.4 C 0 km/h
16 11-02-2008 03:10:04 -0.6 C 3.9 g/m*3 -0.6 C 0 km/h
17 11-02-2008 03:22:04 -0.7 C 3.88 g/m*3 -0.7 C 0 km/h
18 11-02-2008 03:34:04 -0.7 C 3.88 g/m*3 -0.7 C 0 km/h
19 11-02-2008 03:46:04 -0.7 C 3.88 g/m*3 -0.7 C 0 km/h
20 11-02-2008 03:58:04 -0.8 C 3.85 g/m*3 -0.8 C 0 km/h
21 11-02-2008 04:10:04 -1 C 3.8 g/m*3 -1 C 0 km/h
22 11-02-2008 04:22:04 -1.2 C 3.74 g/m*3 -1.2 C 0 km/h
23 11-02-2008 04:34:04 -1.2 C 3.74 g/m*3 -1.2 C 0 km/h
24 11-02-2008 04:46:04 -1 C 3.84 g/m*3 -1 C 0 km/h
25 11-02-2008 04:58:04 -1.1 C 3.82 g/m*3 -1.1 C 0 km/h
Sensor: Nr:Datum:Temp:Abs-Feuchte:Windchill:Wind:
Aussen-T/F 26 11-02-2008 05:10:04 -1.3 C 3.76 g/m*3 -1.3 C 0 km/h
27 11-02-2008 05:22:03 -1.3 C 3.76 g/m*3 -1.3 C 0 km/h
28 11-02-2008 05:34:02 -1.4 C 3.74 g/m*3 -1.4 C 0 km/h
29 11-02-2008 05:46:02 -1.4 C 3.74 g/m*3 -1.4 C 0 km/h
30 11-02-2008 05:58:03 -1.4 C 3.78 g/m*3 -1.4 C 0 km/h
31 11-02-2008 06:10:01 -1.7 C 3.66 g/m*3 -1.7 C 0 km/h
32 11-02-2008 06:22:02 -1.7 C 3.66 g/m*3 -1.7 C 0 km/h
33 11-02-2008 06:34:02 -1.7 C 3.66 g/m*3 -1.7 C 0 km/h
34 11-02-2008 06:46:02 -1.7 C 3.7 g/m*3 -1.7 C 0 km/h
35 11-02-2008 06:58:02 -1.7 C 3.7 g/m*3 -1.7 C 0 km/h
36 11-02-2008 07:10:02 -1.8 C 3.68 g/m*3 -1.8 C 0 km/h
37 11-02-2008 07:22:01 -1.9 C 3.65 g/m*3 -1.9 C 0 km/h
38 11-02-2008 07:34:02 -1.8 C 3.68 g/m*3 -1.8 C 0 km/h
39 11-02-2008 07:46:01 -1.8 C 3.68 g/m*3 -1.8 C 0 km/h
40 11-02-2008 07:58:01 -1.8 C 3.68 g/m*3 -1.8 C 0 km/h
41 11-02-2008 08:10:01 -2 C 3.63 g/m*3 -2 C 0 km/h
42 11-02-2008 08:22:02 -1.8 C 3.72 g/m*3 -1.8 C 0 km/h
43 11-02-2008 08:34:01 -1.9 C 3.69 g/m*3 -1.9 C 0 km/h
44 11-02-2008 08:46:01 -1.8 C 3.72 g/m*3 -1.8 C 0 km/h
45 11-02-2008 08:58:01 -1.7 C 3.75 g/m*3 -1.7 C 0 km/h
46 11-02-2008 09:10:01 -1.6 C 3.77 g/m*3 -1.6 C 0 km/h
47 11-02-2008 09:22:02 -1.6 C 3.77 g/m*3 -1.6 C 0 km/h
48 11-02-2008 09:34:01 -1.5 C 3.8 g/m*3 -1.5 C 0 km/h
49 11-02-2008 09:46:02 -1.3 C 3.85 g/m*3 -1.3 C 0 km/h
50 11-02-2008 09:58:02 -1.2 C 3.88 g/m*3 -1.2 C 0 km/h
Sensor: Nr:Datum:Temp:Abs-Feuchte:Windchill:Wind:
Aussen-T/F 51 11-02-2008 10:10:02 -1.1 C 3.91 g/m*3 -1.1 C 0 km/h
52 11-02-2008 10:22:03 -0.9 C 4.01 g/m*3 -0.9 C 0 km/h
53 11-02-2008 10:34:02 -0.6 C 4.09 g/m*3 -0.6 C 0 km/h
54 11-02-2008 10:46:02 -0.2 C 4.25 g/m*3 -0.2 C 0 km/h
55 11-02-2008 10:58:02 0.3 C 4.4 g/m*3 0.3 C 0 km/h
56 11-02-2008 11:10:01 0.9 C 4.64 g/m*3 0.9 C 0 km/h
57 11-02-2008 11:22:02 1.6 C 4.87 g/m*3 1.6 C 0 km/h
58 11-02-2008 11:34:01 1.9 C 4.97 g/m*3 1.9 C 0 km/h
59 11-02-2008 11:46:01 2.4 C 5.14 g/m*3 2.4 C 0 km/h
60 11-02-2008 11:58:01 2.9 C 5.32 g/m*3 2.9 C 0 km/h
61 11-02-2008 12:10:02 3.3 C 5.4 g/m*3 3.3 C 0 km/h
62 11-02-2008 12:22:02 3.8 C 5.46 g/m*3 3.8 C 0 km/h
63 11-02-2008 12:34:01 4.4 C 5.35 g/m*3 4.4 C 0 km/h
64 11-02-2008 12:46:01 5 C 5.23 g/m*3 5 C 0 km/h
65 11-02-2008 12:58:01 5.8 C 5.09 g/m*3 5.8 C 0 km/h
66 11-02-2008 13:10:02 6.6 C 4.98 g/m*3 6.6 C 0 km/h
67 11-02-2008 13:22:02 7.3 C 4.82 g/m*3 7.3 C 0 km/h
68 11-02-2008 13:34:02 7.9 C 4.76 g/m*3 7.9 C 0 km/h
69 11-02-2008 13:46:02 8.6 C 4.64 g/m*3 8.6 C 0 km/h
70 11-02-2008 13:58:02 9.1 C 4.53 g/m*3 9.1 C 0 km/h
71 11-02-2008 14:10:01 9.7 C 4.61 g/m*3 9.7 C 0 km/h
72 11-02-2008 14:22:01 10.2 C 4.57 g/m*3 10.2 C 0 km/h
73 11-02-2008 14:34:02 10.7 C 4.52 g/m*3 10.7 C 0 km/h
74 11-02-2008 14:46:02 11.5 C 4.54 g/m*3 11.5 C 0 km/h
75 11-02-2008 14:58:02 11.7 C 4.39 g/m*3 11.7 C 0 km/h
Sensor: Nr:Datum:Temp:Abs-Feuchte:Windchill:Wind:
Aussen-T/F 76 11-02-2008 15:10:02 12 C 4.37 g/m*3 12 C 0 km/h
77 11-02-2008 15:22:02 12.3 C 4.45 g/m*3 12.3 C 0 km/h
78 11-02-2008 15:34:02 12.7 C 4.45 g/m*3 12.7 C 0 km/h
79 11-02-2008 15:46:02 12.6 C 4.43 g/m*3 12.6 C 0 km/h
80 11-02-2008 15:58:02 12.8 C 4.48 g/m*3 12.8 C 0 km/h
81 11-02-2008 16:10:02 12.4 C 4.48 g/m*3 12.4 C 0 km/h
82 11-02-2008 16:22:03 12 C 4.37 g/m*3 12 C 0 km/h
83 11-02-2008 16:34:02 11.9 C 4.45 g/m*3 11.9 C 0 km/h
84 11-02-2008 16:46:01 11.7 C 4.39 g/m*3 11.7 C 0 km/h
85 11-02-2008 16:58:01 11 C 4.3 g/m*3 11 C 0 km/h
86 11-02-2008 17:10:02 10.1 C 4.44 g/m*3 10.1 C 0 km/h
87 11-02-2008 17:22:02 9.4 C 4.52 g/m*3 9.4 C 0 km/h
88 11-02-2008 17:34:01 8.9 C 4.47 g/m*3 8.9 C 0 km/h
89 11-02-2008 17:46:02 8.5 C 4.53 g/m*3 8.5 C 0 km/h
90 11-02-2008 17:58:02 8.2 C 4.44 g/m*3 8.2 C 0 km/h
91 11-02-2008 18:10:01 8 C 4.46 g/m*3 8 C 0 km/h
92 11-02-2008 18:22:02 7.7 C 4.54 g/m*3 7.7 C 0 km/h
93 11-02-2008 18:34:02 7.4 C 4.61 g/m*3 7.4 C 0 km/h
94 11-02-2008 18:46:02 6.9 C 4.54 g/m*3 6.9 C 0 km/h
95 11-02-2008 18:58:02 6.6 C 4.68 g/m*3 6.6 C 0 km/h
96 11-02-2008 19:10:02 6.2 C 4.63 g/m*3 6.2 C 0 km/h
97 11-02-2008 19:22:02 6.2 C 4.71 g/m*3 6.2 C 0 km/h
98 11-02-2008 19:34:01 5.8 C 4.58 g/m*3 5.8 C 0 km/h
99 11-02-2008 19:46:01 5.6 C 4.67 g/m*3 5.6 C 0 km/h
100 11-02-2008 19:58:01 5.4 C 4.6 g/m*3 5.4 C 0 km/h
Sensor: Nr:Datum:Temp:Abs-Feuchte:Windchill:Wind:
Aussen-T/F 101 11-02-2008 20:10:02 5.3 C 4.64 g/m*3 5.3 C 0 km/h
102 11-02-2008 20:22:02 5 C 4.55 g/m*3 5 C 0 km/h
103 11-02-2008 20:34:01 4.6 C 4.57 g/m*3 4.6 C 0 km/h
104 11-02-2008 20:46:02 4.5 C 4.6 g/m*3 4.5 C 0 km/h
105 11-02-2008 20:58:02 4.4 C 4.57 g/m*3 4.4 C 0 km/h
106 11-02-2008 21:10:02 4.1 C 4.48 g/m*3 4.1 C 0 km/h
107 11-02-2008 21:22:01 3.9 C 4.55 g/m*3 3.9 C 0 km/h
108 11-02-2008 21:34:02 3.6 C 4.52 g/m*3 3.6 C 0 km/h
109 11-02-2008 21:46:02 3.4 C 4.58 g/m*3 3.4 C 0 km/h
110 11-02-2008 21:58:02 3.2 C 4.52 g/m*3 3.2 C 0 km/h
111 11-02-2008 22:10:02 3.1 C 4.55 g/m*3 3.1 C 0 km/h
112 11-02-2008 22:22:01 2.9 C 4.55 g/m*3 2.9 C 0 km/h
113 11-02-2008 22:34:02 2.7 C 4.49 g/m*3 2.7 C 0 km/h
114 11-02-2008 22:46:03 2.6 C 4.51 g/m*3 2.6 C 0 km/h
115 11-02-2008 22:58:03 2.4 C 4.45 g/m*3 2.4 C 0 km/h
116 11-02-2008 23:10:02 2 C 4.33 g/m*3 2 C 0 km/h
117 11-02-2008 23:22:02 2.1 C 4.48 g/m*3 2.1 C 0 km/h
118 11-02-2008 23:34:03 1.7 C 4.41 g/m*3 1.7 C 0 km/h
119 11-02-2008 23:46:02 1.6 C 4.38 g/m*3 1.6 C 0 km/h
120 11-02-2008 23:58:02 1.6 C 4.43 g/m*3 1.6 C 0 km/h
121 12-02-2008 00:10:02 1.5 C 4.4 g/m*3 1.5 C 0 km/h
122 12-02-2008 00:22:02 1.4 C 4.37 g/m*3 1.4 C 0 km/h
123 12-02-2008 00:34:02 1.3 C 4.34 g/m*3 1.3 C 0 km/h
124 12-02-2008 00:46:02 1.2 C 4.37 g/m*3 1.2 C 0 km/h
125 12-02-2008 00:58:02 1 C 4.26 g/m*3 1 C 0 km/h
Sensor: Nr:Datum:Temp:Abs-Feuchte:Windchill:Wind:
Aussen-T/F 126 12-02-2008 01:10:02 0.8 C 4.25 g/m*3 0.8 C 0 km/h
127 12-02-2008 01:22:02 0.8 C 4.3 g/m*3 0.8 C 0 km/h
128 12-02-2008 01:34:02 0.7 C 4.27 g/m*3 0.7 C 0 km/h
129 12-02-2008 01:46:02 0.7 C 4.27 g/m*3 0.7 C 0 km/h
130 12-02-2008 01:58:02 0.6 C 4.29 g/m*3 0.6 C 0 km/h
131 12-02-2008 02:10:03 0.4 C 4.23 g/m*3 0.4 C 0 km/h
132 12-02-2008 02:22:02 0.4 C 4.23 g/m*3 0.4 C 0 km/h
133 12-02-2008 02:34:02 0.3 C 4.2 g/m*3 0.3 C 0 km/h
134 12-02-2008 02:46:01 0.2 C 4.22 g/m*3 0.2 C 0 km/h
135 12-02-2008 02:58:01 0 C 4.12 g/m*3 0 C 0 km/h
136 12-02-2008 03:10:01 -0.2 C 4.11 g/m*3 -0.2 C 0 km/h
137 12-02-2008 03:22:01 -0.4 C 4.01 g/m*3 -0.4 C 0 km/h
138 12-02-2008 03:34:01 -0.4 C 4.05 g/m*3 -0.4 C 0 km/h
139 12-02-2008 03:46:01 -0.4 C 4.05 g/m*3 -0.4 C 0 km/h
140 12-02-2008 03:58:01 -0.6 C 4 g/m*3 -0.6 C 0 km/h
141 12-02-2008 04:10:02 -0.8 C 3.94 g/m*3 -0.8 C 0 km/h
142 12-02-2008 04:22:02 -0.9 C 3.91 g/m*3 -0.9 C 0 km/h
143 12-02-2008 04:34:01 -0.9 C 3.91 g/m*3 -0.9 C 0 km/h
144 12-02-2008 04:46:01 -1 C 3.89 g/m*3 -1 C 0 km/h
145 12-02-2008 04:58:01 -0.9 C 3.91 g/m*3 -0.9 C 0 km/h
146 12-02-2008 05:10:02 -1 C 3.93 g/m*3 -1 C 0 km/h
147 12-02-2008 05:22:01 -1.2 C 3.83 g/m*3 -1.2 C 0 km/h
148 12-02-2008 05:34:01 -1.4 C 3.78 g/m*3 -1.4 C 0 km/h
149 12-02-2008 05:46:01 -1.5 C 3.75 g/m*3 -1.5 C 0 km/h
150 12-02-2008 05:58:01 -1.5 C 3.8 g/m*3 -1.5 C 0 km/h
Sensor: Nr:Datum:Temp:Abs-Feuchte:Windchill:Wind:
Aussen-T/F 151 12-02-2008 06:10:02 -1.5 C 3.8 g/m*3 -1.5 C 0 km/h
152 12-02-2008 06:22:01 -1.5 C 3.84 g/m*3 -1.5 C 0 km/h
153 12-02-2008 06:34:01 -1.6 C 3.81 g/m*3 -1.6 C 0 km/h
154 12-02-2008 06:46:07 -1.6 C 3.81 g/m*3 -1.6 C 0 km/h
155 12-02-2008 06:58:07 -1.7 C 3.79 g/m*3 -1.7 C 0 km/h
156 12-02-2008 07:10:01 -1.8 C 3.8 g/m*3 -1.8 C 0 km/h
157 12-02-2008 07:22:01 -1.9 C 3.78 g/m*3 -1.9 C 0 km/h
158 12-02-2008 07:34:01 -2 C 3.71 g/m*3 -2 C 0 km/h
159 12-02-2008 07:46:01 -1.8 C 3.8 g/m*3 -1.8 C 0 km/h
160 12-02-2008 07:58:01 -1.7 C 3.83 g/m*3 -1.7 C 0 km/h
161 12-02-2008 08:10:02 -1.7 C 3.83 g/m*3 -1.7 C 0 km/h
162 12-02-2008 08:22:02 -1.6 C 3.86 g/m*3 -1.6 C 0 km/h
163 12-02-2008 08:34:01 -1.4 C 3.96 g/m*3 -1.4 C 0 km/h
164 12-02-2008 08:46:01 -1.4 C 3.96 g/m*3 -1.4 C 0 km/h
165 12-02-2008 08:58:01 -1.3 C 3.98 g/m*3 -1.3 C 0 km/h
166 12-02-2008 09:10:02 -1.2 C 4.06 g/m*3 -1.2 C 0 km/h
167 12-02-2008 09:22:01 -1.1 C 4.09 g/m*3 -1.1 C 0 km/h
168 12-02-2008 09:34:01 -0.9 C 4.14 g/m*3 -0.9 C 0 km/h
169 12-02-2008 09:46:02 -0.7 C 4.2 g/m*3 -0.7 C 0 km/h
170 12-02-2008 09:58:02 -0.6 C 4.23 g/m*3 -0.6 C 0 km/h
171 12-02-2008 10:10:01 -0.4 C 4.29 g/m*3 -0.4 C 0 km/h
172 12-02-2008 10:22:01 0.1 C 4.44 g/m*3 0.1 C 0 km/h
173 12-02-2008 10:34:02 0.1 C 4.39 g/m*3 0.1 C 0 km/h
174 12-02-2008 10:46:02 0.2 C 4.37 g/m*3 0.2 C 0 km/h
175 12-02-2008 10:58:02 0.6 C 4.49 g/m*3 0.6 C 0 km/h
Sensor: Nr:Datum:Temp:Abs-Feuchte:Windchill:Wind:
Aussen-T/F 176 12-02-2008 11:10:01 0.8 C 4.56 g/m*3 0.8 C 0 km/h
177 12-02-2008 11:22:01 1 C 4.57 g/m*3 1 C 0 km/h
178 12-02-2008 11:34:01 1.4 C 4.69 g/m*3 1.4 C 0 km/h
179 12-02-2008 11:46:02 1.7 C 4.74 g/m*3 1.7 C 0 km/h
180 12-02-2008 11:58:02 2 C 4.78 g/m*3 2 C 0 km/h
181 12-02-2008 12:10:02 2.3 C 4.82 g/m*3 2.3 C 0 km/h
182 12-02-2008 12:22:01 2.9 C 5.02 g/m*3 2.9 C 0 km/h
183 12-02-2008 12:34:01 3.5 C 5.1 g/m*3 3.5 C 0 km/h
184 12-02-2008 12:46:01 4 C 5.02 g/m*3 4 C 0 km/h
185 12-02-2008 12:58:01 4.6 C 5.1 g/m*3 4.6 C 0 km/h
186 12-02-2008 13:10:02 5.3 C 5.06 g/m*3 5.3 C 0 km/h
187 12-02-2008 13:22:01 6 C 5.01 g/m*3 6 C 0 km/h
188 12-02-2008 13:34:01 6.7 C 5.01 g/m*3 6.7 C 0 km/h
189 12-02-2008 13:46:01 7.4 C 4.93 g/m*3 7.4 C 0 km/h
190 12-02-2008 13:58:01 8.1 C 4.83 g/m*3 8.1 C 0 km/h
191 12-02-2008 14:10:02 8.8 C 4.79 g/m*3 8.8 C 0 km/h
192 12-02-2008 14:22:01 9.6 C 4.76 g/m*3 9.6 C 0 km/h
193 12-02-2008 14:34:02 10.1 C 4.82 g/m*3 10.1 C 0 km/h
194 12-02-2008 14:46:02 10.6 C 4.78 g/m*3 10.6 C 0 km/h
195 12-02-2008 14:58:02 10.9 C 4.77 g/m*3 10.9 C 0 km/h
196 12-02-2008 15:10:01 11.2 C 4.66 g/m*3 11.2 C 0 km/h
197 12-02-2008 15:22:01 11.8 C 4.84 g/m*3 11.8 C 0 km/h
198 12-02-2008 15:34:02 12.2 C 4.75 g/m*3 12.2 C 0 km/h
199 12-02-2008 15:46:02 12.1 C 4.5 g/m*3 12.1 C 0 km/h
200 12-02-2008 15:58:02 12.1 C 4.61 g/m*3 12.1 C 0 km/h
Sensor: Nr:Datum:Temp:Abs-Feuchte:Windchill:Wind:
Aussen-T/F 201 12-02-2008 16:10:01 12 C 4.48 g/m*3 12 C 0 km/h
202 12-02-2008 16:22:02 11.2 C 4.36 g/m*3 11.2 C 0 km/h
203 12-02-2008 16:34:01 11 C 4.2 g/m*3 11 C 0 km/h
204 12-02-2008 16:46:01 10.4 C 4.34 g/m*3 10.4 C 0 km/h
205 12-02-2008 16:58:01 10.1 C 4.16 g/m*3 10.1 C 0 km/h
206 12-02-2008 17:10:01 9.2 C 4.11 g/m*3 9.2 C 0 km/h
207 12-02-2008 17:22:02 8.4 C 4.33 g/m*3 8.4 C 0 km/h
208 12-02-2008 17:34:01 7.9 C 4.44 g/m*3 7.9 C 0 km/h
209 12-02-2008 17:46:01 7.4 C 4.45 g/m*3 7.4 C 0 km/h
210 12-02-2008 17:58:01 7.1 C 4.45 g/m*3 7.1 C 0 km/h
211 12-02-2008 18:10:01 6.8 C 4.59 g/m*3 6.8 C 0 km/h
212 12-02-2008 18:22:02 6.4 C 4.55 g/m*3 6.4 C 0 km/h
213 12-02-2008 18:34:01 6.2 C 4.56 g/m*3 6.2 C 0 km/h
214 12-02-2008 18:46:01 5.9 C 4.61 g/m*3 5.9 C 0 km/h
215 12-02-2008 18:58:01 5.6 C 4.6 g/m*3 5.6 C 0 km/h
216 12-02-2008 19:10:02 5.3 C 4.57 g/m*3 5.3 C 0 km/h
217 12-02-2008 19:22:02 5.1 C 4.58 g/m*3 5.1 C 0 km/h
218 12-02-2008 19:34:01 4.8 C 4.63 g/m*3 4.8 C 0 km/h
219 12-02-2008 19:46:01 4.7 C 4.66 g/m*3 4.7 C 0 km/h
220 12-02-2008 19:58:01 4.4 C 4.64 g/m*3 4.4 C 0 km/h
221 12-02-2008 20:10:01 4.3 C 4.61 g/m*3 4.3 C 0 km/h
222 12-02-2008 20:22:02 4.3 C 4.74 g/m*3 4.3 C 0 km/h
223 12-02-2008 20:34:01 4 C 4.64 g/m*3 4 C 0 km/h
224 12-02-2008 20:46:01 3.7 C 4.67 g/m*3 3.7 C 0 km/h
225 12-02-2008 20:58:01 3.5 C 4.61 g/m*3 3.5 C 0 km/h
Sensor: Nr:Datum:Temp:Abs-Feuchte:Windchill:Wind:
Aussen-T/F 226 12-02-2008 21:10:02 3.3 C 4.55 g/m*3 3.3 C 0 km/h
227 12-02-2008 21:22:01 3.3 C 4.67 g/m*3 3.3 C 0 km/h
228 12-02-2008 21:34:01 3.2 C 4.7 g/m*3 3.2 C 0 km/h
229 12-02-2008 21:46:01 3.4 C 4.83 g/m*3 3.4 C 0 km/h
230 12-02-2008 21:58:01 3.4 C 4.76 g/m*3 3.4 C 0 km/h
231 12-02-2008 22:10:02 3.3 C 4.73 g/m*3 3.3 C 0 km/h
232 12-02-2008 22:22:01 3.4 C 4.7 g/m*3 3.4 C 0 km/h
233 12-02-2008 22:34:01 3.1 C 4.61 g/m*3 3.1 C 0 km/h
234 12-02-2008 22:46:01 3 C 4.64 g/m*3 3 C 0 km/h
235 12-02-2008 22:58:01 2.9 C 4.67 g/m*3 2.9 C 0 km/h
236 12-02-2008 23:10:01 2.8 C 4.63 g/m*3 2.8 C 0 km/h
237 12-02-2008 23:22:02 2.7 C 4.54 g/m*3 2.7 C 0 km/h
238 12-02-2008 23:34:01 2.4 C 4.45 g/m*3 2.4 C 0 km/h
239 12-02-2008 23:46:01 2.3 C 4.48 g/m*3 2.3 C 0 km/h
240 12-02-2008 23:58:01 2.1 C 4.42 g/m*3 2.1 C 0 km/h
241 13-02-2008 00:10:01 2.2 C 4.56 g/m*3 2.2 C 0 km/h
242 13-02-2008 00:22:02 2.1 C 4.53 g/m*3 2.1 C 0 km/h
243 13-02-2008 00:34:01 1.9 C 4.53 g/m*3 1.9 C 0 km/h
244 13-02-2008 00:46:01 1.8 C 4.49 g/m*3 1.8 C 0 km/h
245 13-02-2008 00:58:01 1.7 C 4.52 g/m*3 1.7 C 0 km/h
246 13-02-2008 01:10:01 1.5 C 4.46 g/m*3 1.5 C 0 km/h
247 13-02-2008 01:22:02 1.5 C 4.46 g/m*3 1.5 C 0 km/h
248 13-02-2008 01:34:01 1.3 C 4.4 g/m*3 1.3 C 0 km/h
249 13-02-2008 01:46:01 1 C 4.31 g/m*3 1 C 0 km/h
250 13-02-2008 01:58:01 1 C 4.31 g/m*3 1 C 0 km/h
Sensor: Nr:Datum:Temp:Abs-Feuchte:Windchill:Wind:
Aussen-T/F 251 13-02-2008 02:10:02 0.8 C 4.3 g/m*3 0.8 C 0 km/h
252 13-02-2008 02:22:01 0.6 C 4.24 g/m*3 0.6 C 0 km/h
253 13-02-2008 02:34:01 0.4 C 4.18 g/m*3 0.4 C 0 km/h
254 13-02-2008 02:47:04 0.3 C 4.16 g/m*3 0.3 C 0 km/h
255 13-02-2008 02:59:04 0.2 C 4.13 g/m*3 0.2 C 0 km/h
256 13-02-2008 03:11:04 0.1 C 4.1 g/m*3 0.1 C 0 km/h
257 13-02-2008 03:23:04 0 C 4.12 g/m*3 0 C 0 km/h
258 13-02-2008 03:35:02 -0.2 C 4.06 g/m*3 -0.2 C 0 km/h
259 13-02-2008 03:47:02 -0.4 C 4.01 g/m*3 -0.4 C 0 km/h
260 13-02-2008 03:59:02 -0.6 C 3.95 g/m*3 -0.6 C 0 km/h
261 13-02-2008 04:11:03 -1 C 3.8 g/m*3 -1 C 0 km/h
262 13-02-2008 04:23:02 -0.9 C 3.87 g/m*3 -0.9 C 0 km/h
263 13-02-2008 04:35:02 -1 C 3.84 g/m*3 -1 C 0 km/h
264 13-02-2008 04:47:02 -1 C 3.89 g/m*3 -1 C 0 km/h
265 13-02-2008 04:59:02 -1.1 C 3.86 g/m*3 -1.1 C 0 km/h
266 13-02-2008 05:11:02 -1.1 C 3.86 g/m*3 -1.1 C 0 km/h
267 13-02-2008 05:23:02 -1.2 C 3.88 g/m*3 -1.2 C 0 km/h
268 13-02-2008 05:35:03 -1.4 C 3.78 g/m*3 -1.4 C 0 km/h
269 13-02-2008 05:47:02 -1.4 C 3.78 g/m*3 -1.4 C 0 km/h
270 13-02-2008 05:59:02 -1.4 C 3.82 g/m*3 -1.4 C 0 km/h
271 13-02-2008 06:11:02 -1.5 C 3.8 g/m*3 -1.5 C 0 km/h
272 13-02-2008 06:23:01 -1.5 C 3.8 g/m*3 -1.5 C 0 km/h
273 13-02-2008 06:35:02 -1.4 C 3.87 g/m*3 -1.4 C 0 km/h
274 13-02-2008 06:47:01 -1.6 C 3.81 g/m*3 -1.6 C 0 km/h
275 13-02-2008 06:59:02 -1.8 C 3.76 g/m*3 -1.8 C 0 km/h
Sensor: Nr:Datum:Temp:Abs-Feuchte:Windchill:Wind:
Aussen-T/F 276 13-02-2008 07:11:01 -1.6 C 3.81 g/m*3 -1.6 C 0 km/h
277 13-02-2008 07:23:02 -1.7 C 3.79 g/m*3 -1.7 C 0 km/h
278 13-02-2008 07:35:01 -1.4 C 3.91 g/m*3 -1.4 C 0 km/h
279 13-02-2008 07:47:01 -1.2 C 3.97 g/m*3 -1.2 C 0 km/h
280 13-02-2008 07:59:01 -0.9 C 4.1 g/m*3 -0.9 C 0 km/h
281 13-02-2008 08:11:01 -0.7 C 4.15 g/m*3 -0.7 C 0 km/h
282 13-02-2008 08:23:02 -0.5 C 4.21 g/m*3 -0.5 C 0 km/h
283 13-02-2008 08:35:01 -0.1 C 4.38 g/m*3 -0.1 C 0 km/h
284 13-02-2008 08:47:01 0.1 C 4.44 g/m*3 0.1 C 0 km/h
285 13-02-2008 08:59:01 0.4 C 4.58 g/m*3 0.4 C 0 km/h
286 13-02-2008 09:11:01 0.6 C 4.65 g/m*3 0.6 C 0 km/h
287 13-02-2008 09:23:01 0.7 C 4.68 g/m*3 0.7 C 0 km/h
288 13-02-2008 09:35:01 0.8 C 4.66 g/m*3 0.8 C 0 km/h
289 13-02-2008 09:47:01 1 C 4.67 g/m*3 1 C 0 km/h
290 13-02-2008 09:59:01 1.1 C 4.7 g/m*3 1.1 C 0 km/h
291 13-02-2008 10:11:02 1.6 C 4.81 g/m*3 1.6 C 0 km/h
292 13-02-2008 10:23:01 1.8 C 4.82 g/m*3 1.8 C 0 km/h
293 13-02-2008 10:35:01 2.1 C 4.76 g/m*3 2.1 C 0 km/h
294 13-02-2008 10:47:02 2.6 C 4.86 g/m*3 2.6 C 0 km/h
295 13-02-2008 10:59:02 2.8 C 4.81 g/m*3 2.8 C 0 km/h
296 13-02-2008 11:11:03 2.8 C 4.63 g/m*3 2.8 C 0 km/h
297 13-02-2008 11:23:02 3 C 4.58 g/m*3 3 C 0 km/h
298 13-02-2008 11:35:02 3.4 C 4.64 g/m*3 3.4 C 0 km/h
299 13-02-2008 11:47:02 3.6 C 4.64 g/m*3 3.6 C 0 km/h
300 13-02-2008 11:59:02 3.7 C 4.61 g/m*3 3.7 C 0 km/h
Sensor: Nr:Datum:Temp:Abs-Feuchte:Windchill:Wind:
Aussen-T/F 301 13-02-2008 12:11:02 3.9 C 4.61 g/m*3 3.9 C 0 km/h
302 13-02-2008 12:23:01 4.4 C 4.64 g/m*3 4.4 C 0 km/h
303 13-02-2008 12:35:02 4.6 C 4.63 g/m*3 4.6 C 0 km/h
304 13-02-2008 12:47:02 4.7 C 4.53 g/m*3 4.7 C 0 km/h
305 13-02-2008 12:59:02 4.7 C 4.4 g/m*3 4.7 C 0 km/h
306 13-02-2008 13:11:02 4.9 C 4.46 g/m*3 4.9 C 0 km/h
307 13-02-2008 13:23:03 5.3 C 4.44 g/m*3 5.3 C 0 km/h
308 13-02-2008 13:35:02 5.6 C 4.45 g/m*3 5.6 C 0 km/h
309 13-02-2008 13:47:01 5.2 C 4.34 g/m*3 5.2 C 0 km/h
310 13-02-2008 13:59:01 5.6 C 4.52 g/m*3 5.6 C 0 km/h
311 13-02-2008 14:11:01 6.3 C 4.52 g/m*3 6.3 C 0 km/h
312 13-02-2008 14:23:02 6.7 C 4.48 g/m*3 6.7 C 0 km/h
313 13-02-2008 14:35:01 7.2 C 4.32 g/m*3 7.2 C 0 km/h
314 13-02-2008 14:47:01 7.5 C 4.32 g/m*3 7.5 C 0 km/h
315 13-02-2008 14:59:01 7.8 C 4.24 g/m*3 7.8 C 0 km/h
316 13-02-2008 15:11:02 8 C 4.22 g/m*3 8 C 0 km/h
317 13-02-2008 15:23:02 8.2 C 4.19 g/m*3 8.2 C 0 km/h
318 13-02-2008 15:35:01 8.2 C 4.19 g/m*3 8.2 C 0 km/h
319 13-02-2008 15:47:01 8.7 C 4.24 g/m*3 8.7 C 0 km/h
320 13-02-2008 15:59:01 8.6 C 4.21 g/m*3 8.6 C 0 km/h
321 13-02-2008 16:11:02 8.6 C 4.21 g/m*3 8.6 C 0 km/h
322 13-02-2008 16:23:01 8.4 C 4.24 g/m*3 8.4 C 0 km/h
323 13-02-2008 16:35:02 8.2 C 4.19 g/m*3 8.2 C 0 km/h
324 13-02-2008 16:47:02 7.9 C 4.19 g/m*3 7.9 C 0 km/h
325 13-02-2008 16:59:02 7.1 C 4.13 g/m*3 7.1 C 0 km/h
Sensor: Nr:Datum:Temp:Abs-Feuchte:Windchill:Wind:
Aussen-T/F 326 13-02-2008 17:11:02 6.4 C 4.17 g/m*3 6.4 C 0 km/h
327 13-02-2008 17:23:02 5.5 C 4.21 g/m*3 5.5 C 0 km/h
328 13-02-2008 17:35:02 4.9 C 4.25 g/m*3 4.9 C 0 km/h
329 13-02-2008 17:47:02 4.2 C 4.25 g/m*3 4.2 C 0 km/h
330 13-02-2008 17:59:02 3.8 C 4.39 g/m*3 3.8 C 0 km/h
331 13-02-2008 18:11:02 3.4 C 4.4 g/m*3 3.4 C 0 km/h
332 13-02-2008 18:23:02 3.2 C 4.46 g/m*3 3.2 C 0 km/h
333 13-02-2008 18:35:02 3 C 4.46 g/m*3 3 C 0 km/h
334 13-02-2008 18:47:01 2.7 C 4.49 g/m*3 2.7 C 0 km/h
335 13-02-2008 18:59:01 2.5 C 4.48 g/m*3 2.5 C 0 km/h
336 13-02-2008 19:11:02 2.4 C 4.45 g/m*3 2.4 C 0 km/h
337 13-02-2008 19:23:02 2.2 C 4.39 g/m*3 2.2 C 0 km/h
338 13-02-2008 19:35:01 2.1 C 4.36 g/m*3 2.1 C 0 km/h
339 13-02-2008 19:47:02 1.9 C 4.42 g/m*3 1.9 C 0 km/h
340 13-02-2008 19:59:02 1.7 C 4.36 g/m*3 1.7 C 0 km/h
341 13-02-2008 20:11:01 1.5 C 4.35 g/m*3 1.5 C 0 km/h
342 13-02-2008 20:23:02 1.4 C 4.32 g/m*3 1.4 C 0 km/h
343 13-02-2008 20:35:02 1.2 C 4.31 g/m*3 1.2 C 0 km/h
344 13-02-2008 20:47:02 1 C 4.26 g/m*3 1 C 0 km/h
345 13-02-2008 20:59:02 0.8 C 4.25 g/m*3 0.8 C 0 km/h
346 13-02-2008 21:11:02 0.6 C 4.24 g/m*3 0.6 C 0 km/h
347 13-02-2008 21:23:02 0.6 C 4.24 g/m*3 0.6 C 0 km/h
348 13-02-2008 21:35:02 0.4 C 4.18 g/m*3 0.4 C 0 km/h
349 13-02-2008 21:47:02 0.1 C 4.1 g/m*3 0.1 C 0 km/h
350 13-02-2008 21:59:02 0.1 C 4.1 g/m*3 0.1 C 0 km/h
Sensor: Nr:Datum:Temp:Abs-Feuchte:Windchill:Wind:
Aussen-T/F 351 13-02-2008 22:11:01 0 C 4.12 g/m*3 0 C 0 km/h
352 13-02-2008 22:23:02 -0.1 C 4.04 g/m*3 -0.1 C 0 km/h
353 13-02-2008 22:36:03 -0.1 C 4.09 g/m*3 -0.1 C 0 km/h
354 13-02-2008 22:48:03 -0.4 C 3.96 g/m*3 -0.4 C 0 km/h
355 13-02-2008 23:00:03 -0.4 C 4.01 g/m*3 -0.4 C 0 km/h
356 13-02-2008 23:12:03 -0.5 C 3.98 g/m*3 -0.5 C 0 km/h
357 13-02-2008 23:24:03 -0.7 C 3.92 g/m*3 -0.7 C 0 km/h
358 13-02-2008 23:36:03 -0.9 C 3.87 g/m*3 -0.9 C 0 km/h
359 13-02-2008 23:48:03 -0.9 C 3.87 g/m*3 -0.9 C 0 km/h
360 14-02-2008 00:00:03 -0.5 C 4.03 g/m*3 -0.5 C 0 km/h
361 14-02-2008 00:12:03 -0.2 C 4.16 g/m*3 -0.2 C 0 km/h
362 14-02-2008 00:24:03 0 C 4.26 g/m*3 0 C 0 km/h
363 14-02-2008 00:36:03 0 C 4.26 g/m*3 0 C 0 km/h
364 14-02-2008 00:48:03 -0.4 C 4.15 g/m*3 -0.4 C 0 km/h
365 14-02-2008 01:00:03 -0.2 C 4.25 g/m*3 -0.2 C 0 km/h
366 14-02-2008 01:12:03 0.1 C 4.34 g/m*3 0.1 C 0 km/h
367 14-02-2008 01:24:04 0.2 C 4.37 g/m*3 0.2 C 0 km/h
368 14-02-2008 01:36:04 -0.1 C 4.28 g/m*3 -0.1 C 0 km/h
369 14-02-2008 01:48:04 0 C 4.31 g/m*3 0 C 0 km/h
370 14-02-2008 02:00:04 0 C 4.31 g/m*3 0 C 0 km/h
371 14-02-2008 02:12:04 0 C 4.36 g/m*3 0 C 0 km/h
372 14-02-2008 02:24:04 0 C 4.36 g/m*3 0 C 0 km/h
373 14-02-2008 02:36:04 0.2 C 4.42 g/m*3 0.2 C 0 km/h
374 14-02-2008 02:48:04 0.4 C 4.53 g/m*3 0.4 C 0 km/h
375 14-02-2008 03:00:04 0.2 C 4.42 g/m*3 0.2 C 0 km/h
Sensor: Nr:Datum:Temp:Abs-Feuchte:Windchill:Wind:
Aussen-T/F 376 14-02-2008 03:12:04 0.1 C 4.39 g/m*3 0.1 C 0 km/h
377 14-02-2008 03:24:04 0.1 C 4.39 g/m*3 0.1 C 0 km/h
378 14-02-2008 03:36:04 0.2 C 4.47 g/m*3 0.2 C 0 km/h
379 14-02-2008 03:48:04 0.3 C 4.5 g/m*3 0.3 C 0 km/h
380 14-02-2008 04:00:04 0.3 C 4.5 g/m*3 0.3 C 0 km/h
381 14-02-2008 04:12:04 0.1 C 4.39 g/m*3 0.1 C 0 km/h
382 14-02-2008 04:24:04 -0.1 C 4.33 g/m*3 -0.1 C 0 km/h
383 14-02-2008 04:36:04 -0.1 C 4.38 g/m*3 -0.1 C 0 km/h
384 14-02-2008 04:48:04 -0.1 C 4.38 g/m*3 -0.1 C 0 km/h
385 14-02-2008 05:00:04 -0.1 C 4.43 g/m*3 -0.1 C 0 km/h
386 14-02-2008 05:12:05 0.1 C 4.49 g/m*3 0.1 C 0 km/h
387 14-02-2008 05:24:05 0.2 C 4.52 g/m*3 0.2 C 0 km/h
388 14-02-2008 05:36:05 0.2 C 4.52 g/m*3 0.2 C 0 km/h
389 14-02-2008 05:48:05 0.3 C 4.55 g/m*3 0.3 C 0 km/h
390 14-02-2008 06:00:05 0.1 C 4.49 g/m*3 0.1 C 0 km/h
391 14-02-2008 06:12:05 0.1 C 4.49 g/m*3 0.1 C 0 km/h
392 14-02-2008 06:24:05 0.2 C 4.52 g/m*3 0.2 C 0 km/h
393 14-02-2008 06:36:05 0.2 C 4.52 g/m*3 0.2 C 0 km/h
394 14-02-2008 06:48:05 0.1 C 4.49 g/m*3 0.1 C 0 km/h
395 14-02-2008 07:00:05 -0.2 C 4.4 g/m*3 -0.2 C 0 km/h
396 14-02-2008 07:12:05 -0.1 C 4.43 g/m*3 -0.1 C 0 km/h
397 14-02-2008 07:24:05 -0.1 C 4.47 g/m*3 -0.1 C 0 km/h
398 14-02-2008 07:36:05 0 C 4.51 g/m*3 0 C 0 km/h
399 14-02-2008 07:48:05 0.1 C 4.54 g/m*3 0.1 C 0 km/h
400 14-02-2008 08:00:05 0 C 4.51 g/m*3 0 C 0 km/h
Sensor: Nr:Datum:Temp:Abs-Feuchte:Windchill:Wind:
Aussen-T/F 401 14-02-2008 08:12:05 0.1 C 4.54 g/m*3 0.1 C 0 km/h
402 14-02-2008 08:24:05 0.1 C 4.54 g/m*3 0.1 C 0 km/h
403 14-02-2008 08:36:05 0 C 4.46 g/m*3 0 C 0 km/h
404 14-02-2008 08:48:05 0.2 C 4.52 g/m*3 0.2 C 0 km/h
405 14-02-2008 09:00:06 0 C 4.46 g/m*3 0 C 0 km/h
406 14-02-2008 09:12:03 0 C 4.46 g/m*3 0 C 0 km/h
407 14-02-2008 09:24:03 0 C 4.46 g/m*3 0 C 0 km/h
408 14-02-2008 09:36:02 -0.1 C 4.43 g/m*3 -0.1 C 0 km/h
409 14-02-2008 09:48:02 0 C 4.46 g/m*3 0 C 0 km/h
410 14-02-2008 10:00:02 0.2 C 4.52 g/m*3 0.2 C 0 km/h
411 14-02-2008 10:12:02 0.1 C 4.44 g/m*3 0.1 C 0 km/h
412 14-02-2008 10:24:02 0.3 C 4.5 g/m*3 0.3 C 0 km/h
413 14-02-2008 10:36:01 0.4 C 4.53 g/m*3 0.4 C 0 km/h
414 14-02-2008 10:48:01 0.3 C 4.45 g/m*3 0.3 C 0 km/h
415 14-02-2008 11:00:01 0.5 C 4.51 g/m*3 0.5 C 0 km/h
416 14-02-2008 11:12:02 0.7 C 4.58 g/m*3 0.7 C 0 km/h
417 14-02-2008 11:24:02 0.8 C 4.56 g/m*3 0.8 C 0 km/h
418 14-02-2008 11:36:01 1 C 4.57 g/m*3 1 C 0 km/h
419 14-02-2008 11:48:01 1 C 4.52 g/m*3 1 C 0 km/h
420 14-02-2008 12:00:01 1.2 C 4.53 g/m*3 1.2 C 0 km/h
421 14-02-2008 12:12:02 1.4 C 4.59 g/m*3 1.4 C 0 km/h
422 14-02-2008 12:24:02 1.3 C 4.45 g/m*3 1.3 C 0 km/h
423 14-02-2008 12:36:01 1.3 C 4.34 g/m*3 1.3 C 0 km/h
424 14-02-2008 12:48:02 1.5 C 4.35 g/m*3 1.5 C 0 km/h
425 14-02-2008 13:00:02 1.7 C 4.41 g/m*3 1.7 C 0 km/h
Sensor: Nr:Datum:Temp:Abs-Feuchte:Windchill:Wind:
Aussen-T/F 426 14-02-2008 13:12:01 1.9 C 4.42 g/m*3 1.9 C 0 km/h
427 14-02-2008 13:24:02 2 C 4.39 g/m*3 2 C 0 km/h
428 14-02-2008 13:36:02 2 C 4.33 g/m*3 2 C 0 km/h
429 14-02-2008 13:48:02 2.1 C 4.36 g/m*3 2.1 C 0 km/h
430 14-02-2008 14:00:03 2.2 C 4.39 g/m*3 2.2 C 0 km/h
431 14-02-2008 14:12:02 2.3 C 4.42 g/m*3 2.3 C 0 km/h
432 14-02-2008 14:24:02 2.3 C 4.42 g/m*3 2.3 C 0 km/h
433 14-02-2008 14:36:02 2.4 C 4.4 g/m*3 2.4 C 0 km/h
434 14-02-2008 14:48:02 2.4 C 4.4 g/m*3 2.4 C 0 km/h
435 14-02-2008 15:00:02 2.5 C 4.43 g/m*3 2.5 C 0 km/h
436 14-02-2008 15:12:01 2.3 C 4.31 g/m*3 2.3 C 0 km/h
437 14-02-2008 15:24:01 2.4 C 4.34 g/m*3 2.4 C 0 km/h
438 14-02-2008 15:36:02 2.4 C 4.34 g/m*3 2.4 C 0 km/h
439 14-02-2008 15:48:02 2.3 C 4.31 g/m*3 2.3 C 0 km/h
440 14-02-2008 16:00:02 2.3 C 4.31 g/m*3 2.3 C 0 km/h
441 14-02-2008 16:12:02 2.3 C 4.37 g/m*3 2.3 C 0 km/h
442 14-02-2008 16:24:02 2.3 C 4.31 g/m*3 2.3 C 0 km/h
443 14-02-2008 16:36:03 2.3 C 4.31 g/m*3 2.3 C 0 km/h
444 14-02-2008 16:48:02 2.3 C 4.31 g/m*3 2.3 C 0 km/h
445 14-02-2008 17:00:02 2.1 C 4.25 g/m*3 2.1 C 0 km/h
446 14-02-2008 17:12:02 2.1 C 4.31 g/m*3 2.1 C 0 km/h
447 14-02-2008 17:24:02 2 C 4.33 g/m*3 2 C 0 km/h
448 14-02-2008 17:36:02 2 C 4.33 g/m*3 2 C 0 km/h
449 14-02-2008 17:48:02 2.1 C 4.42 g/m*3 2.1 C 0 km/h
450 14-02-2008 18:00:02 2 C 4.39 g/m*3 2 C 0 km/h
Sensor: Nr:Datum:Temp:Abs-Feuchte:Windchill:Wind:
Aussen-T/F 451 14-02-2008 18:12:02 2 C 4.39 g/m*3 2 C 0 km/h
452 14-02-2008 18:24:02 2 C 4.39 g/m*3 2 C 0 km/h
453 14-02-2008 18:36:02 2 C 4.33 g/m*3 2 C 0 km/h
454 14-02-2008 18:48:02 1.8 C 4.33 g/m*3 1.8 C 0 km/h
455 14-02-2008 19:00:02 1.8 C 4.33 g/m*3 1.8 C 0 km/h
456 14-02-2008 19:12:02 1.8 C 4.33 g/m*3 1.8 C 0 km/h
457 14-02-2008 19:24:02 1.8 C 4.33 g/m*3 1.8 C 0 km/h
458 14-02-2008 19:36:02 1.8 C 4.33 g/m*3 1.8 C 0 km/h
459 14-02-2008 19:48:01 1.7 C 4.3 g/m*3 1.7 C 0 km/h
460 14-02-2008 20:00:01 1.6 C 4.27 g/m*3 1.6 C 0 km/h
461 14-02-2008 20:12:02 1.6 C 4.33 g/m*3 1.6 C 0 km/h
462 14-02-2008 20:24:02 1.6 C 4.33 g/m*3 1.6 C 0 km/h
463 14-02-2008 20:36:02 1.6 C 4.33 g/m*3 1.6 C 0 km/h
464 14-02-2008 20:48:02 1.5 C 4.3 g/m*3 1.5 C 0 km/h
465 14-02-2008 21:00:02 1.4 C 4.27 g/m*3 1.4 C 0 km/h
466 14-02-2008 21:12:02 1.5 C 4.3 g/m*3 1.5 C 0 km/h
467 14-02-2008 21:24:01 1.5 C 4.3 g/m*3 1.5 C 0 km/h
468 14-02-2008 21:36:02 1.4 C 4.27 g/m*3 1.4 C 0 km/h
469 14-02-2008 21:48:02 1.4 C 4.27 g/m*3 1.4 C 0 km/h
470 14-02-2008 22:00:02 1.3 C 4.24 g/m*3 1.3 C 0 km/h
471 14-02-2008 22:12:02 1.4 C 4.27 g/m*3 1.4 C 0 km/h
472 14-02-2008 22:24:02 1.4 C 4.27 g/m*3 1.4 C 0 km/h
473 14-02-2008 22:37:02 1.4 C 4.27 g/m*3 1.4 C 0 km/h
474 14-02-2008 22:49:02 1.3 C 4.29 g/m*3 1.3 C 0 km/h
475 14-02-2008 23:01:02 1.2 C 4.26 g/m*3 1.2 C 0 km/h
Sensor: Nr:Datum:Temp:Abs-Feuchte:Windchill:Wind:
Aussen-T/F 476 14-02-2008 23:13:02 1.2 C 4.31 g/m*3 1.2 C 0 km/h
477 14-02-2008 23:25:02 1.3 C 4.4 g/m*3 1.3 C 0 km/h
478 14-02-2008 23:37:02 1.4 C 4.43 g/m*3 1.4 C 0 km/h
479 14-02-2008 23:49:02 1.4 C 4.43 g/m*3 1.4 C 0 km/h
480 15-02-2008 00:01:02 1.4 C 4.43 g/m*3 1.4 C 0 km/h
481 15-02-2008 00:13:02 1.4 C 4.48 g/m*3 1.4 C 0 km/h
482 15-02-2008 00:25:03 1.4 C 4.48 g/m*3 1.4 C 0 km/h
483 15-02-2008 00:37:03 1.4 C 4.48 g/m*3 1.4 C 0 km/h
484 15-02-2008 00:49:03 1.4 C 4.48 g/m*3 1.4 C 0 km/h
485 15-02-2008 01:01:03 1.4 C 4.48 g/m*3 1.4 C 0 km/h
486 15-02-2008 01:13:03 1.3 C 4.45 g/m*3 1.3 C 0 km/h
487 15-02-2008 01:25:03 1.3 C 4.4 g/m*3 1.3 C 0 km/h
488 15-02-2008 01:37:03 1.2 C 4.37 g/m*3 1.2 C 0 km/h
489 15-02-2008 01:49:03 1.2 C 4.37 g/m*3 1.2 C 0 km/h
490 15-02-2008 02:01:03 1.1 C 4.34 g/m*3 1.1 C 0 km/h
491 15-02-2008 02:13:03 1.1 C 4.34 g/m*3 1.1 C 0 km/h
492 15-02-2008 02:25:03 1 C 4.31 g/m*3 1 C 0 km/h
493 15-02-2008 02:37:03 1.1 C 4.34 g/m*3 1.1 C 0 km/h
494 15-02-2008 02:49:03 1 C 4.26 g/m*3 1 C 0 km/h
495 15-02-2008 03:01:03 1.1 C 4.23 g/m*3 1.1 C 0 km/h
496 15-02-2008 03:13:03 1.2 C 4.16 g/m*3 1.2 C 0 km/h
497 15-02-2008 03:25:03 1.2 C 4.1 g/m*3 1.2 C 0 km/h
498 15-02-2008 03:37:03 1.2 C 4.1 g/m*3 1.2 C 0 km/h
499 15-02-2008 03:49:03 1.2 C 4.05 g/m*3 1.2 C 0 km/h
500 15-02-2008 04:01:03 1.2 C 4.05 g/m*3 1.2 C 0 km/h
Sensor: Nr:Datum:Temp:Abs-Feuchte:Windchill:Wind:
Aussen-T/F 501 15-02-2008 04:13:03 1.2 C 4.05 g/m*3 1.2 C 0 km/h
502 15-02-2008 04:25:03 1.3 C 4.03 g/m*3 1.3 C 0 km/h
503 15-02-2008 04:37:04 1.3 C 3.92 g/m*3 1.3 C 0 km/h
504 15-02-2008 04:49:04 1.3 C 3.87 g/m*3 1.3 C 0 km/h
505 15-02-2008 05:01:04 1.3 C 3.81 g/m*3 1.3 C 0 km/h
506 15-02-2008 05:13:04 1.3 C 3.76 g/m*3 1.3 C 0 km/h
507 15-02-2008 05:25:04 1.4 C 3.79 g/m*3 1.4 C 0 km/h
508 15-02-2008 05:37:04 1.4 C 3.73 g/m*3 1.4 C 0 km/h
509 15-02-2008 05:49:04 1.3 C 3.71 g/m*3 1.3 C 0 km/h
510 15-02-2008 06:01:04 1.3 C 3.66 g/m*3 1.3 C 0 km/h
511 15-02-2008 06:13:04 1.1 C 3.66 g/m*3 1.1 C 0 km/h
512 15-02-2008 06:25:04 1 C 3.74 g/m*3 1 C 0 km/h
513 15-02-2008 06:37:04 1 C 3.79 g/m*3 1 C 0 km/h
514 15-02-2008 06:49:04 0.9 C 3.87 g/m*3 0.9 C 0 km/h
515 15-02-2008 07:01:02 0.8 C 3.84 g/m*3 0.8 C 0 km/h
516 15-02-2008 07:13:02 0.8 C 3.89 g/m*3 0.8 C 0 km/h
517 15-02-2008 07:25:02 0.8 C 3.89 g/m*3 0.8 C 0 km/h
518 15-02-2008 07:37:02 0.8 C 3.89 g/m*3 0.8 C 0 km/h
519 15-02-2008 07:49:02 0.8 C 3.89 g/m*3 0.8 C 0 km/h
520 15-02-2008 08:01:02 0.9 C 3.97 g/m*3 0.9 C 0 km/h
521 15-02-2008 08:13:02 1 C 3.94 g/m*3 1 C 0 km/h
522 15-02-2008 08:25:02 1.1 C 3.97 g/m*3 1.1 C 0 km/h
523 15-02-2008 08:37:01 1.2 C 4 g/m*3 1.2 C 0 km/h
524 15-02-2008 08:49:02 1.4 C 4.05 g/m*3 1.4 C 0 km/h
525 15-02-2008 09:01:02 1.6 C 4.06 g/m*3 1.6 C 0 km/h
Sensor: Nr:Datum:Temp:Abs-Feuchte:Windchill:Wind:
Aussen-T/F 526 15-02-2008 09:13:02 1.9 C 4.14 g/m*3 1.9 C 0 km/h
527 15-02-2008 09:25:02 2.2 C 4.11 g/m*3 2.2 C 0 km/h
528 15-02-2008 09:37:01 2.6 C 4.11 g/m*3 2.6 C 0 km/h
529 15-02-2008 09:49:01 2.8 C 3.99 g/m*3 2.8 C 0 km/h
530 15-02-2008 10:01:02 2.9 C 3.72 g/m*3 2.9 C 0 km/h
531 15-02-2008 10:13:02 3.1 C 3.71 g/m*3 3.1 C 0 km/h
532 15-02-2008 10:25:02 3.3 C 3.64 g/m*3 3.3 C 0 km/h
533 15-02-2008 10:37:01 3.5 C 3.63 g/m*3 3.5 C 0 km/h
534 15-02-2008 10:49:01 3.7 C 3.49 g/m*3 3.7 C 0 km/h
535 15-02-2008 11:01:02 3.6 C 3.22 g/m*3 3.6 C 0 km/h
536 15-02-2008 11:13:02 3.6 C 3.22 g/m*3 3.6 C 0 km/h
537 15-02-2008 11:25:01 3.1 C 2.99 g/m*3 3.1 C 0 km/h
538 15-02-2008 11:37:01 3 C 2.97 g/m*3 3 C 0 km/h
539 15-02-2008 11:49:03 3.6 C 2.91 g/m*3 3.6 C 0 km/h
540 15-02-2008 12:01:02 3.6 C 2.79 g/m*3 3.6 C 0 km/h
541 15-02-2008 12:13:03 3.3 C 2.73 g/m*3 3.3 C 0 km/h
542 15-02-2008 12:25:02 3.7 C 2.87 g/m*3 3.7 C 0 km/h
543 15-02-2008 12:37:03 4.3 C 2.72 g/m*3 4.3 C 0 km/h
544 15-02-2008 12:49:02 4.8 C 2.75 g/m*3 4.8 C 0 km/h
545 15-02-2008 13:01:02 5.1 C 2.6 g/m*3 5.1 C 0 km/h
546 15-02-2008 13:13:02 5.3 C 2.43 g/m*3 5.3 C 0 km/h
547 15-02-2008 13:25:02 5.9 C 2.31 g/m*3 5.9 C 0 km/h
548 15-02-2008 13:37:02 6.7 C 2.13 g/m*3 6.7 C 0 km/h
549 15-02-2008 13:49:02 7.1 C 1.64 g/m*3 7.1 C 0 km/h
550 15-02-2008 14:01:01 7.3 C 1.58 g/m*3 7.3 C 0 km/h
Sensor: Nr:Datum:Temp:Abs-Feuchte:Windchill:Wind:
Aussen-T/F 551 15-02-2008 14:13:01 7.4 C 1.59 g/m*3 7.4 C 0 km/h
552 15-02-2008 14:25:01 7.9 C 1.64 g/m*3 7.9 C 0 km/h
553 15-02-2008 14:37:02 7.8 C 1.63 g/m*3 7.8 C 0 km/h
554 15-02-2008 14:49:02 8 C 1.65 g/m*3 8 C 0 km/h
555 15-02-2008 15:01:02 8 C 1.65 g/m*3 8 C 0 km/h
556 15-02-2008 15:13:02 7.9 C 1.64 g/m*3 7.9 C 0 km/h
557 15-02-2008 15:25:02 7.8 C 1.63 g/m*3 7.8 C 0 km/h
558 15-02-2008 15:37:02 7.6 C 1.61 g/m*3 7.6 C 0 km/h
559 15-02-2008 15:49:02 7.7 C 1.62 g/m*3 7.7 C 0 km/h
560 15-02-2008 16:01:02 7.4 C 1.59 g/m*3 7.4 C 0 km/h
561 15-02-2008 16:13:02 7.6 C 1.61 g/m*3 7.6 C 0 km/h
562 15-02-2008 16:25:02 7.3 C 1.58 g/m*3 7.3 C 0 km/h
563 15-02-2008 16:37:02 7.4 C 1.59 g/m*3 7.4 C 0 km/h
564 15-02-2008 16:49:01 7 C 1.55 g/m*3 7 C 0 km/h
565 15-02-2008 17:01:02 6.5 C 1.87 g/m*3 6.5 C 0 km/h
566 15-02-2008 17:13:02 5.6 C 1.84 g/m*3 5.6 C 0 km/h
567 15-02-2008 17:25:02 4.8 C 1.81 g/m*3 4.8 C 0 km/h
568 15-02-2008 17:37:01 4.2 C 2 g/m*3 4.2 C 0 km/h
569 15-02-2008 17:49:01 3.6 C 2.17 g/m*3 3.6 C 0 km/h
570 15-02-2008 18:01:02 3.1 C 2.21 g/m*3 3.1 C 0 km/h
571 15-02-2008 18:13:02 2.7 C 2.27 g/m*3 2.7 C 0 km/h
572 15-02-2008 18:25:01 2.4 C 2.23 g/m*3 2.4 C 0 km/h
573 15-02-2008 18:37:01 2.1 C 2.24 g/m*3 2.1 C 0 km/h
574 15-02-2008 18:49:01 1.7 C 2.29 g/m*3 1.7 C 0 km/h
575 15-02-2008 19:01:02 1.5 C 2.2 g/m*3 1.5 C 0 km/h
Sensor: Nr:Datum:Temp:Abs-Feuchte:Windchill:Wind:
Aussen-T/F 576 15-02-2008 19:13:02 1.2 C 2.21 g/m*3 1.2 C 0 km/h
577 15-02-2008 19:25:02 0.9 C 2.22 g/m*3 0.9 C 0 km/h
578 15-02-2008 19:37:01 0.6 C 2.27 g/m*3 0.6 C 0 km/h
579 15-02-2008 19:49:01 0.3 C 2.28 g/m*3 0.3 C 0 km/h
580 15-02-2008 20:01:02 0.3 C 2.23 g/m*3 0.3 C 0 km/h
581 15-02-2008 20:13:02 0.2 C 2.26 g/m*3 0.2 C 0 km/h
582 15-02-2008 20:25:02 0 C 2.18 g/m*3 0 C 0 km/h
583 15-02-2008 20:37:01 0.1 C 2.2 g/m*3 0.1 C 0 km/h
584 15-02-2008 20:49:01 0 C 2.23 g/m*3 0 C 0 km/h
585 15-02-2008 21:01:02 0.1 C 2.15 g/m*3 0.1 C 0 km/h
586 15-02-2008 21:13:02 -0.3 C 2.18 g/m*3 -0.3 C 0 km/h
587 15-02-2008 21:25:02 -0.4 C 2.17 g/m*3 -0.4 C 0 km/h
588 15-02-2008 21:37:01 -0.4 C 2.12 g/m*3 -0.4 C 0 km/h
589 15-02-2008 21:49:02 -0.6 C 2.18 g/m*3 -0.6 C 0 km/h
590 15-02-2008 22:01:02 -0.5 C 2.15 g/m*3 -0.5 C 0 km/h
591 15-02-2008 22:13:02 -0.5 C 2.11 g/m*3 -0.5 C 0 km/h
592 15-02-2008 22:26:04 -0.8 C 2.15 g/m*3 -0.8 C 0 km/h
593 15-02-2008 22:38:04 -0.9 C 2.14 g/m*3 -0.9 C 0 km/h
594 15-02-2008 22:50:04 -1.1 C 2.11 g/m*3 -1.1 C 0 km/h
595 15-02-2008 23:02:04 -1.3 C 2.12 g/m*3 -1.3 C 0 km/h
596 15-02-2008 23:14:04 -1.4 C 2.15 g/m*3 -1.4 C 0 km/h
597 15-02-2008 23:26:04 -1.5 C 2.18 g/m*3 -1.5 C 0 km/h
598 15-02-2008 23:38:04 -1.7 C 2.24 g/m*3 -1.7 C 0 km/h
599 15-02-2008 23:50:04 -1.9 C 2.21 g/m*3 -1.9 C 0 km/h
600 16-02-2008 00:02:04 -1.9 C 2.21 g/m*3 -1.9 C 0 km/h
Sensor: Nr:Datum:Temp:Abs-Feuchte:Windchill:Wind:
Aussen-T/F 601 16-02-2008 00:14:04 -2 C 2.19 g/m*3 -2 C 0 km/h
602 16-02-2008 00:26:04 -2 C 2.15 g/m*3 -2 C 0 km/h
603 16-02-2008 00:38:04 -2 C 2.15 g/m*3 -2 C 0 km/h
604 16-02-2008 00:50:04 -2.1 C 2.09 g/m*3 -2.1 C 0 km/h
605 16-02-2008 01:02:04 -2.2 C 2.16 g/m*3 -2.2 C 0 km/h
606 16-02-2008 01:14:04 -2.3 C 2.19 g/m*3 -2.3 C 0 km/h
607 16-02-2008 01:26:04 -2.4 C 2.25 g/m*3 -2.4 C 0 km/h
608 16-02-2008 01:38:05 -2.5 C 2.28 g/m*3 -2.5 C 0 km/h
609 16-02-2008 01:50:05 -2.6 C 2.22 g/m*3 -2.6 C 0 km/h
610 16-02-2008 02:02:05 -2.9 C 2.18 g/m*3 -2.9 C 0 km/h
611 16-02-2008 02:14:05 -3 C 2.2 g/m*3 -3 C 0 km/h
612 16-02-2008 02:26:05 -3.1 C 2.18 g/m*3 -3.1 C 0 km/h
613 16-02-2008 02:38:05 -3.1 C 2.22 g/m*3 -3.1 C 0 km/h
614 16-02-2008 02:50:05 -3.2 C 2.21 g/m*3 -3.2 C 0 km/h
615 16-02-2008 03:02:05 -3.3 C 2.19 g/m*3 -3.3 C 0 km/h
616 16-02-2008 03:14:05 -3.3 C 2.27 g/m*3 -3.3 C 0 km/h
617 16-02-2008 03:26:05 -3.2 C 2.32 g/m*3 -3.2 C 0 km/h
618 16-02-2008 03:38:05 -3.3 C 2.27 g/m*3 -3.3 C 0 km/h
619 16-02-2008 03:50:05 -3.4 C 2.21 g/m*3 -3.4 C 0 km/h
620 16-02-2008 04:02:05 -3.4 C 2.21 g/m*3 -3.4 C 0 km/h
621 16-02-2008 04:14:05 -3.5 C 2.2 g/m*3 -3.5 C 0 km/h
622 16-02-2008 04:26:05 -3.7 C 2.21 g/m*3 -3.7 C 0 km/h
623 16-02-2008 04:38:05 -3.7 C 2.21 g/m*3 -3.7 C 0 km/h
624 16-02-2008 04:50:05 -3.7 C 2.21 g/m*3 -3.7 C 0 km/h
625 16-02-2008 05:02:05 -3.8 C 2.15 g/m*3 -3.8 C 0 km/h
Sensor: Nr:Datum:Temp:Abs-Feuchte:Windchill:Wind:
Aussen-T/F 626 16-02-2008 05:14:05 -3.8 C 2.15 g/m*3 -3.8 C 0 km/h
627 16-02-2008 05:26:05 -3.8 C 2.12 g/m*3 -3.8 C 0 km/h
628 16-02-2008 05:38:05 -3.9 C 2.06 g/m*3 -3.9 C 0 km/h
629 16-02-2008 05:50:06 -3.8 C 2.08 g/m*3 -3.8 C 0 km/h
630 16-02-2008 06:02:06 -3.9 C 2.06 g/m*3 -3.9 C 0 km/h
631 16-02-2008 06:14:06 -4.1 C 2.07 g/m*3 -4.1 C 0 km/h
632 16-02-2008 06:26:06 -4.2 C 2.06 g/m*3 -4.2 C 0 km/h
633 16-02-2008 06:38:06 -4.2 C 2.06 g/m*3 -4.2 C 0 km/h
634 16-02-2008 06:50:06 -4.2 C 2.06 g/m*3 -4.2 C 0 km/h
635 16-02-2008 07:02:06 -4.2 C 2.02 g/m*3 -4.2 C 0 km/h
636 16-02-2008 07:14:06 -4.3 C 2.01 g/m*3 -4.3 C 0 km/h
637 16-02-2008 07:26:06 -4.5 C 1.98 g/m*3 -4.5 C 0 km/h
638 16-02-2008 07:38:04 -4.6 C 2 g/m*3 -4.6 C 0 km/h
639 16-02-2008 07:50:02 -4.6 C 2 g/m*3 -4.6 C 0 km/h
640 16-02-2008 08:02:02 -4.7 C 2.09 g/m*3 -4.7 C 0 km/h
641 16-02-2008 08:14:02 -4.9 C 2.06 g/m*3 -4.9 C 0 km/h
642 16-02-2008 08:26:02 -5 C 2.08 g/m*3 -5 C 0 km/h
643 16-02-2008 08:38:02 -4.9 C 2.13 g/m*3 -4.9 C 0 km/h
644 16-02-2008 08:50:02 -4.7 C 2.23 g/m*3 -4.7 C 0 km/h
645 16-02-2008 09:02:02 -4.8 C 2.21 g/m*3 -4.8 C 0 km/h
646 16-02-2008 09:14:02 -4.7 C 2.26 g/m*3 -4.7 C 0 km/h
647 16-02-2008 09:26:02 -4.3 C 2.29 g/m*3 -4.3 C 0 km/h
648 16-02-2008 09:38:01 -4.1 C 2.29 g/m*3 -4.1 C 0 km/h
649 16-02-2008 09:50:01 -3.9 C 2.28 g/m*3 -3.9 C 0 km/h
650 16-02-2008 10:02:02 -3.7 C 2.24 g/m*3 -3.7 C 0 km/h
Sensor: Nr:Datum:Temp:Abs-Feuchte:Windchill:Wind:
Aussen-T/F 651 16-02-2008 10:14:02 -3.5 C 2.24 g/m*3 -3.5 C 0 km/h
652 16-02-2008 10:26:01 -3.2 C 2.28 g/m*3 -3.2 C 0 km/h
653 16-02-2008 10:38:01 -2.6 C 2.34 g/m*3 -2.6 C 0 km/h
654 16-02-2008 10:50:02 -1.9 C 2.21 g/m*3 -1.9 C 0 km/h
655 16-02-2008 11:02:02 -1.2 C 2.01 g/m*3 -1.2 C 0 km/h
656 16-02-2008 11:14:02 -0.7 C 1.98 g/m*3 -0.7 C 0 km/h
657 16-02-2008 11:26:02 -0.2 C 1.86 g/m*3 -0.2 C 0 km/h
658 16-02-2008 11:38:01 0.1 C 1.76 g/m*3 0.1 C 0 km/h
659 16-02-2008 11:50:02 0.4 C 1.74 g/m*3 0.4 C 0 km/h
660 16-02-2008 12:02:02 0.7 C 1.83 g/m*3 0.7 C 0 km/h
661 16-02-2008 12:14:02 1.2 C 1.68 g/m*3 1.2 C 0 km/h
662 16-02-2008 12:26:01 1.6 C 1.62 g/m*3 1.6 C 0 km/h
663 16-02-2008 12:38:02 2.2 C 1.69 g/m*3 2.2 C 0 km/h
664 16-02-2008 12:50:03 2.6 C 1.45 g/m*3 2.6 C 0 km/h
665 16-02-2008 13:02:02 3 C 1.19 g/m*3 3 C 0 km/h
666 16-02-2008 13:14:02 3.5 C 1.23 g/m*3 3.5 C 0 km/h
667 16-02-2008 13:26:02 4 C 1.27 g/m*3 4 C 0 km/h
668 16-02-2008 13:38:02 4.3 C 1.3 g/m*3 4.3 C 0 km/h
669 16-02-2008 13:50:02 4.6 C 1.32 g/m*3 4.6 C 0 km/h
670 16-02-2008 14:02:01 5 C 1.36 g/m*3 5 C 0 km/h
671 16-02-2008 14:14:01 5.5 C 1.4 g/m*3 5.5 C 0 km/h
672 16-02-2008 14:26:01 5.8 C 1.43 g/m*3 5.8 C 0 km/h
673 16-02-2008 14:38:02 6.2 C 1.47 g/m*3 6.2 C 0 km/h
674 16-02-2008 14:50:02 6.4 C 1.49 g/m*3 6.4 C 0 km/h
675 16-02-2008 15:02:02 6.9 C 1.54 g/m*3 6.9 C 0 km/h
Sensor: Nr:Datum:Temp:Abs-Feuchte:Windchill:Wind:
Aussen-T/F 676 16-02-2008 15:14:02 7.3 C 1.58 g/m*3 7.3 C 0 km/h
677 16-02-2008 15:26:02 7.3 C 1.58 g/m*3 7.3 C 0 km/h
678 16-02-2008 15:38:02 7.5 C 1.6 g/m*3 7.5 C 0 km/h
679 16-02-2008 15:50:02 7.5 C 1.6 g/m*3 7.5 C 0 km/h
680 16-02-2008 16:02:02 7.4 C 1.59 g/m*3 7.4 C 0 km/h
681 16-02-2008 16:14:02 7.1 C 1.56 g/m*3 7.1 C 0 km/h
682 16-02-2008 16:26:02 6.8 C 1.53 g/m*3 6.8 C 0 km/h
683 16-02-2008 16:38:02 6.8 C 1.53 g/m*3 6.8 C 0 km/h
684 16-02-2008 16:50:02 5.9 C 1.44 g/m*3 5.9 C 0 km/h
685 16-02-2008 17:02:02 5.7 C 1.42 g/m*3 5.7 C 0 km/h
686 16-02-2008 17:14:02 4.8 C 1.34 g/m*3 4.8 C 0 km/h
687 16-02-2008 17:26:02 4.1 C 1.28 g/m*3 4.1 C 0 km/h
688 16-02-2008 17:38:02 3.2 C 1.21 g/m*3 3.2 C 0 km/h
689 16-02-2008 17:50:02 2.2 C 1.13 g/m*3 2.2 C 0 km/h
690 16-02-2008 18:02:03 1.4 C 1.33 g/m*3 1.4 C 0 km/h
691 16-02-2008 18:14:03 0.8 C 1.69 g/m*3 0.8 C 0 km/h
692 16-02-2008 18:26:02 0.5 C 1.65 g/m*3 0.5 C 0 km/h
693 16-02-2008 18:38:02 0.3 C 1.63 g/m*3 0.3 C 0 km/h
694 16-02-2008 18:50:02 0.2 C 1.67 g/m*3 0.2 C 0 km/h
695 16-02-2008 19:02:03 0.1 C 1.61 g/m*3 0.1 C 0 km/h
696 16-02-2008 19:14:03 0 C 1.7 g/m*3 0 C 0 km/h
697 16-02-2008 19:26:02 -0.1 C 1.78 g/m*3 -0.1 C 0 km/h
698 16-02-2008 19:38:02 -0.5 C 1.78 g/m*3 -0.5 C 0 km/h
699 16-02-2008 19:50:02 -0.6 C 1.81 g/m*3 -0.6 C 0 km/h
700 16-02-2008 20:02:02 -0.8 C 1.88 g/m*3 -0.8 C 0 km/h
Sensor: Nr:Datum:Temp:Abs-Feuchte:Windchill:Wind:
Aussen-T/F 701 16-02-2008 20:14:02 -0.9 C 1.91 g/m*3 -0.9 C 0 km/h
702 16-02-2008 20:26:02 -1.1 C 1.93 g/m*3 -1.1 C 0 km/h
703 16-02-2008 20:38:02 -1.3 C 1.86 g/m*3 -1.3 C 0 km/h
704 16-02-2008 20:50:02 -1.5 C 1.92 g/m*3 -1.5 C 0 km/h
705 16-02-2008 21:02:02 -1.6 C 1.95 g/m*3 -1.6 C 0 km/h
706 16-02-2008 21:14:02 -1.7 C 1.94 g/m*3 -1.7 C 0 km/h
707 16-02-2008 21:26:02 -1.9 C 1.91 g/m*3 -1.9 C 0 km/h
708 16-02-2008 21:38:02 -2 C 1.9 g/m*3 -2 C 0 km/h
709 16-02-2008 21:50:02 -2.1 C 1.93 g/m*3 -2.1 C 0 km/h
710 16-02-2008 22:02:02 -2.3 C 1.94 g/m*3 -2.3 C 0 km/h
711 16-02-2008 22:14:02 -2.4 C 1.93 g/m*3 -2.4 C 0 km/h
712 16-02-2008 22:26:02 -2.5 C 1.95 g/m*3 -2.5 C 0 km/h
713 16-02-2008 22:38:02 -2.7 C 2.01 g/m*3 -2.7 C 0 km/h
714 16-02-2008 22:50:02 -2.8 C 1.99 g/m*3 -2.8 C 0 km/h
715 16-02-2008 23:02:02 -2.9 C 2.02 g/m*3 -2.9 C 0 km/h
716 16-02-2008 23:14:02 -3 C 2.04 g/m*3 -3 C 0 km/h
717 16-02-2008 23:26:02 -3.2 C 2.05 g/m*3 -3.2 C 0 km/h
718 16-02-2008 23:38:02 -3.3 C 2 g/m*3 -3.3 C 0 km/h
719 16-02-2008 23:50:02 -3.4 C 1.99 g/m*3 -3.4 C 0 km/h
720 17-02-2008 00:02:02 -3.7 C 1.94 g/m*3 -3.7 C 0 km/h
721 17-02-2008 00:14:02 -3.8 C 2 g/m*3 -3.8 C 0 km/h
722 17-02-2008 00:26:02 -3.9 C 1.99 g/m*3 -3.9 C 0 km/h
723 17-02-2008 00:38:02 -4 C 1.98 g/m*3 -4 C 0 km/h
724 17-02-2008 00:51:08 -4 C 2.01 g/m*3 -4 C 0 km/h
725 17-02-2008 01:03:08 -4 C 1.98 g/m*3 -4 C 0 km/h
Sensor: Nr:Datum:Temp:Abs-Feuchte:Windchill:Wind:
Aussen-T/F 726 17-02-2008 01:15:08 -4.1 C 1.89 g/m*3 -4.1 C 0 km/h
727 17-02-2008 01:27:08 -4.2 C 1.91 g/m*3 -4.2 C 0 km/h
728 17-02-2008 01:39:08 -4.1 C 1.96 g/m*3 -4.1 C 0 km/h
729 17-02-2008 01:51:08 -4.4 C 1.92 g/m*3 -4.4 C 0 km/h
730 17-02-2008 02:03:08 -4.6 C 1.86 g/m*3 -4.6 C 0 km/h
731 17-02-2008 02:15:08 -4.5 C 1.91 g/m*3 -4.5 C 0 km/h
732 17-02-2008 02:27:08 -4.5 C 1.91 g/m*3 -4.5 C 0 km/h
733 17-02-2008 02:39:08 -4.8 C 1.83 g/m*3 -4.8 C 0 km/h
734 17-02-2008 02:51:09 -4.8 C 1.87 g/m*3 -4.8 C 0 km/h
735 17-02-2008 03:03:09 -4.8 C 1.9 g/m*3 -4.8 C 0 km/h
736 17-02-2008 03:15:09 -5 C 1.84 g/m*3 -5 C 0 km/h
737 17-02-2008 03:27:09 -4.9 C 1.85 g/m*3 -4.9 C 0 km/h
738 17-02-2008 03:39:09 -5.1 C 1.79 g/m*3 -5.1 C 0 km/h
739 17-02-2008 03:51:09 -5 C 1.84 g/m*3 -5 C 0 km/h
740 17-02-2008 04:03:09 -5.1 C 1.83 g/m*3 -5.1 C 0 km/h
741 17-02-2008 04:15:09 -5.3 C 1.8 g/m*3 -5.3 C 0 km/h
742 17-02-2008 04:27:09 -5.5 C 1.74 g/m*3 -5.5 C 0 km/h
743 17-02-2008 04:39:09 -5.6 C 1.76 g/m*3 -5.6 C 0 km/h
744 17-02-2008 04:51:09 -5.7 C 1.78 g/m*3 -5.7 C 0 km/h
745 17-02-2008 05:03:09 -5.8 C 1.74 g/m*3 -5.8 C 0 km/h
746 17-02-2008 05:15:09 -5.6 C 1.83 g/m*3 -5.6 C 0 km/h
747 17-02-2008 05:27:09 -5.6 C 1.83 g/m*3 -5.6 C 0 km/h
748 17-02-2008 05:39:09 -5.7 C 1.81 g/m*3 -5.7 C 0 km/h
749 17-02-2008 05:51:09 -5.8 C 1.8 g/m*3 -5.8 C 0 km/h
750 17-02-2008 06:03:09 -6.1 C 1.73 g/m*3 -6.1 C 0 km/h
Sensor: Nr:Datum:Temp:Abs-Feuchte:Windchill:Wind:
Aussen-T/F 751 17-02-2008 06:15:09 -6.2 C 1.75 g/m*3 -6.2 C 0 km/h
752 17-02-2008 06:27:09 -6.3 C 1.74 g/m*3 -6.3 C 0 km/h
753 17-02-2008 06:39:09 -6.1 C 1.82 g/m*3 -6.1 C 0 km/h
754 17-02-2008 06:51:09 -6.3 C 1.8 g/m*3 -6.3 C 0 km/h
755 17-02-2008 07:03:10 -6.3 C 1.8 g/m*3 -6.3 C 0 km/h
756 17-02-2008 07:15:10 -6.3 C 1.8 g/m*3 -6.3 C 0 km/h
757 17-02-2008 07:27:10 -6.4 C 1.78 g/m*3 -6.4 C 0 km/h
758 17-02-2008 07:39:10 -6.6 C 1.76 g/m*3 -6.6 C 0 km/h
759 17-02-2008 07:51:10 -6.7 C 1.75 g/m*3 -6.7 C 0 km/h
760 17-02-2008 08:03:10 -6.8 C 1.76 g/m*3 -6.8 C 0 km/h
761 17-02-2008 08:15:10 -6.6 C 1.82 g/m*3 -6.6 C 0 km/h
762 17-02-2008 08:27:10 -6.4 C 1.88 g/m*3 -6.4 C 0 km/h
763 17-02-2008 08:39:03 -6.3 C 1.89 g/m*3 -6.3 C 0 km/h
764 17-02-2008 08:51:02 -6.3 C 1.92 g/m*3 -6.3 C 0 km/h
765 17-02-2008 09:03:01 -6.2 C 1.94 g/m*3 -6.2 C 0 km/h
766 17-02-2008 09:15:01 -6.2 C 1.94 g/m*3 -6.2 C 0 km/h
767 17-02-2008 09:27:01 -6 C 1.96 g/m*3 -6 C 0 km/h
768 17-02-2008 09:39:02 -5.9 C 1.95 g/m*3 -5.9 C 0 km/h
769 17-02-2008 09:51:02 -5.7 C 1.97 g/m*3 -5.7 C 0 km/h
770 17-02-2008 10:03:02 -5.4 C 2.02 g/m*3 -5.4 C 0 km/h
771 17-02-2008 10:15:02 -5.2 C 2.01 g/m*3 -5.2 C 0 km/h
772 17-02-2008 10:27:02 -4.5 C 2.08 g/m*3 -4.5 C 0 km/h
773 17-02-2008 10:39:02 -3.4 C 2.1 g/m*3 -3.4 C 0 km/h
774 17-02-2008 10:51:02 -3 C 2.12 g/m*3 -3 C 0 km/h
775 17-02-2008 11:03:01 -2.2 C 2.16 g/m*3 -2.2 C 0 km/h
Sensor: Nr:Datum:Temp:Abs-Feuchte:Windchill:Wind:
Aussen-T/F 776 17-02-2008 11:15:01 -1.3 C 2.26 g/m*3 -1.3 C 0 km/h
777 17-02-2008 11:27:01 -0.9 C 2.23 g/m*3 -0.9 C 0 km/h
778 17-02-2008 11:39:02 -0.7 C 2.17 g/m*3 -0.7 C 0 km/h
779 17-02-2008 11:51:02 -0.2 C 2.15 g/m*3 -0.2 C 0 km/h
780 17-02-2008 12:03:02 0.1 C 2.2 g/m*3 0.1 C 0 km/h
781 17-02-2008 12:15:01 0.5 C 2.21 g/m*3 0.5 C 0 km/h
782 17-02-2008 12:27:01 0.8 C 2.25 g/m*3 0.8 C 0 km/h
783 17-02-2008 12:39:02 1.4 C 2.19 g/m*3 1.4 C 0 km/h
784 17-02-2008 12:51:02 2 C 2.11 g/m*3 2 C 0 km/h
785 17-02-2008 13:03:01 2.4 C 2.11 g/m*3 2.4 C 0 km/h
786 17-02-2008 13:15:01 3.1 C 2.09 g/m*3 3.1 C 0 km/h
787 17-02-2008 13:27:01 3.6 C 1.98 g/m*3 3.6 C 0 km/h
788 17-02-2008 13:39:02 4.7 C 2 g/m*3 4.7 C 0 km/h
789 17-02-2008 13:51:03 5.1 C 1.85 g/m*3 5.1 C 0 km/h
790 17-02-2008 14:03:02 5.5 C 1.9 g/m*3 5.5 C 0 km/h
791 17-02-2008 14:15:02 6 C 1.81 g/m*3 6 C 0 km/h
792 17-02-2008 14:27:02 6.3 C 1.85 g/m*3 6.3 C 0 km/h
793 17-02-2008 14:39:02 7.1 C 1.56 g/m*3 7.1 C 0 km/h
794 17-02-2008 14:51:02 7.3 C 1.58 g/m*3 7.3 C 0 km/h
795 17-02-2008 15:03:02 8.2 C 1.67 g/m*3 8.2 C 0 km/h
796 17-02-2008 15:15:02 7.7 C 1.62 g/m*3 7.7 C 0 km/h
797 17-02-2008 15:27:02 9 C 1.76 g/m*3 9 C 0 km/h
798 17-02-2008 15:39:02 8.2 C 1.67 g/m*3 8.2 C 0 km/h
799 17-02-2008 15:51:02 8.2 C 1.67 g/m*3 8.2 C 0 km/h
800 17-02-2008 16:03:02 7.4 C 1.59 g/m*3 7.4 C 0 km/h
Sensor: Nr:Datum:Temp:Abs-Feuchte:Windchill:Wind:
Aussen-T/F 801 17-02-2008 16:15:02 7.6 C 1.61 g/m*3 7.6 C 0 km/h
802 17-02-2008 16:27:02 7.4 C 1.59 g/m*3 7.4 C 0 km/h
803 17-02-2008 16:39:02 7.6 C 1.61 g/m*3 7.6 C 0 km/h
804 17-02-2008 16:51:02 7.4 C 1.59 g/m*3 7.4 C 0 km/h
805 17-02-2008 17:03:02 6.9 C 1.54 g/m*3 6.9 C 0 km/h
806 17-02-2008 17:15:02 6.1 C 1.53 g/m*3 6.1 C 0 km/h
807 17-02-2008 17:27:02 5.1 C 1.71 g/m*3 5.1 C 0 km/h
808 17-02-2008 17:39:02 4.3 C 1.88 g/m*3 4.3 C 0 km/h
809 17-02-2008 17:51:02 3.5 C 2.03 g/m*3 3.5 C 0 km/h
810 17-02-2008 18:03:01 3 C 2.08 g/m*3 3 C 0 km/h
811 17-02-2008 18:15:01 2.6 C 2.2 g/m*3 2.6 C 0 km/h
812 17-02-2008 18:27:01 2.3 C 2.27 g/m*3 2.3 C 0 km/h
813 17-02-2008 18:39:02 2 C 2.22 g/m*3 2 C 0 km/h
814 17-02-2008 18:51:02 2.1 C 2.13 g/m*3 2.1 C 0 km/h
815 17-02-2008 19:03:02 1.5 C 2.09 g/m*3 1.5 C 0 km/h
816 17-02-2008 19:15:02 1.1 C 2.09 g/m*3 1.1 C 0 km/h
817 17-02-2008 19:27:02 0.9 C 2.17 g/m*3 0.9 C 0 km/h
818 17-02-2008 19:39:03 0.5 C 2.21 g/m*3 0.5 C 0 km/h
819 17-02-2008 19:51:01 0.2 C 2.21 g/m*3 0.2 C 0 km/h
820 17-02-2008 20:03:02 0.1 C 2.2 g/m*3 0.1 C 0 km/h
821 17-02-2008 20:15:02 -0.2 C 2.29 g/m*3 -0.2 C 0 km/h
822 17-02-2008 20:27:02 -0.2 C 2.2 g/m*3 -0.2 C 0 km/h
823 17-02-2008 20:39:01 -0.6 C 2.14 g/m*3 -0.6 C 0 km/h
824 17-02-2008 20:51:01 -0.5 C 2.11 g/m*3 -0.5 C 0 km/h
825 17-02-2008 21:03:02 -0.7 C 2.08 g/m*3 -0.7 C 0 km/h
Sensor: Nr:Datum:Temp:Abs-Feuchte:Windchill:Wind:
Aussen-T/F 826 17-02-2008 21:15:02 -0.9 C 2.23 g/m*3 -0.9 C 0 km/h
827 17-02-2008 21:27:02 -1 C 2.12 g/m*3 -1 C 0 km/h
828 17-02-2008 21:39:01 -1.1 C 2.07 g/m*3 -1.1 C 0 km/h
829 17-02-2008 21:51:01 -1.2 C 2.23 g/m*3 -1.2 C 0 km/h
830 17-02-2008 22:04:04 -1.4 C 2.15 g/m*3 -1.4 C 0 km/h
831 17-02-2008 22:16:04 -1.6 C 2.21 g/m*3 -1.6 C 0 km/h
832 17-02-2008 22:28:04 -1.7 C 2.15 g/m*3 -1.7 C 0 km/h
833 17-02-2008 22:40:04 -1.9 C 2.16 g/m*3 -1.9 C 0 km/h
834 17-02-2008 22:52:04 -2.1 C 2.13 g/m*3 -2.1 C 0 km/h
835 17-02-2008 23:04:04 -2.1 C 2.13 g/m*3 -2.1 C 0 km/h
836 17-02-2008 23:16:04 -2.3 C 2.1 g/m*3 -2.3 C 0 km/h
837 17-02-2008 23:28:04 -2.3 C 2.06 g/m*3 -2.3 C 0 km/h
838 17-02-2008 23:40:04 -2.2 C 2.08 g/m*3 -2.2 C 0 km/h
839 17-02-2008 23:52:04 -2.4 C 2.05 g/m*3 -2.4 C 0 km/h
840 18-02-2008 00:04:04 -2.6 C 2.06 g/m*3 -2.6 C 0 km/h
841 18-02-2008 00:16:04 -2.7 C 2.09 g/m*3 -2.7 C 0 km/h
842 18-02-2008 00:28:04 -2.8 C 2.07 g/m*3 -2.8 C 0 km/h
843 18-02-2008 00:40:04 -3 C 2.08 g/m*3 -3 C 0 km/h
844 18-02-2008 00:52:04 -3.3 C 2.08 g/m*3 -3.3 C 0 km/h
845 18-02-2008 01:04:05 -3.3 C 2.08 g/m*3 -3.3 C 0 km/h
846 18-02-2008 01:16:05 -3.3 C 2.08 g/m*3 -3.3 C 0 km/h
847 18-02-2008 01:28:05 -3.5 C 2.09 g/m*3 -3.5 C 0 km/h
848 18-02-2008 01:40:05 -3.8 C 2.04 g/m*3 -3.8 C 0 km/h
849 18-02-2008 01:52:05 -3.7 C 2.09 g/m*3 -3.7 C 0 km/h
850 18-02-2008 02:04:05 -3.6 C 2.11 g/m*3 -3.6 C 0 km/h
Sensor: Nr:Datum:Temp:Abs-Feuchte:Windchill:Wind:
Aussen-T/F 851 18-02-2008 02:16:05 -3.8 C 2.08 g/m*3 -3.8 C 0 km/h
852 18-02-2008 02:28:05 -3.9 C 2.1 g/m*3 -3.9 C 0 km/h
853 18-02-2008 02:40:05 -3.9 C 2.1 g/m*3 -3.9 C 0 km/h
854 18-02-2008 02:52:05 -4 C 2.12 g/m*3 -4 C 0 km/h
855 18-02-2008 03:04:05 -4.1 C 2.11 g/m*3 -4.1 C 0 km/h
856 18-02-2008 03:16:05 -4.1 C 2.11 g/m*3 -4.1 C 0 km/h
857 18-02-2008 03:28:05 -4.3 C 2.08 g/m*3 -4.3 C 0 km/h
858 18-02-2008 03:40:05 -4.2 C 2.13 g/m*3 -4.2 C 0 km/h
859 18-02-2008 03:52:05 -4.6 C 2.03 g/m*3 -4.6 C 0 km/h
860 18-02-2008 04:04:05 -4.4 C 2.1 g/m*3 -4.4 C 0 km/h
861 18-02-2008 04:16:05 -4.5 C 2.08 g/m*3 -4.5 C 0 km/h
862 18-02-2008 04:28:05 -4.6 C 2.07 g/m*3 -4.6 C 0 km/h
863 18-02-2008 04:40:05 -4.7 C 2.05 g/m*3 -4.7 C 0 km/h
864 18-02-2008 04:52:05 -4.9 C 2.06 g/m*3 -4.9 C 0 km/h
865 18-02-2008 05:04:06 -4.9 C 2.13 g/m*3 -4.9 C 0 km/h
866 18-02-2008 05:16:06 -5.1 C 2.06 g/m*3 -5.1 C 0 km/h
867 18-02-2008 05:28:06 -5.3 C 2.03 g/m*3 -5.3 C 0 km/h
868 18-02-2008 05:40:03 -5.4 C 2.02 g/m*3 -5.4 C 0 km/h
869 18-02-2008 05:52:02 -5.3 C 2.1 g/m*3 -5.3 C 0 km/h
870 18-02-2008 06:04:02 -5.3 C 2.17 g/m*3 -5.3 C 0 km/h
871 18-02-2008 06:16:01 -5.5 C 2.13 g/m*3 -5.5 C 0 km/h
872 18-02-2008 06:28:01 -5.4 C 2.15 g/m*3 -5.4 C 0 km/h
873 18-02-2008 06:40:01 -5.6 C 2.09 g/m*3 -5.6 C 0 km/h
874 18-02-2008 06:52:01 -5.5 C 2.13 g/m*3 -5.5 C 0 km/h
875 18-02-2008 07:04:01 -5.6 C 2.12 g/m*3 -5.6 C 0 km/h
Sensor: Nr:Datum:Temp:Abs-Feuchte:Windchill:Wind:
Aussen-T/F 876 18-02-2008 07:16:02 -5.9 C 2.04 g/m*3 -5.9 C 0 km/h
877 18-02-2008 07:28:02 -5.8 C 2.09 g/m*3 -5.8 C 0 km/h
878 18-02-2008 07:40:02 -5.7 C 2.14 g/m*3 -5.7 C 0 km/h
879 18-02-2008 07:52:02 -5.8 C 2.12 g/m*3 -5.8 C 0 km/h
880 18-02-2008 08:04:02 -5.8 C 2.12 g/m*3 -5.8 C 0 km/h
881 18-02-2008 08:16:02 -5.7 C 2.17 g/m*3 -5.7 C 0 km/h
882 18-02-2008 08:28:02 -5.5 C 2.2 g/m*3 -5.5 C 0 km/h
883 18-02-2008 08:40:02 -5.5 C 2.17 g/m*3 -5.5 C 0 km/h
884 18-02-2008 08:52:02 -5.4 C 2.18 g/m*3 -5.4 C 0 km/h
885 18-02-2008 09:04:02 -5.3 C 2.2 g/m*3 -5.3 C 0 km/h
886 18-02-2008 09:16:01 -5 C 2.25 g/m*3 -5 C 0 km/h
887 18-02-2008 09:28:01 -4.8 C 2.28 g/m*3 -4.8 C 0 km/h
888 18-02-2008 09:40:01 -4.6 C 2.28 g/m*3 -4.6 C 0 km/h
889 18-02-2008 09:52:02 -4.3 C 2.33 g/m*3 -4.3 C 0 km/h
890 18-02-2008 10:04:02 -4 C 2.34 g/m*3 -4 C 0 km/h
891 18-02-2008 10:16:02 -3.8 C 2.34 g/m*3 -3.8 C 0 km/h
892 18-02-2008 10:28:02 -3.4 C 2.41 g/m*3 -3.4 C 0 km/h
893 18-02-2008 10:40:02 -2.7 C 2.53 g/m*3 -2.7 C 0 km/h
894 18-02-2008 10:52:02 -2.2 C 2.54 g/m*3 -2.2 C 0 km/h
895 18-02-2008 11:04:02 -1.7 C 2.58 g/m*3 -1.7 C 0 km/h
896 18-02-2008 11:16:02 -1.3 C 2.61 g/m*3 -1.3 C 0 km/h
897 18-02-2008 11:28:02 -0.4 C 2.64 g/m*3 -0.4 C 0 km/h
898 18-02-2008 11:40:02 0 C 2.52 g/m*3 0 C 0 km/h
899 18-02-2008 11:52:02 0.4 C 2.49 g/m*3 0.4 C 0 km/h
900 18-02-2008 12:04:02 0.9 C 2.53 g/m*3 0.9 C 0 km/h
Sensor: Nr:Datum:Temp:Abs-Feuchte:Windchill:Wind:
Aussen-T/F 901 18-02-2008 12:16:02 1.7 C 2.45 g/m*3 1.7 C 0 km/h
902 18-02-2008 12:28:02 2.1 C 2.46 g/m*3 2.1 C 0 km/h
903 18-02-2008 12:40:02 2.8 C 2.35 g/m*3 2.8 C 0 km/h
904 18-02-2008 12:52:02 3.8 C 2.38 g/m*3 3.8 C 0 km/h
905 18-02-2008 13:04:02 5 C 2.11 g/m*3 5 C 0 km/h
906 18-02-2008 13:16:02 5.9 C 1.95 g/m*3 5.9 C 0 km/h
907 18-02-2008 13:28:02 6.9 C 1.54 g/m*3 6.9 C 0 km/h
908 18-02-2008 13:40:02 7.3 C 1.58 g/m*3 7.3 C 0 km/h
909 18-02-2008 13:52:01 7.9 C 1.64 g/m*3 7.9 C 0 km/h
910 18-02-2008 14:04:01 8.1 C 1.66 g/m*3 8.1 C 0 km/h
911 18-02-2008 14:16:01 8.2 C 1.67 g/m*3 8.2 C 0 km/h
912 18-02-2008 14:28:01 8.7 C 1.73 g/m*3 8.7 C 0 km/h
913 18-02-2008 14:40:02 9.3 C 1.8 g/m*3 9.3 C 0 km/h
914 18-02-2008 14:52:02 9.7 C 1.84 g/m*3 9.7 C 0 km/h
915 18-02-2008 15:04:02 9.8 C 1.86 g/m*3 9.8 C 0 km/h
916 18-02-2008 15:16:02 10.2 C 1.9 g/m*3 10.2 C 0 km/h
917 18-02-2008 15:28:02 9.8 C 1.86 g/m*3 9.8 C 0 km/h
918 18-02-2008 15:40:02 9.6 C 1.83 g/m*3 9.6 C 0 km/h
919 18-02-2008 15:52:02 9.8 C 1.86 g/m*3 9.8 C 0 km/h
920 18-02-2008 16:04:02 10.1 C 1.89 g/m*3 10.1 C 0 km/h
921 18-02-2008 16:16:01 9.5 C 1.82 g/m*3 9.5 C 0 km/h
922 18-02-2008 16:28:01 9 C 1.76 g/m*3 9 C 0 km/h
923 18-02-2008 16:40:01 8.8 C 1.74 g/m*3 8.8 C 0 km/h
924 18-02-2008 16:52:01 8.1 C 1.66 g/m*3 8.1 C 0 km/h
925 18-02-2008 17:04:02 7.8 C 1.63 g/m*3 7.8 C 0 km/h
Sensor: Nr:Datum:Temp:Abs-Feuchte:Windchill:Wind:
Aussen-T/F 926 18-02-2008 17:16:02 7.2 C 1.57 g/m*3 7.2 C 0 km/h
927 18-02-2008 17:28:02 6.5 C 1.5 g/m*3 6.5 C 0 km/h
928 18-02-2008 17:40:01 5.6 C 1.41 g/m*3 5.6 C 0 km/h
929 18-02-2008 17:52:02 4.7 C 1.33 g/m*3 4.7 C 0 km/h
930 18-02-2008 18:04:02 4.2 C 1.29 g/m*3 4.2 C 0 km/h
931 18-02-2008 18:16:01 3.4 C 1.22 g/m*3 3.4 C 0 km/h
932 18-02-2008 18:28:01 2.9 C 1.18 g/m*3 2.9 C 0 km/h
933 18-02-2008 18:40:02 2.4 C 1.43 g/m*3 2.4 C 0 km/h
934 18-02-2008 18:52:02 2.2 C 1.52 g/m*3 2.2 C 0 km/h
935 18-02-2008 19:04:01 2 C 1.5 g/m*3 2 C 0 km/h
936 18-02-2008 19:16:01 1.5 C 1.61 g/m*3 1.5 C 0 km/h
937 18-02-2008 19:28:01 1.1 C 1.78 g/m*3 1.1 C 0 km/h
938 18-02-2008 19:40:01 0.8 C 1.64 g/m*3 0.8 C 0 km/h
939 18-02-2008 19:52:02 0.6 C 1.72 g/m*3 0.6 C 0 km/h
940 18-02-2008 20:04:02 0.5 C 1.5 g/m*3 0.5 C 0 km/h
941 18-02-2008 20:16:02 0.3 C 1.58 g/m*3 0.3 C 0 km/h
942 18-02-2008 20:28:03 0.1 C 1.56 g/m*3 0.1 C 0 km/h
943 18-02-2008 20:40:03 -0.2 C 1.58 g/m*3 -0.2 C 0 km/h
944 18-02-2008 20:52:02 -0.2 C 1.53 g/m*3 -0.2 C 0 km/h
945 18-02-2008 21:04:02 -0.2 C 1.58 g/m*3 -0.2 C 0 km/h
946 18-02-2008 21:16:02 -0.6 C 1.63 g/m*3 -0.6 C 0 km/h
947 18-02-2008 21:28:02 -0.8 C 1.7 g/m*3 -0.8 C 0 km/h
948 18-02-2008 21:40:03 -1 C 1.81 g/m*3 -1 C 0 km/h
949 18-02-2008 21:52:01 -1.2 C 1.83 g/m*3 -1.2 C 0 km/h
950 18-02-2008 22:04:02 -1.3 C 1.86 g/m*3 -1.3 C 0 km/h
Sensor: Nr:Datum:Temp:Abs-Feuchte:Windchill:Wind:
Aussen-T/F 951 18-02-2008 22:16:02 -1.3 C 1.9 g/m*3 -1.3 C 0 km/h
952 18-02-2008 22:28:02 -1.5 C 1.88 g/m*3 -1.5 C 0 km/h
953 18-02-2008 22:40:02 -1.6 C 1.78 g/m*3 -1.6 C 0 km/h
954 18-02-2008 22:52:02 -1.8 C 1.71 g/m*3 -1.8 C 0 km/h
955 18-02-2008 23:04:02 -1.8 C 1.75 g/m*3 -1.8 C 0 km/h
956 18-02-2008 23:16:02 -1.9 C 1.7 g/m*3 -1.9 C 0 km/h
957 18-02-2008 23:28:02 -2.1 C 1.67 g/m*3 -2.1 C 0 km/h
958 18-02-2008 23:40:02 -2.3 C 1.65 g/m*3 -2.3 C 0 km/h
959 18-02-2008 23:52:02 -2.3 C 1.69 g/m*3 -2.3 C 0 km/h
960 19-02-2008 00:04:02 -2.4 C 1.68 g/m*3 -2.4 C 0 km/h
961 19-02-2008 00:16:02 -2.4 C 1.72 g/m*3 -2.4 C 0 km/h
962 19-02-2008 00:28:02 -2.5 C 1.75 g/m*3 -2.5 C 0 km/h
963 19-02-2008 00:40:02 -2.6 C 1.74 g/m*3 -2.6 C 0 km/h
964 19-02-2008 00:52:02 -2.7 C 1.77 g/m*3 -2.7 C 0 km/h
965 19-02-2008 01:04:02 -2.4 C 1.84 g/m*3 -2.4 C 0 km/h
966 19-02-2008 01:16:03 -2.4 C 1.84 g/m*3 -2.4 C 0 km/h
967 19-02-2008 01:28:03 -2.6 C 1.82 g/m*3 -2.6 C 0 km/h
968 19-02-2008 01:40:03 -2.8 C 1.79 g/m*3 -2.8 C 0 km/h
969 19-02-2008 01:52:03 -3.1 C 1.79 g/m*3 -3.1 C 0 km/h
970 19-02-2008 02:04:03 -3.1 C 1.79 g/m*3 -3.1 C 0 km/h
971 19-02-2008 02:16:03 -3.1 C 1.83 g/m*3 -3.1 C 0 km/h
972 19-02-2008 02:28:03 -3.2 C 1.82 g/m*3 -3.2 C 0 km/h
973 19-02-2008 02:40:03 -3.3 C 1.81 g/m*3 -3.3 C 0 km/h
974 19-02-2008 02:52:03 -3.4 C 1.83 g/m*3 -3.4 C 0 km/h
975 19-02-2008 03:04:03 -3.5 C 1.82 g/m*3 -3.5 C 0 km/h
Sensor: Nr:Datum:Temp:Abs-Feuchte:Windchill:Wind:
Aussen-T/F 976 19-02-2008 03:16:03 -3.7 C 1.79 g/m*3 -3.7 C 0 km/h
977 19-02-2008 03:28:03 -3.8 C 1.82 g/m*3 -3.8 C 0 km/h
978 19-02-2008 03:40:03 -4 C 1.83 g/m*3 -4 C 0 km/h
979 19-02-2008 03:52:03 -4.1 C 1.82 g/m*3 -4.1 C 0 km/h
980 19-02-2008 04:04:03 -4.1 C 1.82 g/m*3 -4.1 C 0 km/h
981 19-02-2008 04:16:03 -4.1 C 1.89 g/m*3 -4.1 C 0 km/h
982 19-02-2008 04:28:03 -4.2 C 1.88 g/m*3 -4.2 C 0 km/h
983 19-02-2008 04:40:03 -4.2 C 1.91 g/m*3 -4.2 C 0 km/h
984 19-02-2008 04:52:03 -4.4 C 1.88 g/m*3 -4.4 C 0 km/h
985 19-02-2008 05:04:03 -4.4 C 1.88 g/m*3 -4.4 C 0 km/h
986 19-02-2008 05:16:01 -4.4 C 1.92 g/m*3 -4.4 C 0 km/h
987 19-02-2008 05:28:01 -4.4 C 1.92 g/m*3 -4.4 C 0 km/h
988 19-02-2008 05:40:02 -4.5 C 1.94 g/m*3 -4.5 C 0 km/h
989 19-02-2008 05:52:01 -4.6 C 1.93 g/m*3 -4.6 C 0 km/h
990 19-02-2008 06:04:02 -4.7 C 1.91 g/m*3 -4.7 C 0 km/h
991 19-02-2008 06:16:01 -4.9 C 1.89 g/m*3 -4.9 C 0 km/h
992 19-02-2008 06:28:01 -4.9 C 1.95 g/m*3 -4.9 C 0 km/h
993 19-02-2008 06:40:01 -4.7 C 2.05 g/m*3 -4.7 C 0 km/h
994 19-02-2008 06:52:01 -5 C 1.97 g/m*3 -5 C 0 km/h
995 19-02-2008 07:04:02 -5.1 C 1.96 g/m*3 -5.1 C 0 km/h
996 19-02-2008 07:16:01 -5 C 1.97 g/m*3 -5 C 0 km/h
997 19-02-2008 07:28:01 -5 C 1.97 g/m*3 -5 C 0 km/h
998 19-02-2008 07:40:01 -5.2 C 1.95 g/m*3 -5.2 C 0 km/h
999 19-02-2008 07:52:01 -5.1 C 1.99 g/m*3 -5.1 C 0 km/h
1000 19-02-2008 08:04:02 -5.1 C 2.03 g/m*3 -5.1 C 0 km/h
Sensor: Nr:Datum:Temp:Abs-Feuchte:Windchill:Wind:
Aussen-T/F 1001 19-02-2008 08:16:01 -5.1 C 2.03 g/m*3 -5.1 C 0 km/h
1002 19-02-2008 08:28:01 -5 C 2.04 g/m*3 -5 C 0 km/h
1003 19-02-2008 08:40:01 -5 C 2.04 g/m*3 -5 C 0 km/h
1004 19-02-2008 08:52:01 -4.7 C 2.09 g/m*3 -4.7 C 0 km/h
1005 19-02-2008 09:04:02 -4.6 C 2.1 g/m*3 -4.6 C 0 km/h
1006 19-02-2008 09:16:01 -4.5 C 2.12 g/m*3 -4.5 C 0 km/h
1007 19-02-2008 09:28:02 -4.2 C 2.13 g/m*3 -4.2 C 0 km/h
1008 19-02-2008 09:40:01 -4.1 C 2.11 g/m*3 -4.1 C 0 km/h
1009 19-02-2008 09:52:01 -3.9 C 2.1 g/m*3 -3.9 C 0 km/h
1010 19-02-2008 10:04:01 -3.7 C 2.13 g/m*3 -3.7 C 0 km/h
1011 19-02-2008 10:16:02 -3.4 C 2.18 g/m*3 -3.4 C 0 km/h
1012 19-02-2008 10:28:02 -2.8 C 2.19 g/m*3 -2.8 C 0 km/h
1013 19-02-2008 10:40:02 -2.2 C 2.24 g/m*3 -2.2 C 0 km/h
1014 19-02-2008 10:52:02 -1.6 C 2.21 g/m*3 -1.6 C 0 km/h
1015 19-02-2008 11:04:01 -1.1 C 2.24 g/m*3 -1.1 C 0 km/h
1016 19-02-2008 11:16:01 -0.5 C 2.34 g/m*3 -0.5 C 0 km/h
1017 19-02-2008 11:28:01 0.2 C 2.46 g/m*3 0.2 C 0 km/h
1018 19-02-2008 11:40:02 0.8 C 2.51 g/m*3 0.8 C 0 km/h
1019 19-02-2008 11:52:02 1.8 C 2.52 g/m*3 1.8 C 0 km/h
1020 19-02-2008 12:04:01 1.9 C 2.54 g/m*3 1.9 C 0 km/h
1021 19-02-2008 12:16:01 2.3 C 2.55 g/m*3 2.3 C 0 km/h
1022 19-02-2008 12:28:01 2.9 C 2.66 g/m*3 2.9 C 0 km/h
1023 19-02-2008 12:40:01 3.7 C 2.68 g/m*3 3.7 C 0 km/h
1024 19-02-2008 12:52:01 4.4 C 2.74 g/m*3 4.4 C 0 km/h
1025 19-02-2008 13:04:02 5.1 C 2.67 g/m*3 5.1 C 0 km/h
Sensor: Nr:Datum:Temp:Abs-Feuchte:Windchill:Wind:
Aussen-T/F 1026 19-02-2008 13:16:01 5.7 C 2.63 g/m*3 5.7 C 0 km/h
1027 19-02-2008 13:28:01 6.9 C 2.62 g/m*3 6.9 C 0 km/h
1028 19-02-2008 13:40:01 7.6 C 2.58 g/m*3 7.6 C 0 km/h
1029 19-02-2008 13:52:01 8.1 C 2.58 g/m*3 8.1 C 0 km/h
1030 19-02-2008 14:04:02 8.7 C 2.59 g/m*3 8.7 C 0 km/h
1031 19-02-2008 14:17:01 9.2 C 2.5 g/m*3 9.2 C 0 km/h
1032 19-02-2008 14:29:01 9.6 C 2.47 g/m*3 9.6 C 0 km/h
1033 19-02-2008 14:40:02 10.1 C 2.46 g/m*3 10.1 C 0 km/h
1034 19-02-2008 14:52:02 10.1 C 2.36 g/m*3 10.1 C 0 km/h
1035 19-02-2008 15:04:01 10.6 C 2.54 g/m*3 10.6 C 0 km/h
1036 19-02-2008 15:17:01 11 C 2.5 g/m*3 11 C 0 km/h
1037 19-02-2008 15:29:01 11.4 C 2.57 g/m*3 11.4 C 0 km/h
1038 19-02-2008 15:40:02 11.3 C 2.55 g/m*3 11.3 C 0 km/h
1039 19-02-2008 15:52:02 11.1 C 2.52 g/m*3 11.1 C 0 km/h
1040 19-02-2008 16:04:02 10.9 C 2.49 g/m*3 10.9 C 0 km/h
1041 19-02-2008 16:17:01 11 C 2.6 g/m*3 11 C 0 km/h
1042 19-02-2008 16:28:01 11.6 C 2.7 g/m*3 11.6 C 0 km/h
1043 19-02-2008 16:41:01 11.7 C 2.72 g/m*3 11.7 C 0 km/h
1044 19-02-2008 16:53:01 11.2 C 2.53 g/m*3 11.2 C 0 km/h
1045 19-02-2008 17:04:02 11.2 C 2.74 g/m*3 11.2 C 0 km/h
1046 19-02-2008 17:17:01 10.7 C 2.75 g/m*3 10.7 C 0 km/h
1047 19-02-2008 17:29:01 9.6 C 2.75 g/m*3 9.6 C 0 km/h
1048 19-02-2008 17:41:01 8.6 C 2.92 g/m*3 8.6 C 0 km/h
1049 19-02-2008 17:53:01 7.2 C 2.9 g/m*3 7.2 C 0 km/h
1050 19-02-2008 18:05:01 6.6 C 3.02 g/m*3 6.6 C 0 km/h
Sensor: Nr:Datum:Temp:Abs-Feuchte:Windchill:Wind:
Aussen-T/F 1051 19-02-2008 18:17:01 5.6 C 3.04 g/m*3 5.6 C 0 km/h
1052 19-02-2008 18:29:01 5 C 3.06 g/m*3 5 C 0 km/h
1053 19-02-2008 18:40:02 4.7 C 3.2 g/m*3 4.7 C 0 km/h
1054 19-02-2008 18:53:01 4.5 C 3.29 g/m*3 4.5 C 0 km/h
1055 19-02-2008 19:05:02 4.3 C 3.37 g/m*3 4.3 C 0 km/h
1056 19-02-2008 19:17:01 3.8 C 3.39 g/m*3 3.8 C 0 km/h
1057 19-02-2008 19:29:01 3.5 C 3.44 g/m*3 3.5 C 0 km/h
1058 19-02-2008 19:41:01 3.3 C 3.52 g/m*3 3.3 C 0 km/h
1059 19-02-2008 19:53:01 3 C 3.51 g/m*3 3 C 0 km/h
1060 19-02-2008 20:05:02 2.7 C 3.5 g/m*3 2.7 C 0 km/h
1061 19-02-2008 20:17:01 2.5 C 3.51 g/m*3 2.5 C 0 km/h
1062 19-02-2008 20:29:01 2.4 C 3.54 g/m*3 2.4 C 0 km/h
1063 19-02-2008 20:41:01 2.1 C 3.52 g/m*3 2.1 C 0 km/h
1064 19-02-2008 20:53:01 1.8 C 3.51 g/m*3 1.8 C 0 km/h
1065 19-02-2008 21:05:01 1.6 C 3.51 g/m*3 1.6 C 0 km/h
1066 19-02-2008 21:17:01 1.3 C 3.44 g/m*3 1.3 C 0 km/h
1067 19-02-2008 21:29:01 1.1 C 3.4 g/m*3 1.1 C 0 km/h
1068 19-02-2008 21:41:02 1 C 3.43 g/m*3 1 C 0 km/h
1069 19-02-2008 21:53:51 0.7 C 3.41 g/m*3 0.7 C 0 km/h
1070 19-02-2008 22:05:52 0.4 C 3.34 g/m*3 0.4 C 0 km/h
1071 19-02-2008 22:17:52 0.4 C 3.39 g/m*3 0.4 C 0 km/h
1072 19-02-2008 22:29:52 0.2 C 3.39 g/m*3 0.2 C 0 km/h
1073 19-02-2008 22:41:52 0.1 C 3.42 g/m*3 0.1 C 0 km/h
1074 19-02-2008 22:53:52 -0.1 C 3.42 g/m*3 -0.1 C 0 km/h
1075 19-02-2008 23:05:52 -0.2 C 3.44 g/m*3 -0.2 C 0 km/h
Sensor: Nr:Datum:Temp:Abs-Feuchte:Windchill:Wind:
Aussen-T/F 1076 19-02-2008 23:17:52 -0.4 C 3.39 g/m*3 -0.4 C 0 km/h
1077 19-02-2008 23:29:52 -0.6 C 3.35 g/m*3 -0.6 C 0 km/h
1078 19-02-2008 23:41:52 -0.6 C 3.39 g/m*3 -0.6 C 0 km/h
1079 19-02-2008 23:53:52 -0.9 C 3.32 g/m*3 -0.9 C 0 km/h
1080 20-02-2008 00:05:52 -1 C 3.35 g/m*3 -1 C 0 km/h
1081 20-02-2008 00:17:52 -1.1 C 3.32 g/m*3 -1.1 C 0 km/h
1082 20-02-2008 00:29:52 -1.2 C 3.3 g/m*3 -1.2 C 0 km/h
1083 20-02-2008 00:41:52 -1.2 C 3.3 g/m*3 -1.2 C 0 km/h
1084 20-02-2008 00:53:52 -1.3 C 3.28 g/m*3 -1.3 C 0 km/h
1085 20-02-2008 01:05:52 -1.4 C 3.25 g/m*3 -1.4 C 0 km/h
1086 20-02-2008 01:17:52 -1.7 C 3.19 g/m*3 -1.7 C 0 km/h
1087 20-02-2008 01:29:53 -1.7 C 3.23 g/m*3 -1.7 C 0 km/h
1088 20-02-2008 01:41:53 -1.8 C 3.21 g/m*3 -1.8 C 0 km/h
1089 20-02-2008 01:53:53 -1.8 C 3.25 g/m*3 -1.8 C 0 km/h
1090 20-02-2008 02:05:53 -1.8 C 3.25 g/m*3 -1.8 C 0 km/h
1091 20-02-2008 02:17:53 -1.9 C 3.27 g/m*3 -1.9 C 0 km/h
1092 20-02-2008 02:29:53 -2 C 3.25 g/m*3 -2 C 0 km/h
1093 20-02-2008 02:41:53 -2.1 C 3.22 g/m*3 -2.1 C 0 km/h
1094 20-02-2008 02:53:53 -2.3 C 3.18 g/m*3 -2.3 C 0 km/h
1095 20-02-2008 03:05:53 -2.5 C 3.13 g/m*3 -2.5 C 0 km/h
1096 20-02-2008 03:17:53 -2.5 C 3.13 g/m*3 -2.5 C 0 km/h
1097 20-02-2008 03:29:53 -2.5 C 3.13 g/m*3 -2.5 C 0 km/h
1098 20-02-2008 03:41:53 -2.7 C 3.09 g/m*3 -2.7 C 0 km/h
1099 20-02-2008 03:53:53 -2.7 C 3.13 g/m*3 -2.7 C 0 km/h
1100 20-02-2008 04:05:53 -2.6 C 3.15 g/m*3 -2.6 C 0 km/h
Sensor: Nr:Datum:Temp:Abs-Feuchte:Windchill:Wind:
Aussen-T/F 1101 20-02-2008 04:17:53 -2.7 C 3.13 g/m*3 -2.7 C 0 km/h
1102 20-02-2008 04:29:53 -2.7 C 3.17 g/m*3 -2.7 C 0 km/h
1103 20-02-2008 04:41:53 -2.3 C 3.3 g/m*3 -2.3 C 0 km/h
1104 20-02-2008 04:53:53 -2.1 C 3.35 g/m*3 -2.1 C 0 km/h
1105 20-02-2008 05:05:54 -2.1 C 3.31 g/m*3 -2.1 C 0 km/h
1106 20-02-2008 05:17:54 -1.9 C 3.35 g/m*3 -1.9 C 0 km/h
1107 20-02-2008 05:29:54 -1.7 C 3.36 g/m*3 -1.7 C 0 km/h
1108 20-02-2008 05:41:54 -1.6 C 3.34 g/m*3 -1.6 C 0 km/h
1109 20-02-2008 05:53:54 -1.5 C 3.32 g/m*3 -1.5 C 0 km/h
1110 20-02-2008 06:05:54 -1.5 C 3.27 g/m*3 -1.5 C 0 km/h
1111 20-02-2008 06:17:54 -1.4 C 3.3 g/m*3 -1.4 C 0 km/h
1112 20-02-2008 06:29:54 -1.4 C 3.25 g/m*3 -1.4 C 0 km/h
1113 20-02-2008 06:41:54 -1.3 C 3.28 g/m*3 -1.3 C 0 km/h
1114 20-02-2008 06:53:54 -1.2 C 3.3 g/m*3 -1.2 C 0 km/h
1115 20-02-2008 07:05:02 -1.1 C 3.32 g/m*3 -1.1 C 0 km/h
1116 20-02-2008 07:17:02 -1 C 3.3 g/m*3 -1 C 0 km/h
1117 20-02-2008 07:29:02 -0.9 C 3.37 g/m*3 -0.9 C 0 km/h
1118 20-02-2008 07:41:02 -0.8 C 3.35 g/m*3 -0.8 C 0 km/h
1119 20-02-2008 07:53:02 -0.7 C 3.42 g/m*3 -0.7 C 0 km/h
1120 20-02-2008 08:05:01 -0.7 C 3.42 g/m*3 -0.7 C 0 km/h
1121 20-02-2008 08:17:02 -0.7 C 3.42 g/m*3 -0.7 C 0 km/h
1122 20-02-2008 08:29:02 -0.5 C 3.46 g/m*3 -0.5 C 0 km/h
1123 20-02-2008 08:41:02 -0.4 C 3.49 g/m*3 -0.4 C 0 km/h
1124 20-02-2008 08:53:02 -0.3 C 3.56 g/m*3 -0.3 C 0 km/h
1125 20-02-2008 09:05:02 -0.1 C 3.56 g/m*3 -0.1 C 0 km/h
Sensor: Nr:Datum:Temp:Abs-Feuchte:Windchill:Wind:
Aussen-T/F 1126 20-02-2008 09:17:02 0 C 3.59 g/m*3 0 C 0 km/h
1127 20-02-2008 09:29:02 0.4 C 3.69 g/m*3 0.4 C 0 km/h
1128 20-02-2008 09:41:02 0.6 C 3.74 g/m*3 0.6 C 0 km/h
1129 20-02-2008 09:53:02 0.6 C 3.74 g/m*3 0.6 C 0 km/h
1130 20-02-2008 10:05:02 0.6 C 3.74 g/m*3 0.6 C 0 km/h
1131 20-02-2008 10:17:02 0.8 C 3.84 g/m*3 0.8 C 0 km/h
1132 20-02-2008 10:29:02 1.1 C 3.87 g/m*3 1.1 C 0 km/h
1133 20-02-2008 10:41:03 1.3 C 4.03 g/m*3 1.3 C 0 km/h
1134 20-02-2008 10:53:02 1.6 C 4.16 g/m*3 1.6 C 0 km/h
1135 20-02-2008 11:05:02 2.1 C 4.36 g/m*3 2.1 C 0 km/h
1136 20-02-2008 11:17:02 2.2 C 4.45 g/m*3 2.2 C 0 km/h
1137 20-02-2008 11:29:02 2.3 C 4.54 g/m*3 2.3 C 0 km/h
1138 20-02-2008 11:41:02 2.9 C 4.96 g/m*3 2.9 C 0 km/h
1139 20-02-2008 11:53:01 3.1 C 5.03 g/m*3 3.1 C 0 km/h
1140 20-02-2008 12:05:01 3.3 C 5.16 g/m*3 3.3 C 0 km/h
1141 20-02-2008 12:17:02 3.3 C 5.16 g/m*3 3.3 C 0 km/h
1142 20-02-2008 12:29:02 3.2 C 5.12 g/m*3 3.2 C 0 km/h
1143 20-02-2008 12:41:02 3.3 C 5.16 g/m*3 3.3 C 0 km/h
1144 20-02-2008 12:53:02 3.4 C 5.19 g/m*3 3.4 C 0 km/h
1145 20-02-2008 13:05:02 3.7 C 5.36 g/m*3 3.7 C 0 km/h
1146 20-02-2008 13:17:01 3.9 C 5.43 g/m*3 3.9 C 0 km/h
1147 20-02-2008 13:29:01 4.2 C 5.48 g/m*3 4.2 C 0 km/h
1148 20-02-2008 13:41:02 4.3 C 5.45 g/m*3 4.3 C 0 km/h
1149 20-02-2008 13:53:01 4.1 C 5.38 g/m*3 4.1 C 0 km/h
1150 20-02-2008 14:05:02 4 C 5.34 g/m*3 4 C 0 km/h
Sensor: Nr:Datum:Temp:Abs-Feuchte:Windchill:Wind:
Aussen-T/F 1151 20-02-2008 14:17:02 3.9 C 5.43 g/m*3 3.9 C 0 km/h
1152 20-02-2008 14:29:02 3.9 C 5.43 g/m*3 3.9 C 0 km/h
1153 20-02-2008 14:41:02 3.9 C 5.43 g/m*3 3.9 C 0 km/h
1154 20-02-2008 14:53:02 3.9 C 5.49 g/m*3 3.9 C 0 km/h
1155 20-02-2008 15:05:02 4 C 5.47 g/m*3 4 C 0 km/h
1156 20-02-2008 15:17:02 4.2 C 5.54 g/m*3 4.2 C 0 km/h
1157 20-02-2008 15:29:02 4.2 C 5.61 g/m*3 4.2 C 0 km/h
1158 20-02-2008 15:41:02 4 C 5.53 g/m*3 4 C 0 km/h
1159 20-02-2008 15:53:02 4 C 5.53 g/m*3 4 C 0 km/h
1160 20-02-2008 16:05:02 3.9 C 5.56 g/m*3 3.9 C 0 km/h
1161 20-02-2008 16:17:02 3.8 C 5.52 g/m*3 3.8 C 0 km/h
1162 20-02-2008 16:29:02 3.8 C 5.52 g/m*3 3.8 C 0 km/h
1163 20-02-2008 16:41:01 3.8 C 5.52 g/m*3 3.8 C 0 km/h
1164 20-02-2008 16:53:01 3.9 C 5.62 g/m*3 3.9 C 0 km/h
1165 20-02-2008 17:05:02 4 C 5.66 g/m*3 4 C 0 km/h
1166 20-02-2008 17:17:02 4 C 5.66 g/m*3 4 C 0 km/h
1167 20-02-2008 17:29:02 4.2 C 5.8 g/m*3 4.2 C 0 km/h
1168 20-02-2008 17:41:02 4.2 C 5.86 g/m*3 4.2 C 0 km/h
1169 20-02-2008 17:53:02 4 C 5.79 g/m*3 4 C 0 km/h
1170 20-02-2008 18:05:02 4 C 5.79 g/m*3 4 C 0 km/h
1171 20-02-2008 18:17:01 4.2 C 5.86 g/m*3 4.2 C 0 km/h
1172 20-02-2008 18:29:01 4.2 C 5.93 g/m*3 4.2 C 0 km/h
1173 20-02-2008 18:41:01 4.2 C 5.93 g/m*3 4.2 C 0 km/h
1174 20-02-2008 18:53:01 4.3 C 5.97 g/m*3 4.3 C 0 km/h
1175 20-02-2008 19:05:02 4.8 C 6.24 g/m*3 4.8 C 0 km/h
Sensor: Nr:Datum:Temp:Abs-Feuchte:Windchill:Wind:
Aussen-T/F 1176 20-02-2008 19:17:02 4.9 C 6.28 g/m*3 4.9 C 0 km/h
1177 20-02-2008 19:29:02 5.1 C 6.29 g/m*3 5.1 C 0 km/h
1178 20-02-2008 19:41:02 5.1 C 6.29 g/m*3 5.1 C 0 km/h
1179 20-02-2008 19:53:02 5.2 C 6.27 g/m*3 5.2 C 0 km/h
1180 20-02-2008 20:05:02 5.1 C 6.22 g/m*3 5.1 C 0 km/h
1181 20-02-2008 20:17:02 5.3 C 6.31 g/m*3 5.3 C 0 km/h
1182 20-02-2008 20:29:02 5.4 C 6.35 g/m*3 5.4 C 0 km/h
1183 20-02-2008 20:41:02 5.4 C 6.35 g/m*3 5.4 C 0 km/h
1184 20-02-2008 20:53:01 5.4 C 6.35 g/m*3 5.4 C 0 km/h
1185 20-02-2008 21:05:02 5.2 C 6.2 g/m*3 5.2 C 0 km/h
1186 20-02-2008 21:17:02 4.9 C 6.14 g/m*3 4.9 C 0 km/h
1187 20-02-2008 21:29:02 4.7 C 6.06 g/m*3 4.7 C 0 km/h
1188 20-02-2008 21:41:02 4.5 C 5.98 g/m*3 4.5 C 0 km/h
1189 20-02-2008 21:53:02 4.4 C 6.01 g/m*3 4.4 C 0 km/h
1190 20-02-2008 22:05:02 4.4 C 6.01 g/m*3 4.4 C 0 km/h
1191 20-02-2008 22:17:02 4.4 C 6.07 g/m*3 4.4 C 0 km/h
1192 20-02-2008 22:29:02 4.1 C 5.95 g/m*3 4.1 C 0 km/h
1193 20-02-2008 22:41:01 4.1 C 5.95 g/m*3 4.1 C 0 km/h
1194 20-02-2008 22:53:01 3.8 C 5.9 g/m*3 3.8 C 0 km/h
1195 20-02-2008 23:05:01 3.7 C 5.86 g/m*3 3.7 C 0 km/h
1196 20-02-2008 23:17:01 3.6 C 5.82 g/m*3 3.6 C 0 km/h
1197 20-02-2008 23:29:02 3.4 C 5.8 g/m*3 3.4 C 0 km/h
1198 20-02-2008 23:41:02 3.4 C 5.8 g/m*3 3.4 C 0 km/h
1199 20-02-2008 23:53:02 3.3 C 5.76 g/m*3 3.3 C 0 km/h
1200 21-02-2008 00:05:02 3.4 C 5.8 g/m*3 3.4 C 0 km/h
Sensor: Nr:Datum:Temp:Abs-Feuchte:Windchill:Wind:
Aussen-T/F 1201 21-02-2008 00:17:02 3.2 C 5.72 g/m*3 3.2 C 0 km/h
1202 21-02-2008 00:29:02 3 C 5.65 g/m*3 3 C 0 km/h
1203 21-02-2008 00:41:02 2.7 C 5.54 g/m*3 2.7 C 0 km/h
1204 21-02-2008 00:53:02 2.6 C 5.5 g/m*3 2.6 C 0 km/h
1205 21-02-2008 01:05:02 2.4 C 5.42 g/m*3 2.4 C 0 km/h
1206 21-02-2008 01:17:02 2.2 C 5.35 g/m*3 2.2 C 0 km/h
1207 21-02-2008 01:29:02 2 C 5.28 g/m*3 2 C 0 km/h
1208 21-02-2008 01:41:02 2 C 5.28 g/m*3 2 C 0 km/h
1209 21-02-2008 01:53:02 2 C 5.28 g/m*3 2 C 0 km/h
1210 21-02-2008 02:05:02 1.7 C 5.17 g/m*3 1.7 C 0 km/h
1211 21-02-2008 02:17:02 1.5 C 5.1 g/m*3 1.5 C 0 km/h
1212 21-02-2008 02:29:02 1.6 C 5.14 g/m*3 1.6 C 0 km/h
1213 21-02-2008 02:41:02 1.6 C 5.14 g/m*3 1.6 C 0 km/h
1214 21-02-2008 02:53:02 1.4 C 5.07 g/m*3 1.4 C 0 km/h
1215 21-02-2008 03:05:02 1.2 C 5 g/m*3 1.2 C 0 km/h
1216 21-02-2008 03:17:03 1.1 C 4.96 g/m*3 1.1 C 0 km/h
1217 21-02-2008 03:29:03 1.1 C 4.96 g/m*3 1.1 C 0 km/h
1218 21-02-2008 03:41:03 1.1 C 4.96 g/m*3 1.1 C 0 km/h
1219 21-02-2008 03:53:03 0.8 C 4.86 g/m*3 0.8 C 0 km/h
1220 21-02-2008 04:05:03 0.9 C 4.9 g/m*3 0.9 C 0 km/h
1221 21-02-2008 04:17:03 2 C 5.28 g/m*3 2 C 0 km/h
1222 21-02-2008 04:29:03 2.3 C 5.39 g/m*3 2.3 C 0 km/h
1223 21-02-2008 04:41:03 2.7 C 5.54 g/m*3 2.7 C 0 km/h
1224 21-02-2008 04:53:03 2.7 C 5.54 g/m*3 2.7 C 0 km/h
1225 21-02-2008 05:05:03 2.6 C 5.5 g/m*3 2.6 C 0 km/h
Sensor: Nr:Datum:Temp:Abs-Feuchte:Windchill:Wind:
Aussen-T/F 1226 21-02-2008 05:17:03 3 C 5.65 g/m*3 3 C 0 km/h
1227 21-02-2008 05:29:03 3.3 C 5.76 g/m*3 3.3 C 0 km/h
1228 21-02-2008 05:41:03 3.1 C 5.69 g/m*3 3.1 C 0 km/h
1229 21-02-2008 05:53:03 3.2 C 5.72 g/m*3 3.2 C 0 km/h
1230 21-02-2008 06:05:03 3.3 C 5.76 g/m*3 3.3 C 0 km/h
1231 21-02-2008 06:17:03 3.4 C 5.8 g/m*3 3.4 C 0 km/h
1232 21-02-2008 06:29:03 3.7 C 5.92 g/m*3 3.7 C 0 km/h
1233 21-02-2008 06:41:03 4 C 6.04 g/m*3 4 C 0 km/h
1234 21-02-2008 06:53:02 4.1 C 6.08 g/m*3 4.1 C 0 km/h
1235 21-02-2008 07:05:02 4 C 6.04 g/m*3 4 C 0 km/h
1236 21-02-2008 07:17:02 4.2 C 6.12 g/m*3 4.2 C 0 km/h
1237 21-02-2008 07:29:02 4.3 C 6.16 g/m*3 4.3 C 0 km/h
1238 21-02-2008 07:41:01 4.4 C 6.14 g/m*3 4.4 C 0 km/h
1239 21-02-2008 07:53:01 4.5 C 6.11 g/m*3 4.5 C 0 km/h
1240 21-02-2008 08:05:01 4.6 C 6.15 g/m*3 4.6 C 0 km/h
1241 21-02-2008 08:17:02 4.6 C 6.09 g/m*3 4.6 C 0 km/h
1242 21-02-2008 08:29:02 4.6 C 6.02 g/m*3 4.6 C 0 km/h
1243 21-02-2008 08:41:02 4.7 C 6 g/m*3 4.7 C 0 km/h
1244 21-02-2008 08:53:02 4.7 C 5.93 g/m*3 4.7 C 0 km/h
1245 21-02-2008 09:05:01 4.8 C 5.97 g/m*3 4.8 C 0 km/h
1246 21-02-2008 09:17:01 5 C 5.91 g/m*3 5 C 0 km/h
1247 21-02-2008 09:29:01 5.1 C 5.88 g/m*3 5.1 C 0 km/h
1248 21-02-2008 09:41:01 5.2 C 5.92 g/m*3 5.2 C 0 km/h
1249 21-02-2008 09:53:01 5.4 C 5.93 g/m*3 5.4 C 0 km/h
1250 21-02-2008 10:05:02 5.6 C 6.01 g/m*3 5.6 C 0 km/h
Sensor: Nr:Datum:Temp:Abs-Feuchte:Windchill:Wind:
Aussen-T/F 1251 21-02-2008 10:17:01 5.8 C 6.02 g/m*3 5.8 C 0 km/h
1252 21-02-2008 10:29:01 6.1 C 6.06 g/m*3 6.1 C 0 km/h
1253 21-02-2008 10:41:01 6.2 C 6.1 g/m*3 6.2 C 0 km/h
1254 21-02-2008 10:53:01 6.3 C 6.07 g/m*3 6.3 C 0 km/h
1255 21-02-2008 11:05:02 6.5 C 6.15 g/m*3 6.5 C 0 km/h
1256 21-02-2008 11:17:01 6.7 C 6.23 g/m*3 6.7 C 0 km/h
1257 21-02-2008 11:29:01 7 C 6.28 g/m*3 7 C 0 km/h
1258 21-02-2008 11:41:01 7.3 C 6.4 g/m*3 7.3 C 0 km/h
1259 21-02-2008 11:53:01 8.2 C 6.36 g/m*3 8.2 C 0 km/h
1260 21-02-2008 12:05:02 8.6 C 6.1 g/m*3 8.6 C 0 km/h
1261 21-02-2008 12:17:02 8.8 C 6.01 g/m*3 8.8 C 0 km/h
1262 21-02-2008 12:29:02 9.1 C 6.03 g/m*3 9.1 C 0 km/h
1263 21-02-2008 12:41:01 9.3 C 5.84 g/m*3 9.3 C 0 km/h
1264 21-02-2008 12:53:01 9.3 C 5.75 g/m*3 9.3 C 0 km/h
1265 21-02-2008 13:05:03 9.5 C 5.83 g/m*3 9.5 C 0 km/h
1266 21-02-2008 13:17:02 9.6 C 5.77 g/m*3 9.6 C 0 km/h
1267 21-02-2008 13:29:02 9.7 C 5.81 g/m*3 9.7 C 0 km/h
1268 21-02-2008 13:41:02 10.4 C 5.69 g/m*3 10.4 C 0 km/h
1269 21-02-2008 13:53:02 10.6 C 5.47 g/m*3 10.6 C 0 km/h
1270 21-02-2008 14:05:01 11.2 C 5.47 g/m*3 11.2 C 0 km/h
1271 21-02-2008 14:17:01 11 C 5.31 g/m*3 11 C 0 km/h
1272 21-02-2008 14:29:01 11 C 5.31 g/m*3 11 C 0 km/h
1273 21-02-2008 14:41:01 10.8 C 5.44 g/m*3 10.8 C 0 km/h
1274 21-02-2008 14:53:01 10.8 C 5.44 g/m*3 10.8 C 0 km/h
1275 21-02-2008 15:05:01 11 C 5.41 g/m*3 11 C 0 km/h
Sensor: Nr:Datum:Temp:Abs-Feuchte:Windchill:Wind:
Aussen-T/F 1276 21-02-2008 15:17:02 10.9 C 5.37 g/m*3 10.9 C 0 km/h
1277 21-02-2008 15:29:02 11.2 C 5.17 g/m*3 11.2 C 0 km/h
1278 21-02-2008 15:41:01 11.2 C 5.07 g/m*3 11.2 C 0 km/h
1279 21-02-2008 15:53:02 11.2 C 5.17 g/m*3 11.2 C 0 km/h
1280 21-02-2008 16:05:01 11 C 5.1 g/m*3 11 C 0 km/h
1281 21-02-2008 16:17:01 11 C 5.2 g/m*3 11 C 0 km/h
1282 21-02-2008 16:29:01 11 C 5.2 g/m*3 11 C 0 km/h
1283 21-02-2008 16:41:02 10.9 C 5.27 g/m*3 10.9 C 0 km/h
1284 21-02-2008 16:53:02 10.5 C 5.24 g/m*3 10.5 C 0 km/h
1285 21-02-2008 17:05:02 10.2 C 5.23 g/m*3 10.2 C 0 km/h
1286 21-02-2008 17:17:01 10 C 5.17 g/m*3 10 C 0 km/h
1287 21-02-2008 17:29:02 9.9 C 5.23 g/m*3 9.9 C 0 km/h
1288 21-02-2008 17:41:01 9.7 C 5.25 g/m*3 9.7 C 0 km/h
1289 21-02-2008 17:53:01 9.6 C 5.22 g/m*3 9.6 C 0 km/h
1290 21-02-2008 18:05:01 9.6 C 5.22 g/m*3 9.6 C 0 km/h
1291 21-02-2008 18:17:02 9.5 C 5.19 g/m*3 9.5 C 0 km/h
1292 21-02-2008 18:29:02 9.4 C 5.16 g/m*3 9.4 C 0 km/h
1293 21-02-2008 18:41:02 9.3 C 5.12 g/m*3 9.3 C 0 km/h
1294 21-02-2008 18:53:02 9.2 C 5.18 g/m*3 9.2 C 0 km/h
1295 21-02-2008 19:05:01 9.1 C 5.23 g/m*3 9.1 C 0 km/h
1296 21-02-2008 19:17:02 9.1 C 5.23 g/m*3 9.1 C 0 km/h
1297 21-02-2008 19:29:02 9.1 C 5.15 g/m*3 9.1 C 0 km/h
1298 21-02-2008 19:41:02 9.1 C 5.15 g/m*3 9.1 C 0 km/h
1299 21-02-2008 19:53:02 9.1 C 5.23 g/m*3 9.1 C 0 km/h
1300 21-02-2008 20:05:02 8.9 C 5.34 g/m*3 8.9 C 0 km/h
Sensor: Nr:Datum:Temp:Abs-Feuchte:Windchill:Wind:
Aussen-T/F 1301 21-02-2008 20:17:01 8.6 C 5.5 g/m*3 8.6 C 0 km/h
1302 21-02-2008 20:29:01 8.5 C 5.55 g/m*3 8.5 C 0 km/h
1303 21-02-2008 20:41:01 8.6 C 5.5 g/m*3 8.6 C 0 km/h
1304 21-02-2008 20:53:01 8.6 C 5.41 g/m*3 8.6 C 0 km/h
1305 21-02-2008 21:05:01 8.6 C 5.5 g/m*3 8.6 C 0 km/h
1306 21-02-2008 21:17:02 8.4 C 5.68 g/m*3 8.4 C 0 km/h
1307 21-02-2008 21:29:02 8.4 C 5.77 g/m*3 8.4 C 0 km/h
1308 21-02-2008 21:41:02 8.4 C 5.77 g/m*3 8.4 C 0 km/h
1309 21-02-2008 21:53:02 8.4 C 5.85 g/m*3 8.4 C 0 km/h
1310 21-02-2008 22:06:03 8.4 C 5.85 g/m*3 8.4 C 0 km/h
1311 21-02-2008 22:18:03 8.4 C 5.94 g/m*3 8.4 C 0 km/h
1312 21-02-2008 22:30:03 8.4 C 5.94 g/m*3 8.4 C 0 km/h
1313 21-02-2008 22:42:03 8.4 C 6.02 g/m*3 8.4 C 0 km/h
1314 21-02-2008 22:54:03 8.5 C 6.06 g/m*3 8.5 C 0 km/h
1315 21-02-2008 23:06:03 8.5 C 6.06 g/m*3 8.5 C 0 km/h
1316 21-02-2008 23:18:03 8.4 C 6.11 g/m*3 8.4 C 0 km/h
1317 21-02-2008 23:30:03 8.2 C 6.2 g/m*3 8.2 C 0 km/h
1318 21-02-2008 23:42:03 8 C 6.37 g/m*3 8 C 0 km/h
1319 21-02-2008 23:54:03 7.9 C 6.65 g/m*3 7.9 C 0 km/h
1320 22-02-2008 00:06:03 7.8 C 6.77 g/m*3 7.8 C 0 km/h
1321 22-02-2008 00:18:03 7.7 C 6.81 g/m*3 7.7 C 0 km/h
1322 22-02-2008 00:30:03 7.8 C 6.94 g/m*3 7.8 C 0 km/h
1323 22-02-2008 00:42:03 7.8 C 6.94 g/m*3 7.8 C 0 km/h
1324 22-02-2008 00:54:03 7.9 C 6.9 g/m*3 7.9 C 0 km/h
1325 22-02-2008 01:06:04 7.9 C 6.9 g/m*3 7.9 C 0 km/h
Sensor: Nr:Datum:Temp:Abs-Feuchte:Windchill:Wind:
Aussen-T/F 1326 22-02-2008 01:18:04 7.8 C 6.86 g/m*3 7.8 C 0 km/h
1327 22-02-2008 01:30:04 7.8 C 6.94 g/m*3 7.8 C 0 km/h
1328 22-02-2008 01:42:04 7.8 C 6.94 g/m*3 7.8 C 0 km/h
1329 22-02-2008 01:54:04 7.8 C 6.94 g/m*3 7.8 C 0 km/h
1330 22-02-2008 02:06:04 7.9 C 6.98 g/m*3 7.9 C 0 km/h
1331 22-02-2008 02:18:04 8.4 C 6.96 g/m*3 8.4 C 0 km/h
1332 22-02-2008 02:30:04 8.5 C 6.66 g/m*3 8.5 C 0 km/h
1333 22-02-2008 02:42:04 8.5 C 6.57 g/m*3 8.5 C 0 km/h
1334 22-02-2008 02:54:04 8.6 C 6.53 g/m*3 8.6 C 0 km/h
1335 22-02-2008 03:06:04 8.7 C 6.49 g/m*3 8.7 C 0 km/h
1336 22-02-2008 03:18:04 9.1 C 6.39 g/m*3 9.1 C 0 km/h
1337 22-02-2008 03:30:04 8.8 C 6.35 g/m*3 8.8 C 0 km/h
1338 22-02-2008 03:42:04 8.8 C 6.27 g/m*3 8.8 C 0 km/h
1339 22-02-2008 03:54:04 8.8 C 6.27 g/m*3 8.8 C 0 km/h
1340 22-02-2008 04:06:04 9.1 C 6.21 g/m*3 9.1 C 0 km/h
1341 22-02-2008 04:18:04 9.1 C 6.21 g/m*3 9.1 C 0 km/h
1342 22-02-2008 04:30:04 9 C 6.26 g/m*3 9 C 0 km/h
1343 22-02-2008 04:42:04 9 C 6.35 g/m*3 9 C 0 km/h
1344 22-02-2008 04:54:04 9.2 C 6.34 g/m*3 9.2 C 0 km/h
1345 22-02-2008 05:06:05 9.2 C 6.25 g/m*3 9.2 C 0 km/h
1346 22-02-2008 05:18:05 9.2 C 6.25 g/m*3 9.2 C 0 km/h
1347 22-02-2008 05:30:05 9.3 C 6.29 g/m*3 9.3 C 0 km/h
1348 22-02-2008 05:42:05 9.1 C 6.21 g/m*3 9.1 C 0 km/h
1349 22-02-2008 05:54:05 9.2 C 6.25 g/m*3 9.2 C 0 km/h
1350 22-02-2008 06:06:05 9.1 C 6.12 g/m*3 9.1 C 0 km/h
Sensor: Nr:Datum:Temp:Abs-Feuchte:Windchill:Wind:
Aussen-T/F 1351 22-02-2008 06:18:05 9.1 C 6.12 g/m*3 9.1 C 0 km/h
1352 22-02-2008 06:30:05 9.2 C 6.16 g/m*3 9.2 C 0 km/h
1353 22-02-2008 06:42:05 9.2 C 6.25 g/m*3 9.2 C 0 km/h
1354 22-02-2008 06:54:05 9.3 C 6.2 g/m*3 9.3 C 0 km/h
1355 22-02-2008 07:06:02 9.2 C 6.07 g/m*3 9.2 C 0 km/h
1356 22-02-2008 07:18:03 9.2 C 6.07 g/m*3 9.2 C 0 km/h
1357 22-02-2008 07:30:03 9.3 C 5.93 g/m*3 9.3 C 0 km/h
1358 22-02-2008 07:42:03 9.2 C 5.8 g/m*3 9.2 C 0 km/h
1359 22-02-2008 07:54:01 9.3 C 5.84 g/m*3 9.3 C 0 km/h
1360 22-02-2008 08:06:02 9.3 C 5.75 g/m*3 9.3 C 0 km/h
1361 22-02-2008 08:18:02 9.3 C 5.66 g/m*3 9.3 C 0 km/h
1362 22-02-2008 08:30:02 9.4 C 5.61 g/m*3 9.4 C 0 km/h
1363 22-02-2008 08:42:01 9.5 C 5.64 g/m*3 9.5 C 0 km/h
1364 22-02-2008 08:54:02 9.5 C 5.64 g/m*3 9.5 C 0 km/h
1365 22-02-2008 09:06:02 9.6 C 5.59 g/m*3 9.6 C 0 km/h
1366 22-02-2008 09:18:01 9.6 C 5.5 g/m*3 9.6 C 0 km/h
1367 22-02-2008 09:30:01 9.7 C 5.53 g/m*3 9.7 C 0 km/h
1368 22-02-2008 09:42:01 9.7 C 5.53 g/m*3 9.7 C 0 km/h
1369 22-02-2008 09:54:02 9.8 C 5.47 g/m*3 9.8 C 0 km/h
1370 22-02-2008 10:06:01 9.9 C 5.51 g/m*3 9.9 C 0 km/h
1371 22-02-2008 10:18:02 10.1 C 5.48 g/m*3 10.1 C 0 km/h
1372 22-02-2008 10:30:02 10.1 C 5.48 g/m*3 10.1 C 0 km/h
1373 22-02-2008 10:42:02 10.3 C 5.46 g/m*3 10.3 C 0 km/h
1374 22-02-2008 10:54:02 10.3 C 5.46 g/m*3 10.3 C 0 km/h
1375 22-02-2008 11:06:02 10.2 C 5.42 g/m*3 10.2 C 0 km/h
Sensor: Nr:Datum:Temp:Abs-Feuchte:Windchill:Wind:
Aussen-T/F 1376 22-02-2008 11:18:02 10.4 C 5.49 g/m*3 10.4 C 0 km/h
1377 22-02-2008 11:30:02 10.4 C 5.4 g/m*3 10.4 C 0 km/h
1378 22-02-2008 11:42:02 10.5 C 5.53 g/m*3 10.5 C 0 km/h
1379 22-02-2008 11:54:02 10.5 C 5.53 g/m*3 10.5 C 0 km/h
1380 22-02-2008 12:06:03 10.6 C 5.56 g/m*3 10.6 C 0 km/h
1381 22-02-2008 12:18:02 10.6 C 5.56 g/m*3 10.6 C 0 km/h
1382 22-02-2008 12:30:02 10.8 C 5.54 g/m*3 10.8 C 0 km/h
1383 22-02-2008 12:42:02 10.5 C 5.53 g/m*3 10.5 C 0 km/h
1384 22-02-2008 12:54:02 10.7 C 5.6 g/m*3 10.7 C 0 km/h
1385 22-02-2008 13:06:02 10.6 C 5.56 g/m*3 10.6 C 0 km/h
1386 22-02-2008 13:18:01 10.4 C 5.49 g/m*3 10.4 C 0 km/h
1387 22-02-2008 13:30:01 10.5 C 5.53 g/m*3 10.5 C 0 km/h
1388 22-02-2008 13:42:02 10.4 C 5.49 g/m*3 10.4 C 0 km/h
1389 22-02-2008 13:54:01 10.6 C 5.56 g/m*3 10.6 C 0 km/h
1390 22-02-2008 14:06:02 10.6 C 5.56 g/m*3 10.6 C 0 km/h
1391 22-02-2008 14:18:02 10.4 C 5.49 g/m*3 10.4 C 0 km/h
1392 22-02-2008 14:30:02 10.5 C 5.43 g/m*3 10.5 C 0 km/h
1393 22-02-2008 14:42:02 10.6 C 5.47 g/m*3 10.6 C 0 km/h
1394 22-02-2008 14:54:02 10.5 C 5.43 g/m*3 10.5 C 0 km/h
1395 22-02-2008 15:06:02 10.4 C 5.4 g/m*3 10.4 C 0 km/h
1396 22-02-2008 15:18:02 10.3 C 5.36 g/m*3 10.3 C 0 km/h
1397 22-02-2008 15:30:02 10.2 C 5.42 g/m*3 10.2 C 0 km/h
1398 22-02-2008 15:42:02 10 C 5.36 g/m*3 10 C 0 km/h
1399 22-02-2008 15:54:02 10.1 C 5.39 g/m*3 10.1 C 0 km/h
1400 22-02-2008 16:06:02 10.2 C 5.42 g/m*3 10.2 C 0 km/h
Sensor: Nr:Datum:Temp:Abs-Feuchte:Windchill:Wind:
Aussen-T/F 1401 22-02-2008 16:18:02 10.1 C 5.39 g/m*3 10.1 C 0 km/h
1402 22-02-2008 16:30:02 10.1 C 5.48 g/m*3 10.1 C 0 km/h
1403 22-02-2008 16:42:01 10.1 C 5.48 g/m*3 10.1 C 0 km/h
1404 22-02-2008 16:54:02 10 C 5.54 g/m*3 10 C 0 km/h
1405 22-02-2008 17:06:02 10.1 C 5.58 g/m*3 10.1 C 0 km/h
1406 22-02-2008 17:18:02 10 C 5.54 g/m*3 10 C 0 km/h
1407 22-02-2008 17:30:03 10 C 5.54 g/m*3 10 C 0 km/h
1408 22-02-2008 17:42:01 10 C 5.54 g/m*3 10 C 0 km/h
1409 22-02-2008 17:54:02 10 C 5.54 g/m*3 10 C 0 km/h
1410 22-02-2008 18:06:02 10 C 5.64 g/m*3 10 C 0 km/h
1411 22-02-2008 18:18:02 9.9 C 5.7 g/m*3 9.9 C 0 km/h
1412 22-02-2008 18:30:02 10 C 5.64 g/m*3 10 C 0 km/h
1413 22-02-2008 18:42:02 10 C 5.64 g/m*3 10 C 0 km/h
1414 22-02-2008 18:54:02 10 C 5.64 g/m*3 10 C 0 km/h
1415 22-02-2008 19:06:02 10 C 5.64 g/m*3 10 C 0 km/h
1416 22-02-2008 19:18:02 10.2 C 5.61 g/m*3 10.2 C 0 km/h
1417 22-02-2008 19:30:02 10.4 C 5.59 g/m*3 10.4 C 0 km/h
1418 22-02-2008 19:42:02 10.4 C 5.59 g/m*3 10.4 C 0 km/h
1419 22-02-2008 19:54:02 10.3 C 5.55 g/m*3 10.3 C 0 km/h
1420 22-02-2008 20:06:03 10.4 C 5.59 g/m*3 10.4 C 0 km/h
1421 22-02-2008 20:18:02 10.3 C 5.55 g/m*3 10.3 C 0 km/h
1422 22-02-2008 20:30:03 10.3 C 5.55 g/m*3 10.3 C 0 km/h
1423 22-02-2008 20:42:02 10.2 C 5.61 g/m*3 10.2 C 0 km/h
1424 22-02-2008 20:54:02 10.2 C 5.61 g/m*3 10.2 C 0 km/h
1425 22-02-2008 21:06:01 10.1 C 5.58 g/m*3 10.1 C 0 km/h
Sensor: Nr:Datum:Temp:Abs-Feuchte:Windchill:Wind:
Aussen-T/F 1426 22-02-2008 21:18:02 10.4 C 5.59 g/m*3 10.4 C 0 km/h
1427 22-02-2008 21:30:02 10.4 C 5.59 g/m*3 10.4 C 0 km/h
1428 22-02-2008 21:43:03 10.4 C 5.59 g/m*3 10.4 C 0 km/h
1429 22-02-2008 21:55:03 10.4 C 5.59 g/m*3 10.4 C 0 km/h
1430 22-02-2008 22:07:03 10.4 C 5.59 g/m*3 10.4 C 0 km/h
1431 22-02-2008 22:19:03 10.4 C 5.59 g/m*3 10.4 C 0 km/h
1432 22-02-2008 22:31:03 10.4 C 5.69 g/m*3 10.4 C 0 km/h
1433 22-02-2008 22:43:03 10.4 C 5.69 g/m*3 10.4 C 0 km/h
1434 22-02-2008 22:55:03 10.4 C 5.69 g/m*3 10.4 C 0 km/h
1435 22-02-2008 23:07:03 10.4 C 5.69 g/m*3 10.4 C 0 km/h
1436 22-02-2008 23:19:03 10.4 C 5.69 g/m*3 10.4 C 0 km/h
1437 22-02-2008 23:31:03 10.6 C 5.76 g/m*3 10.6 C 0 km/h
1438 22-02-2008 23:43:04 10.7 C 5.8 g/m*3 10.7 C 0 km/h
1439 22-02-2008 23:55:04 10.7 C 5.8 g/m*3 10.7 C 0 km/h
1440 23-02-2008 00:07:04 10.7 C 5.89 g/m*3 10.7 C 0 km/h
1441 23-02-2008 00:19:04 10.6 C 5.86 g/m*3 10.6 C 0 km/h
1442 23-02-2008 00:31:04 10.6 C 5.86 g/m*3 10.6 C 0 km/h
1443 23-02-2008 00:43:04 10.5 C 5.92 g/m*3 10.5 C 0 km/h
1444 23-02-2008 00:55:04 10.4 C 5.88 g/m*3 10.4 C 0 km/h
1445 23-02-2008 01:07:04 10.2 C 5.9 g/m*3 10.2 C 0 km/h
1446 23-02-2008 01:19:04 9.8 C 5.94 g/m*3 9.8 C 0 km/h
1447 23-02-2008 01:31:04 9.5 C 5.92 g/m*3 9.5 C 0 km/h
1448 23-02-2008 01:43:04 9.4 C 5.97 g/m*3 9.4 C 0 km/h
1449 23-02-2008 01:55:04 9.6 C 6.05 g/m*3 9.6 C 0 km/h
1450 23-02-2008 02:07:04 9.9 C 5.88 g/m*3 9.9 C 0 km/h
Sensor: Nr:Datum:Temp:Abs-Feuchte:Windchill:Wind:
Aussen-T/F 1451 23-02-2008 02:19:04 10.3 C 5.65 g/m*3 10.3 C 0 km/h
1452 23-02-2008 02:31:04 10.4 C 5.49 g/m*3 10.4 C 0 km/h
1453 23-02-2008 02:43:04 10.1 C 5.39 g/m*3 10.1 C 0 km/h
1454 23-02-2008 02:55:04 9.8 C 5.47 g/m*3 9.8 C 0 km/h
1455 23-02-2008 03:07:04 9.4 C 5.52 g/m*3 9.4 C 0 km/h
1456 23-02-2008 03:19:04 9.3 C 5.57 g/m*3 9.3 C 0 km/h
1457 23-02-2008 03:31:04 9.1 C 5.59 g/m*3 9.1 C 0 km/h
1458 23-02-2008 03:43:05 9 C 5.64 g/m*3 9 C 0 km/h
1459 23-02-2008 03:55:05 8.6 C 5.67 g/m*3 8.6 C 0 km/h
1460 23-02-2008 04:07:05 8.4 C 5.68 g/m*3 8.4 C 0 km/h
1461 23-02-2008 04:19:03 8.3 C 5.73 g/m*3 8.3 C 0 km/h
1462 23-02-2008 04:31:02 8.2 C 5.69 g/m*3 8.2 C 0 km/h
1463 23-02-2008 04:43:02 8.1 C 5.74 g/m*3 8.1 C 0 km/h
1464 23-02-2008 04:55:01 8.2 C 5.78 g/m*3 8.2 C 0 km/h
1465 23-02-2008 05:07:02 8 C 5.7 g/m*3 8 C 0 km/h
1466 23-02-2008 05:19:02 7.8 C 5.79 g/m*3 7.8 C 0 km/h
1467 23-02-2008 05:31:02 7.5 C 5.76 g/m*3 7.5 C 0 km/h
1468 23-02-2008 05:43:02 7.4 C 5.81 g/m*3 7.4 C 0 km/h
1469 23-02-2008 05:55:02 7.3 C 5.85 g/m*3 7.3 C 0 km/h
1470 23-02-2008 06:07:02 7.2 C 5.89 g/m*3 7.2 C 0 km/h
1471 23-02-2008 06:19:01 7.1 C 5.85 g/m*3 7.1 C 0 km/h
1472 23-02-2008 06:31:02 6.9 C 5.93 g/m*3 6.9 C 0 km/h
1473 23-02-2008 06:43:02 6.9 C 6 g/m*3 6.9 C 0 km/h
1474 23-02-2008 06:55:02 6.9 C 6 g/m*3 6.9 C 0 km/h
1475 23-02-2008 07:07:01 6.9 C 6.08 g/m*3 6.9 C 0 km/h
Sensor: Nr:Datum:Temp:Abs-Feuchte:Windchill:Wind:
Aussen-T/F 1476 23-02-2008 07:19:02 6.8 C 6.04 g/m*3 6.8 C 0 km/h
1477 23-02-2008 07:31:01 6.9 C 6.08 g/m*3 6.9 C 0 km/h
1478 23-02-2008 07:43:02 6.9 C 6.08 g/m*3 6.9 C 0 km/h
1479 23-02-2008 07:55:02 6.9 C 6.08 g/m*3 6.9 C 0 km/h
1480 23-02-2008 08:07:02 6.9 C 6.08 g/m*3 6.9 C 0 km/h
1481 23-02-2008 08:19:02 6.8 C 6.04 g/m*3 6.8 C 0 km/h
1482 23-02-2008 08:31:02 7 C 6.04 g/m*3 7 C 0 km/h
1483 23-02-2008 08:43:02 7.2 C 6.12 g/m*3 7.2 C 0 km/h
1484 23-02-2008 08:55:02 7.3 C 6.08 g/m*3 7.3 C 0 km/h
1485 23-02-2008 09:07:02 7.4 C 6.04 g/m*3 7.4 C 0 km/h
1486 23-02-2008 09:19:02 7.5 C 6.08 g/m*3 7.5 C 0 km/h
1487 23-02-2008 09:31:02 7.7 C 6.16 g/m*3 7.7 C 0 km/h
1488 23-02-2008 09:43:02 7.9 C 6.24 g/m*3 7.9 C 0 km/h
1489 23-02-2008 09:55:02 8 C 6.2 g/m*3 8 C 0 km/h
1490 23-02-2008 10:07:01 8.4 C 6.28 g/m*3 8.4 C 0 km/h
1491 23-02-2008 10:19:02 8.6 C 6.27 g/m*3 8.6 C 0 km/h
1492 23-02-2008 10:31:01 8.9 C 6.31 g/m*3 8.9 C 0 km/h
1493 23-02-2008 10:43:01 9.4 C 6.24 g/m*3 9.4 C 0 km/h
1494 23-02-2008 10:55:02 9.7 C 5.99 g/m*3 9.7 C 0 km/h
1495 23-02-2008 11:07:01 10 C 5.73 g/m*3 10 C 0 km/h
1496 23-02-2008 11:19:02 10.1 C 5.58 g/m*3 10.1 C 0 km/h
1497 23-02-2008 11:31:02 10.2 C 5.52 g/m*3 10.2 C 0 km/h
1498 23-02-2008 11:43:02 10.4 C 5.59 g/m*3 10.4 C 0 km/h
1499 23-02-2008 11:55:02 10.8 C 5.63 g/m*3 10.8 C 0 km/h
1500 23-02-2008 12:07:02 11.2 C 5.27 g/m*3 11.2 C 0 km/h
Sensor: Nr:Datum:Temp:Abs-Feuchte:Windchill:Wind:
Aussen-T/F 1501 23-02-2008 12:19:02 11.3 C 5.1 g/m*3 11.3 C 0 km/h
1502 23-02-2008 12:31:02 11.3 C 5.1 g/m*3 11.3 C 0 km/h
1503 23-02-2008 12:43:02 11.8 C 5.05 g/m*3 11.8 C 0 km/h
1504 23-02-2008 12:55:02 12.3 C 4.89 g/m*3 12.3 C 0 km/h
1505 23-02-2008 13:07:03 12.6 C 4.98 g/m*3 12.6 C 0 km/h
1506 23-02-2008 13:19:02 12.7 C 4.79 g/m*3 12.7 C 0 km/h
1507 23-02-2008 13:31:02 12.7 C 4.79 g/m*3 12.7 C 0 km/h
1508 23-02-2008 13:43:02 12.7 C 4.79 g/m*3 12.7 C 0 km/h
1509 23-02-2008 13:55:01 13.2 C 4.71 g/m*3 13.2 C 0 km/h
1510 23-02-2008 14:07:03 13.4 C 4.65 g/m*3 13.4 C 0 km/h
1511 23-02-2008 14:19:02 13.8 C 4.65 g/m*3 13.8 C 0 km/h
1512 23-02-2008 14:31:01 14 C 4.46 g/m*3 14 C 0 km/h
1513 23-02-2008 14:43:01 14.1 C 4.49 g/m*3 14.1 C 0 km/h
1514 23-02-2008 14:55:01 14.1 C 4.61 g/m*3 14.1 C 0 km/h
1515 23-02-2008 15:07:01 13.9 C 4.68 g/m*3 13.9 C 0 km/h
1516 23-02-2008 15:19:02 14.1 C 4.61 g/m*3 14.1 C 0 km/h
1517 23-02-2008 15:31:01 14.2 C 4.64 g/m*3 14.2 C 0 km/h
1518 23-02-2008 15:43:01 13.9 C 4.56 g/m*3 13.9 C 0 km/h
1519 23-02-2008 15:55:02 13.6 C 4.71 g/m*3 13.6 C 0 km/h
1520 23-02-2008 16:07:01 13.5 C 4.68 g/m*3 13.5 C 0 km/h
1521 23-02-2008 16:19:02 13.4 C 4.65 g/m*3 13.4 C 0 km/h
1522 23-02-2008 16:31:02 13.4 C 4.65 g/m*3 13.4 C 0 km/h
1523 23-02-2008 16:43:02 13.1 C 4.68 g/m*3 13.1 C 0 km/h
1524 23-02-2008 16:55:02 12.8 C 4.82 g/m*3 12.8 C 0 km/h
1525 23-02-2008 17:07:03 13 C 4.76 g/m*3 13 C 0 km/h
Sensor: Nr:Datum:Temp:Abs-Feuchte:Windchill:Wind:
Aussen-T/F 1526 23-02-2008 17:19:02 12.9 C 4.96 g/m*3 12.9 C 0 km/h
1527 23-02-2008 17:31:02 12.8 C 5.04 g/m*3 12.8 C 0 km/h
1528 23-02-2008 17:43:02 12.4 C 5.03 g/m*3 12.4 C 0 km/h
1529 23-02-2008 17:55:02 11.9 C 4.98 g/m*3 11.9 C 0 km/h
1530 23-02-2008 18:07:02 11.4 C 5.13 g/m*3 11.4 C 0 km/h
1531 23-02-2008 18:19:03 10.8 C 5.24 g/m*3 10.8 C 0 km/h
1532 23-02-2008 18:31:03 10.2 C 5.23 g/m*3 10.2 C 0 km/h
1533 23-02-2008 18:43:03 9.8 C 5.29 g/m*3 9.8 C 0 km/h
1534 23-02-2008 18:55:02 9.6 C 5.31 g/m*3 9.6 C 0 km/h
1535 23-02-2008 19:07:02 9.4 C 5.34 g/m*3 9.4 C 0 km/h
1536 23-02-2008 19:19:02 9.3 C 5.39 g/m*3 9.3 C 0 km/h
1537 23-02-2008 19:31:02 9.2 C 5.36 g/m*3 9.2 C 0 km/h
1538 23-02-2008 19:43:02 8.8 C 5.31 g/m*3 8.8 C 0 km/h
1539 23-02-2008 19:55:02 8.6 C 5.41 g/m*3 8.6 C 0 km/h
1540 23-02-2008 20:07:02 8.4 C 5.43 g/m*3 8.4 C 0 km/h
1541 23-02-2008 20:19:02 8.2 C 5.36 g/m*3 8.2 C 0 km/h
1542 23-02-2008 20:31:03 8 C 5.37 g/m*3 8 C 0 km/h
1543 23-02-2008 20:43:03 7.9 C 5.5 g/m*3 7.9 C 0 km/h
1544 23-02-2008 20:55:02 7.7 C 5.43 g/m*3 7.7 C 0 km/h
1545 23-02-2008 21:07:02 7.4 C 5.33 g/m*3 7.4 C 0 km/h
1546 23-02-2008 21:19:01 7.3 C 5.37 g/m*3 7.3 C 0 km/h
1547 23-02-2008 21:31:02 7.2 C 5.42 g/m*3 7.2 C 0 km/h
1548 23-02-2008 21:43:02 7.1 C 5.38 g/m*3 7.1 C 0 km/h
1549 23-02-2008 21:55:02 6.8 C 5.35 g/m*3 6.8 C 0 km/h
1550 23-02-2008 22:07:01 6.6 C 5.36 g/m*3 6.6 C 0 km/h
Sensor: Nr:Datum:Temp:Abs-Feuchte:Windchill:Wind:
Aussen-T/F 1551 23-02-2008 22:20:02 6.5 C 5.32 g/m*3 6.5 C 0 km/h
1552 23-02-2008 22:32:02 6.2 C 5.29 g/m*3 6.2 C 0 km/h
1553 23-02-2008 22:44:02 5.9 C 5.26 g/m*3 5.9 C 0 km/h
1554 23-02-2008 22:56:02 5.9 C 5.34 g/m*3 5.9 C 0 km/h
1555 23-02-2008 23:08:02 5.8 C 5.3 g/m*3 5.8 C 0 km/h
1556 23-02-2008 23:20:02 5.7 C 5.34 g/m*3 5.7 C 0 km/h
1557 23-02-2008 23:32:02 5.7 C 5.41 g/m*3 5.7 C 0 km/h
1558 23-02-2008 23:44:02 5.7 C 5.48 g/m*3 5.7 C 0 km/h
1559 23-02-2008 23:56:02 5.4 C 5.37 g/m*3 5.4 C 0 km/h
1560 24-02-2008 00:08:02 5.3 C 5.34 g/m*3 5.3 C 0 km/h
1561 24-02-2008 00:20:02 5.3 C 5.41 g/m*3 5.3 C 0 km/h
1562 24-02-2008 00:32:02 5.3 C 5.48 g/m*3 5.3 C 0 km/h
1563 24-02-2008 00:44:02 5.1 C 5.4 g/m*3 5.1 C 0 km/h
1564 24-02-2008 00:56:02 4.8 C 5.3 g/m*3 4.8 C 0 km/h
1565 24-02-2008 01:08:02 4.8 C 5.3 g/m*3 4.8 C 0 km/h
1566 24-02-2008 01:20:02 4.6 C 5.29 g/m*3 4.6 C 0 km/h
1567 24-02-2008 01:32:02 4.6 C 5.36 g/m*3 4.6 C 0 km/h
1568 24-02-2008 01:44:02 4.5 C 5.32 g/m*3 4.5 C 0 km/h
1569 24-02-2008 01:56:03 4.3 C 5.25 g/m*3 4.3 C 0 km/h
1570 24-02-2008 02:08:03 4.3 C 5.32 g/m*3 4.3 C 0 km/h
1571 24-02-2008 02:20:03 4.1 C 5.25 g/m*3 4.1 C 0 km/h
1572 24-02-2008 02:32:03 4 C 5.21 g/m*3 4 C 0 km/h
1573 24-02-2008 02:44:03 3.8 C 5.21 g/m*3 3.8 C 0 km/h
1574 24-02-2008 02:56:03 3.6 C 5.14 g/m*3 3.6 C 0 km/h
1575 24-02-2008 03:08:03 3.5 C 5.1 g/m*3 3.5 C 0 km/h
Sensor: Nr:Datum:Temp:Abs-Feuchte:Windchill:Wind:
Aussen-T/F 1576 24-02-2008 03:20:03 3.4 C 5.13 g/m*3 3.4 C 0 km/h
1577 24-02-2008 03:32:03 3.3 C 5.1 g/m*3 3.3 C 0 km/h
1578 24-02-2008 03:44:03 3.1 C 5.03 g/m*3 3.1 C 0 km/h
1579 24-02-2008 03:56:03 3 C 4.99 g/m*3 3 C 0 km/h
1580 24-02-2008 04:08:03 2.8 C 4.99 g/m*3 2.8 C 0 km/h
1581 24-02-2008 04:20:03 2.7 C 4.95 g/m*3 2.7 C 0 km/h
1582 24-02-2008 04:32:03 2.6 C 4.86 g/m*3 2.6 C 0 km/h
1583 24-02-2008 04:44:03 2.5 C 4.83 g/m*3 2.5 C 0 km/h
1584 24-02-2008 04:56:03 2.6 C 4.92 g/m*3 2.6 C 0 km/h
1585 24-02-2008 05:08:03 2.5 C 4.94 g/m*3 2.5 C 0 km/h
1586 24-02-2008 05:20:03 2.4 C 4.91 g/m*3 2.4 C 0 km/h
1587 24-02-2008 05:32:03 2.3 C 4.88 g/m*3 2.3 C 0 km/h
1588 24-02-2008 05:44:03 2.1 C 4.81 g/m*3 2.1 C 0 km/h
1589 24-02-2008 05:56:03 2.1 C 4.81 g/m*3 2.1 C 0 km/h
1590 24-02-2008 06:08:04 2.1 C 4.81 g/m*3 2.1 C 0 km/h
1591 24-02-2008 06:20:04 1.9 C 4.8 g/m*3 1.9 C 0 km/h
1592 24-02-2008 06:32:04 1.8 C 4.77 g/m*3 1.8 C 0 km/h
1593 24-02-2008 06:44:04 1.9 C 4.86 g/m*3 1.9 C 0 km/h
1594 24-02-2008 06:56:04 1.8 C 4.82 g/m*3 1.8 C 0 km/h
1595 24-02-2008 07:08:04 1.8 C 4.82 g/m*3 1.8 C 0 km/h
1596 24-02-2008 07:20:04 1.8 C 4.88 g/m*3 1.8 C 0 km/h
1597 24-02-2008 07:32:04 1.6 C 4.81 g/m*3 1.6 C 0 km/h
1598 24-02-2008 07:44:04 1.7 C 4.85 g/m*3 1.7 C 0 km/h
1599 24-02-2008 07:56:04 1.8 C 4.88 g/m*3 1.8 C 0 km/h
1600 24-02-2008 08:08:04 2.1 C 4.98 g/m*3 2.1 C 0 km/h
Sensor: Nr:Datum:Temp:Abs-Feuchte:Windchill:Wind:
Aussen-T/F 1601 24-02-2008 08:20:04 2.2 C 5.01 g/m*3 2.2 C 0 km/h
1602 24-02-2008 08:32:04 2.7 C 5.24 g/m*3 2.7 C 0 km/h
1603 24-02-2008 08:44:04 3.2 C 5.42 g/m*3 3.2 C 0 km/h
1604 24-02-2008 08:56:04 3.6 C 5.63 g/m*3 3.6 C 0 km/h
1605 24-02-2008 09:08:04 4.1 C 5.76 g/m*3 4.1 C 0 km/h
1606 24-02-2008 09:20:04 4.5 C 5.98 g/m*3 4.5 C 0 km/h
1607 24-02-2008 09:32:04 4.8 C 6.1 g/m*3 4.8 C 0 km/h
1608 24-02-2008 09:44:04 5 C 6.05 g/m*3 5 C 0 km/h
1609 24-02-2008 09:56:02 5.1 C 6.02 g/m*3 5.1 C 0 km/h
1610 24-02-2008 10:08:02 5.2 C 5.99 g/m*3 5.2 C 0 km/h
1611 24-02-2008 10:20:02 5.6 C 6.08 g/m*3 5.6 C 0 km/h
1612 24-02-2008 10:32:02 5.7 C 5.98 g/m*3 5.7 C 0 km/h
1613 24-02-2008 10:44:02 5.8 C 6.02 g/m*3 5.8 C 0 km/h
1614 24-02-2008 10:56:01 6.1 C 5.92 g/m*3 6.1 C 0 km/h
1615 24-02-2008 11:08:02 6.9 C 6.08 g/m*3 6.9 C 0 km/h
1616 24-02-2008 11:20:02 7 C 5.89 g/m*3 7 C 0 km/h
1617 24-02-2008 11:32:02 7.4 C 6.04 g/m*3 7.4 C 0 km/h
1618 24-02-2008 11:44:02 7.9 C 5.91 g/m*3 7.9 C 0 km/h
1619 24-02-2008 11:56:02 8.2 C 5.86 g/m*3 8.2 C 0 km/h
1620 24-02-2008 12:08:02 8.4 C 5.85 g/m*3 8.4 C 0 km/h
1621 24-02-2008 12:20:02 8.9 C 5.87 g/m*3 8.9 C 0 km/h
1622 24-02-2008 12:32:02 8.2 C 5.44 g/m*3 8.2 C 0 km/h
1623 24-02-2008 12:44:02 8.3 C 5.65 g/m*3 8.3 C 0 km/h
1624 24-02-2008 12:56:02 8.4 C 5.68 g/m*3 8.4 C 0 km/h
1625 24-02-2008 13:08:02 8.2 C 5.69 g/m*3 8.2 C 0 km/h
Sensor: Nr:Datum:Temp:Abs-Feuchte:Windchill:Wind:
Aussen-T/F 1626 24-02-2008 13:20:02 8.7 C 5.88 g/m*3 8.7 C 0 km/h
1627 24-02-2008 13:32:01 9 C 5.73 g/m*3 9 C 0 km/h
1628 24-02-2008 13:44:01 9.9 C 5.98 g/m*3 9.9 C 0 km/h
1629 24-02-2008 13:56:02 10.8 C 6.03 g/m*3 10.8 C 0 km/h
1630 24-02-2008 14:08:03 11.5 C 5.89 g/m*3 11.5 C 0 km/h
1631 24-02-2008 14:20:02 12 C 5.75 g/m*3 12 C 0 km/h
1632 24-02-2008 14:32:02 12.7 C 5.79 g/m*3 12.7 C 0 km/h
1633 24-02-2008 14:44:02 13.3 C 5.55 g/m*3 13.3 C 0 km/h
1634 24-02-2008 14:56:02 13.7 C 5.45 g/m*3 13.7 C 0 km/h
1635 24-02-2008 15:08:02 14.3 C 5.41 g/m*3 14.3 C 0 km/h
1636 24-02-2008 15:20:02 14.2 C 5.49 g/m*3 14.2 C 0 km/h
1637 24-02-2008 15:32:02 14.3 C 5.41 g/m*3 14.3 C 0 km/h
1638 24-02-2008 15:44:02 14.7 C 5.41 g/m*3 14.7 C 0 km/h
1639 24-02-2008 15:56:02 14.4 C 5.32 g/m*3 14.4 C 0 km/h
1640 24-02-2008 16:08:02 15.1 C 5.42 g/m*3 15.1 C 0 km/h
1641 24-02-2008 16:20:02 14.8 C 5.45 g/m*3 14.8 C 0 km/h
1642 24-02-2008 16:32:02 14.5 C 5.6 g/m*3 14.5 C 0 km/h
1643 24-02-2008 16:44:02 14 C 5.55 g/m*3 14 C 0 km/h
1644 24-02-2008 16:56:01 13.9 C 5.63 g/m*3 13.9 C 0 km/h
1645 24-02-2008 17:08:02 14.1 C 5.46 g/m*3 14.1 C 0 km/h
1646 24-02-2008 17:20:03 13.6 C 5.53 g/m*3 13.6 C 0 km/h
1647 24-02-2008 17:32:02 13 C 5.56 g/m*3 13 C 0 km/h
1648 24-02-2008 17:44:02 12.4 C 5.68 g/m*3 12.4 C 0 km/h
1649 24-02-2008 17:56:02 11.4 C 5.85 g/m*3 11.4 C 0 km/h
1650 24-02-2008 18:08:01 10.3 C 5.84 g/m*3 10.3 C 0 km/h
Sensor: Nr:Datum:Temp:Abs-Feuchte:Windchill:Wind:
Aussen-T/F 1651 24-02-2008 18:20:01 9.7 C 5.99 g/m*3 9.7 C 0 km/h
1652 24-02-2008 18:32:01 9.4 C 5.97 g/m*3 9.4 C 0 km/h
1653 24-02-2008 18:44:01 9.1 C 6.12 g/m*3 9.1 C 0 km/h
1654 24-02-2008 18:56:02 9 C 6.08 g/m*3 9 C 0 km/h
1655 24-02-2008 19:08:02 8.7 C 6.14 g/m*3 8.7 C 0 km/h
1656 24-02-2008 19:20:02 8.4 C 6.02 g/m*3 8.4 C 0 km/h
1657 24-02-2008 19:32:02 8.1 C 5.91 g/m*3 8.1 C 0 km/h
1658 24-02-2008 19:44:02 8 C 6.04 g/m*3 8 C 0 km/h
1659 24-02-2008 19:56:02 7.9 C 6.24 g/m*3 7.9 C 0 km/h
1660 24-02-2008 20:08:02 7.7 C 6.08 g/m*3 7.7 C 0 km/h
1661 24-02-2008 20:20:02 7.5 C 5.92 g/m*3 7.5 C 0 km/h
1662 24-02-2008 20:32:02 7.3 C 6 g/m*3 7.3 C 0 km/h
1663 24-02-2008 20:44:02 6.9 C 6 g/m*3 6.9 C 0 km/h
1664 24-02-2008 20:56:02 6.6 C 5.81 g/m*3 6.6 C 0 km/h
1665 24-02-2008 21:08:02 6.4 C 5.89 g/m*3 6.4 C 0 km/h
1666 24-02-2008 21:20:03 6.2 C 5.81 g/m*3 6.2 C 0 km/h
1667 24-02-2008 21:32:02 6 C 5.73 g/m*3 6 C 0 km/h
1668 24-02-2008 21:44:03 6 C 5.88 g/m*3 6 C 0 km/h
1669 24-02-2008 21:56:02 5.9 C 5.91 g/m*3 5.9 C 0 km/h
1670 24-02-2008 22:08:02 5.7 C 5.84 g/m*3 5.7 C 0 km/h
1671 24-02-2008 22:21:02 5.5 C 5.83 g/m*3 5.5 C 0 km/h
1672 24-02-2008 22:33:02 5.5 C 5.83 g/m*3 5.5 C 0 km/h
1673 24-02-2008 22:45:03 5.6 C 5.94 g/m*3 5.6 C 0 km/h
1674 24-02-2008 22:57:03 5.2 C 5.71 g/m*3 5.2 C 0 km/h
1675 24-02-2008 23:09:03 5.1 C 5.68 g/m*3 5.1 C 0 km/h
Sensor: Nr:Datum:Temp:Abs-Feuchte:Windchill:Wind:
Aussen-T/F 1676 24-02-2008 23:21:03 4.9 C 5.6 g/m*3 4.9 C 0 km/h
1677 24-02-2008 23:33:03 4.9 C 5.67 g/m*3 4.9 C 0 km/h
1678 24-02-2008 23:45:03 5 C 5.64 g/m*3 5 C 0 km/h
1679 24-02-2008 23:57:03 4.9 C 5.74 g/m*3 4.9 C 0 km/h
1680 25-02-2008 00:09:03 4.8 C 5.77 g/m*3 4.8 C 0 km/h
1681 25-02-2008 00:21:03 5.1 C 5.88 g/m*3 5.1 C 0 km/h
1682 25-02-2008 00:33:03 5.3 C 6.03 g/m*3 5.3 C 0 km/h
1683 25-02-2008 00:45:03 5.2 C 5.99 g/m*3 5.2 C 0 km/h
1684 25-02-2008 00:57:03 5.2 C 5.99 g/m*3 5.2 C 0 km/h
1685 25-02-2008 01:09:03 5.4 C 6.14 g/m*3 5.4 C 0 km/h
1686 25-02-2008 01:21:03 5.3 C 6.03 g/m*3 5.3 C 0 km/h
1687 25-02-2008 01:33:03 5.5 C 6.18 g/m*3 5.5 C 0 km/h
1688 25-02-2008 01:45:03 5.3 C 6.03 g/m*3 5.3 C 0 km/h
1689 25-02-2008 01:57:03 6.7 C 6.61 g/m*3 6.7 C 0 km/h
1690 25-02-2008 02:09:03 7.1 C 6.4 g/m*3 7.1 C 0 km/h
1691 25-02-2008 02:21:03 7.3 C 6.16 g/m*3 7.3 C 0 km/h
1692 25-02-2008 02:33:03 7.5 C 6.16 g/m*3 7.5 C 0 km/h
1693 25-02-2008 02:45:04 7.6 C 6.12 g/m*3 7.6 C 0 km/h
1694 25-02-2008 02:57:04 7.6 C 6.12 g/m*3 7.6 C 0 km/h
1695 25-02-2008 03:09:04 7.6 C 6.04 g/m*3 7.6 C 0 km/h
1696 25-02-2008 03:21:04 7.8 C 6.04 g/m*3 7.8 C 0 km/h
1697 25-02-2008 03:33:04 7.9 C 6 g/m*3 7.9 C 0 km/h
1698 25-02-2008 03:45:04 8 C 5.87 g/m*3 8 C 0 km/h
1699 25-02-2008 03:57:04 8 C 5.87 g/m*3 8 C 0 km/h
1700 25-02-2008 04:09:04 8.1 C 5.91 g/m*3 8.1 C 0 km/h
Sensor: Nr:Datum:Temp:Abs-Feuchte:Windchill:Wind:
Aussen-T/F 1701 25-02-2008 04:21:04 8 C 6.04 g/m*3 8 C 0 km/h
1702 25-02-2008 04:33:04 8.2 C 6.11 g/m*3 8.2 C 0 km/h
1703 25-02-2008 04:45:04 8.2 C 6.11 g/m*3 8.2 C 0 km/h
1704 25-02-2008 04:57:04 8 C 6.28 g/m*3 8 C 0 km/h
1705 25-02-2008 05:09:04 8 C 6.45 g/m*3 8 C 0 km/h
1706 25-02-2008 05:21:04 7.9 C 6.65 g/m*3 7.9 C 0 km/h
1707 25-02-2008 05:33:04 8 C 6.7 g/m*3 8 C 0 km/h
1708 25-02-2008 05:45:04 7.9 C 6.82 g/m*3 7.9 C 0 km/h
1709 25-02-2008 05:57:04 7.9 C 6.9 g/m*3 7.9 C 0 km/h
1710 25-02-2008 06:09:04 7.8 C 6.86 g/m*3 7.8 C 0 km/h
1711 25-02-2008 06:21:04 7.8 C 6.86 g/m*3 7.8 C 0 km/h
1712 25-02-2008 06:33:05 7.9 C 6.98 g/m*3 7.9 C 0 km/h
1713 25-02-2008 06:45:05 8.1 C 6.91 g/m*3 8.1 C 0 km/h
1714 25-02-2008 06:57:05 8.2 C 6.87 g/m*3 8.2 C 0 km/h
1715 25-02-2008 07:09:02 8.2 C 6.78 g/m*3 8.2 C 0 km/h
1716 25-02-2008 07:21:02 8.2 C 6.78 g/m*3 8.2 C 0 km/h
1717 25-02-2008 07:33:03 8.1 C 6.74 g/m*3 8.1 C 0 km/h
1718 25-02-2008 07:45:03 8.1 C 6.82 g/m*3 8.1 C 0 km/h
1719 25-02-2008 07:57:03 8.1 C 6.82 g/m*3 8.1 C 0 km/h
1720 25-02-2008 08:09:02 8.2 C 6.87 g/m*3 8.2 C 0 km/h
1721 25-02-2008 08:21:02 8.2 C 6.95 g/m*3 8.2 C 0 km/h
1722 25-02-2008 08:33:02 8.2 C 6.87 g/m*3 8.2 C 0 km/h
1723 25-02-2008 08:45:02 8.5 C 7 g/m*3 8.5 C 0 km/h
1724 25-02-2008 08:57:02 8.5 C 6.83 g/m*3 8.5 C 0 km/h
1725 25-02-2008 09:09:03 8.7 C 6.4 g/m*3 8.7 C 0 km/h
Sensor: Nr:Datum:Temp:Abs-Feuchte:Windchill:Wind:
Aussen-T/F 1726 25-02-2008 09:21:02 8.9 C 6.31 g/m*3 8.9 C 0 km/h
1727 25-02-2008 09:33:02 8.9 C 6.13 g/m*3 8.9 C 0 km/h
1728 25-02-2008 09:45:02 9.1 C 6.12 g/m*3 9.1 C 0 km/h
1729 25-02-2008 09:57:02 9.1 C 5.94 g/m*3 9.1 C 0 km/h
1730 25-02-2008 10:09:02 9 C 5.82 g/m*3 9 C 0 km/h
1731 25-02-2008 10:21:02 9 C 5.73 g/m*3 9 C 0 km/h
1732 25-02-2008 10:33:02 9.1 C 5.86 g/m*3 9.1 C 0 km/h
1733 25-02-2008 10:45:02 9.3 C 5.84 g/m*3 9.3 C 0 km/h
1734 25-02-2008 10:57:03 9.5 C 5.92 g/m*3 9.5 C 0 km/h
1735 25-02-2008 11:09:01 9.5 C 5.73 g/m*3 9.5 C 0 km/h
1736 25-02-2008 11:21:02 9.8 C 5.57 g/m*3 9.8 C 0 km/h
1737 25-02-2008 11:33:01 9.8 C 5.29 g/m*3 9.8 C 0 km/h
1738 25-02-2008 11:45:02 10.2 C 5.42 g/m*3 10.2 C 0 km/h
1739 25-02-2008 11:57:02 10.9 C 5.17 g/m*3 10.9 C 0 km/h
1740 25-02-2008 12:09:02 10.4 C 5.11 g/m*3 10.4 C 0 km/h
1741 25-02-2008 12:21:02 10.4 C 5.3 g/m*3 10.4 C 0 km/h
1742 25-02-2008 12:33:02 11 C 5.1 g/m*3 11 C 0 km/h
1743 25-02-2008 12:45:03 11 C 5.1 g/m*3 11 C 0 km/h
1744 25-02-2008 12:57:04 11.2 C 5.07 g/m*3 11.2 C 0 km/h
1745 25-02-2008 13:09:02 11.5 C 5.06 g/m*3 11.5 C 0 km/h
1746 25-02-2008 13:21:02 12.4 C 5.03 g/m*3 12.4 C 0 km/h
1747 25-02-2008 13:33:03 12.8 C 5.04 g/m*3 12.8 C 0 km/h
1748 25-02-2008 13:45:02 13.1 C 4.79 g/m*3 13.1 C 0 km/h
1749 25-02-2008 13:57:02 14 C 4.95 g/m*3 14 C 0 km/h
1750 25-02-2008 14:09:02 14.7 C 4.78 g/m*3 14.7 C 0 km/h
Sensor: Nr:Datum:Temp:Abs-Feuchte:Windchill:Wind:
Aussen-T/F 1751 25-02-2008 14:21:02 14.8 C 4.81 g/m*3 14.8 C 0 km/h
1752 25-02-2008 14:33:02 14.6 C 4.63 g/m*3 14.6 C 0 km/h
1753 25-02-2008 14:45:02 14.9 C 4.59 g/m*3 14.9 C 0 km/h
1754 25-02-2008 14:57:02 15 C 4.49 g/m*3 15 C 0 km/h
1755 25-02-2008 15:09:02 14.8 C 4.56 g/m*3 14.8 C 0 km/h
1756 25-02-2008 15:21:01 15 C 4.74 g/m*3 15 C 0 km/h
1757 25-02-2008 15:33:02 15.3 C 4.57 g/m*3 15.3 C 0 km/h
1758 25-02-2008 15:45:02 15.6 C 4.52 g/m*3 15.6 C 0 km/h
1759 25-02-2008 15:57:02 15.8 C 4.44 g/m*3 15.8 C 0 km/h
1760 25-02-2008 16:09:02 15.9 C 4.47 g/m*3 15.9 C 0 km/h
1761 25-02-2008 16:21:02 15.9 C 4.33 g/m*3 15.9 C 0 km/h
1762 25-02-2008 16:33:02 14.8 C 4.43 g/m*3 14.8 C 0 km/h
1763 25-02-2008 16:45:02 14.3 C 4.55 g/m*3 14.3 C 0 km/h
1764 25-02-2008 16:57:02 13.9 C 5.15 g/m*3 13.9 C 0 km/h
1765 25-02-2008 17:09:02 13.5 C 5.26 g/m*3 13.5 C 0 km/h
1766 25-02-2008 17:21:02 13.2 C 5.51 g/m*3 13.2 C 0 km/h
1767 25-02-2008 17:33:02 12.7 C 5.57 g/m*3 12.7 C 0 km/h
1768 25-02-2008 17:45:01 12.2 C 5.61 g/m*3 12.2 C 0 km/h
1769 25-02-2008 17:57:01 11.7 C 5.75 g/m*3 11.7 C 0 km/h
1770 25-02-2008 18:09:02 11.1 C 5.74 g/m*3 11.1 C 0 km/h
1771 25-02-2008 18:21:01 10.8 C 5.83 g/m*3 10.8 C 0 km/h
1772 25-02-2008 18:33:02 10.7 C 5.89 g/m*3 10.7 C 0 km/h
1773 25-02-2008 18:45:02 10.4 C 5.88 g/m*3 10.4 C 0 km/h
1774 25-02-2008 18:57:02 10.4 C 5.98 g/m*3 10.4 C 0 km/h
1775 25-02-2008 19:09:02 10.6 C 5.95 g/m*3 10.6 C 0 km/h
Sensor: Nr:Datum:Temp:Abs-Feuchte:Windchill:Wind:
Aussen-T/F 1776 25-02-2008 19:21:01 10.6 C 5.95 g/m*3 10.6 C 0 km/h
1777 25-02-2008 19:33:01 10.5 C 5.92 g/m*3 10.5 C 0 km/h
1778 25-02-2008 19:45:03 10.5 C 6.01 g/m*3 10.5 C 0 km/h
1779 25-02-2008 19:57:03 10.5 C 6.01 g/m*3 10.5 C 0 km/h
1780 25-02-2008 20:09:02 10.7 C 6.09 g/m*3 10.7 C 0 km/h
1781 25-02-2008 20:21:02 10.7 C 6.09 g/m*3 10.7 C 0 km/h
1782 25-02-2008 20:33:03 10.6 C 6.05 g/m*3 10.6 C 0 km/h
1783 25-02-2008 20:45:02 10.6 C 6.15 g/m*3 10.6 C 0 km/h
1784 25-02-2008 20:57:02 10.7 C 6.09 g/m*3 10.7 C 0 km/h
1785 25-02-2008 21:09:02 10.8 C 6.13 g/m*3 10.8 C 0 km/h
1786 25-02-2008 21:21:02 10.8 C 6.03 g/m*3 10.8 C 0 km/h
1787 25-02-2008 21:33:02 10.5 C 6.01 g/m*3 10.5 C 0 km/h
1788 25-02-2008 21:45:02 10.1 C 6.05 g/m*3 10.1 C 0 km/h
1789 25-02-2008 21:57:02 10.1 C 6.15 g/m*3 10.1 C 0 km/h
1790 25-02-2008 22:09:02 10 C 6.11 g/m*3 10 C 0 km/h
1791 25-02-2008 22:21:02 10.1 C 6.24 g/m*3 10.1 C 0 km/h
1792 25-02-2008 22:33:02 10.1 C 6.24 g/m*3 10.1 C 0 km/h
1793 25-02-2008 22:45:02 10.2 C 6.38 g/m*3 10.2 C 0 km/h
1794 25-02-2008 22:57:02 10.2 C 6.38 g/m*3 10.2 C 0 km/h
1795 25-02-2008 23:09:02 10.2 C 6.38 g/m*3 10.2 C 0 km/h
1796 25-02-2008 23:21:02 10.1 C 6.34 g/m*3 10.1 C 0 km/h
1797 25-02-2008 23:33:02 10 C 6.3 g/m*3 10 C 0 km/h
1798 25-02-2008 23:45:02 10.1 C 6.43 g/m*3 10.1 C 0 km/h
1799 25-02-2008 23:57:02 10.2 C 6.38 g/m*3 10.2 C 0 km/h
1800 26-02-2008 00:09:02 10.3 C 6.42 g/m*3 10.3 C 0 km/h
Sensor: Nr:Datum:Temp:Abs-Feuchte:Windchill:Wind:
Aussen-T/F 1801 26-02-2008 00:21:02 10.4 C 6.55 g/m*3 10.4 C 0 km/h
1802 26-02-2008 00:33:02 10.5 C 6.6 g/m*3 10.5 C 0 km/h
1803 26-02-2008 00:45:02 10.4 C 6.55 g/m*3 10.4 C 0 km/h
1804 26-02-2008 00:57:02 10.5 C 6.6 g/m*3 10.5 C 0 km/h
1805 26-02-2008 01:09:02 10.1 C 6.52 g/m*3 10.1 C 0 km/h
1806 26-02-2008 01:21:02 9.7 C 6.55 g/m*3 9.7 C 0 km/h
1807 26-02-2008 01:33:02 9.4 C 6.6 g/m*3 9.4 C 0 km/h
1808 26-02-2008 01:45:01 9.7 C 6.82 g/m*3 9.7 C 0 km/h
1809 26-02-2008 01:57:01 10 C 6.77 g/m*3 10 C 0 km/h
1810 26-02-2008 02:09:01 9.8 C 6.77 g/m*3 9.8 C 0 km/h
1811 26-02-2008 02:21:02 9.7 C 6.82 g/m*3 9.7 C 0 km/h
1812 26-02-2008 02:33:02 9.9 C 6.82 g/m*3 9.9 C 0 km/h
1813 26-02-2008 02:46:03 10.2 C 6.85 g/m*3 10.2 C 0 km/h
1814 26-02-2008 02:58:03 10.4 C 6.84 g/m*3 10.4 C 0 km/h
1815 26-02-2008 03:10:03 10.8 C 6.82 g/m*3 10.8 C 0 km/h
1816 26-02-2008 03:22:03 10.7 C 6.68 g/m*3 10.7 C 0 km/h
1817 26-02-2008 03:34:02 10.7 C 6.78 g/m*3 10.7 C 0 km/h
1818 26-02-2008 03:46:02 10.6 C 6.73 g/m*3 10.6 C 0 km/h
1819 26-02-2008 03:58:02 10.5 C 6.69 g/m*3 10.5 C 0 km/h
1820 26-02-2008 04:10:02 10.4 C 6.75 g/m*3 10.4 C 0 km/h
1821 26-02-2008 04:22:02 10.5 C 6.89 g/m*3 10.5 C 0 km/h
1822 26-02-2008 04:34:02 10.5 C 6.89 g/m*3 10.5 C 0 km/h
1823 26-02-2008 04:46:02 10.5 C 6.79 g/m*3 10.5 C 0 km/h
1824 26-02-2008 04:58:02 10.4 C 6.75 g/m*3 10.4 C 0 km/h
1825 26-02-2008 05:10:01 10.3 C 6.7 g/m*3 10.3 C 0 km/h
Sensor: Nr:Datum:Temp:Abs-Feuchte:Windchill:Wind:
Aussen-T/F 1826 26-02-2008 05:22:02 10.6 C 6.83 g/m*3 10.6 C 0 km/h
1827 26-02-2008 05:34:02 10.6 C 6.73 g/m*3 10.6 C 0 km/h
1828 26-02-2008 05:46:02 10.5 C 6.69 g/m*3 10.5 C 0 km/h
1829 26-02-2008 05:58:02 10.4 C 6.75 g/m*3 10.4 C 0 km/h
1830 26-02-2008 06:10:03 10.4 C 6.75 g/m*3 10.4 C 0 km/h
1831 26-02-2008 06:22:02 10.4 C 6.65 g/m*3 10.4 C 0 km/h
1832 26-02-2008 06:34:02 10.4 C 6.55 g/m*3 10.4 C 0 km/h
1833 26-02-2008 06:46:01 10.4 C 6.55 g/m*3 10.4 C 0 km/h
1834 26-02-2008 06:58:01 10.3 C 6.51 g/m*3 10.3 C 0 km/h
1835 26-02-2008 07:10:01 10.1 C 6.43 g/m*3 10.1 C 0 km/h
1836 26-02-2008 07:22:02 10 C 6.39 g/m*3 10 C 0 km/h
1837 26-02-2008 07:34:01 10 C 6.39 g/m*3 10 C 0 km/h
1838 26-02-2008 07:46:02 10 C 6.39 g/m*3 10 C 0 km/h
1839 26-02-2008 07:58:02 10 C 6.39 g/m*3 10 C 0 km/h
1840 26-02-2008 08:10:01 10.2 C 6.47 g/m*3 10.2 C 0 km/h
1841 26-02-2008 08:22:02 10.5 C 6.5 g/m*3 10.5 C 0 km/h
1842 26-02-2008 08:34:02 10.8 C 6.42 g/m*3 10.8 C 0 km/h
1843 26-02-2008 08:46:02 11 C 6.31 g/m*3 11 C 0 km/h
1844 26-02-2008 08:58:02 11.1 C 6.14 g/m*3 11.1 C 0 km/h
1845 26-02-2008 09:10:02 11.4 C 5.95 g/m*3 11.4 C 0 km/h
1846 26-02-2008 09:22:02 11.7 C 5.86 g/m*3 11.7 C 0 km/h
1847 26-02-2008 09:34:02 11.9 C 5.82 g/m*3 11.9 C 0 km/h
1848 26-02-2008 09:46:02 12.2 C 5.5 g/m*3 12.2 C 0 km/h
1849 26-02-2008 09:58:02 12.6 C 5.42 g/m*3 12.6 C 0 km/h
1850 26-02-2008 10:10:02 13.1 C 5.25 g/m*3 13.1 C 0 km/h
Sensor: Nr:Datum:Temp:Abs-Feuchte:Windchill:Wind:
Aussen-T/F 1851 26-02-2008 10:22:02 13.5 C 5.26 g/m*3 13.5 C 0 km/h
1852 26-02-2008 10:34:02 13.5 C 5.26 g/m*3 13.5 C 0 km/h
1853 26-02-2008 10:46:01 13.5 C 5.26 g/m*3 13.5 C 0 km/h
1854 26-02-2008 10:58:01 13.7 C 5.33 g/m*3 13.7 C 0 km/h
1855 26-02-2008 11:10:01 13.7 C 5.33 g/m*3 13.7 C 0 km/h
1856 26-02-2008 11:22:02 13.8 C 5.36 g/m*3 13.8 C 0 km/h
1857 26-02-2008 11:34:01 13.7 C 5.45 g/m*3 13.7 C 0 km/h
1858 26-02-2008 11:46:02 13.7 C 5.45 g/m*3 13.7 C 0 km/h
1859 26-02-2008 11:58:02 13.6 C 5.41 g/m*3 13.6 C 0 km/h
1860 26-02-2008 12:10:01 13.5 C 5.5 g/m*3 13.5 C 0 km/h
1861 26-02-2008 12:22:02 13.4 C 5.46 g/m*3 13.4 C 0 km/h
1862 26-02-2008 12:34:02 13.4 C 5.58 g/m*3 13.4 C 0 km/h
1863 26-02-2008 12:46:02 13.4 C 5.58 g/m*3 13.4 C 0 km/h
1864 26-02-2008 12:58:02 13.4 C 5.58 g/m*3 13.4 C 0 km/h
1865 26-02-2008 13:10:02 13.4 C 5.7 g/m*3 13.4 C 0 km/h
1866 26-02-2008 13:22:02 13.4 C 5.81 g/m*3 13.4 C 0 km/h
1867 26-02-2008 13:34:02 13.4 C 5.81 g/m*3 13.4 C 0 km/h
1868 26-02-2008 13:46:02 13.5 C 5.97 g/m*3 13.5 C 0 km/h
1869 26-02-2008 13:58:02 13.5 C 6.08 g/m*3 13.5 C 0 km/h
1870 26-02-2008 14:10:02 13.5 C 6.08 g/m*3 13.5 C 0 km/h
1871 26-02-2008 14:22:03 13.4 C 6.04 g/m*3 13.4 C 0 km/h
1872 26-02-2008 14:34:02 13.4 C 6.16 g/m*3 13.4 C 0 km/h
1873 26-02-2008 14:46:02 13.4 C 6.16 g/m*3 13.4 C 0 km/h
1874 26-02-2008 14:58:02 13.4 C 6.16 g/m*3 13.4 C 0 km/h
1875 26-02-2008 15:10:01 13.2 C 6.09 g/m*3 13.2 C 0 km/h
Sensor: Nr:Datum:Temp:Abs-Feuchte:Windchill:Wind:
Aussen-T/F 1876 26-02-2008 15:22:02 13.2 C 6.2 g/m*3 13.2 C 0 km/h
1877 26-02-2008 15:34:01 13.1 C 6.05 g/m*3 13.1 C 0 km/h
1878 26-02-2008 15:46:02 13 C 6.12 g/m*3 13 C 0 km/h
1879 26-02-2008 15:58:02 12.9 C 6.2 g/m*3 12.9 C 0 km/h
1880 26-02-2008 16:10:01 12.8 C 6.16 g/m*3 12.8 C 0 km/h
1881 26-02-2008 16:22:02 12.7 C 6.23 g/m*3 12.7 C 0 km/h
1882 26-02-2008 16:34:02 12.4 C 6.45 g/m*3 12.4 C 0 km/h
1883 26-02-2008 16:46:02 12 C 6.5 g/m*3 12 C 0 km/h
1884 26-02-2008 16:58:02 12 C 6.5 g/m*3 12 C 0 km/h
1885 26-02-2008 17:10:02 11.8 C 6.63 g/m*3 11.8 C 0 km/h
1886 26-02-2008 17:22:02 11.8 C 6.74 g/m*3 11.8 C 0 km/h
1887 26-02-2008 17:34:02 11.2 C 6.99 g/m*3 11.2 C 0 km/h
1888 26-02-2008 17:46:01 10.9 C 7.16 g/m*3 10.9 C 0 km/h
1889 26-02-2008 17:58:01 10.8 C 7.22 g/m*3 10.8 C 0 km/h
1890 26-02-2008 18:10:01 10.5 C 7.37 g/m*3 10.5 C 0 km/h
1891 26-02-2008 18:22:01 10.4 C 7.61 g/m*3 10.4 C 0 km/h
1892 26-02-2008 18:34:02 10.4 C 7.61 g/m*3 10.4 C 0 km/h
1893 26-02-2008 18:46:02 10.5 C 7.57 g/m*3 10.5 C 0 km/h
1894 26-02-2008 18:58:02 10.4 C 7.52 g/m*3 10.4 C 0 km/h
1895 26-02-2008 19:10:02 10.4 C 7.52 g/m*3 10.4 C 0 km/h
1896 26-02-2008 19:22:02 10.5 C 7.57 g/m*3 10.5 C 0 km/h
1897 26-02-2008 19:34:02 10.5 C 7.57 g/m*3 10.5 C 0 km/h
1898 26-02-2008 19:46:02 10.3 C 7.57 g/m*3 10.3 C 0 km/h
1899 26-02-2008 19:58:02 10.1 C 7.66 g/m*3 10.1 C 0 km/h
1900 26-02-2008 20:10:02 10.1 C 7.75 g/m*3 10.1 C 0 km/h
Sensor: Nr:Datum:Temp:Abs-Feuchte:Windchill:Wind:
Aussen-T/F 1901 26-02-2008 20:22:02 10.1 C 7.75 g/m*3 10.1 C 0 km/h
1902 26-02-2008 20:34:02 10.2 C 7.8 g/m*3 10.2 C 0 km/h
1903 26-02-2008 20:46:02 10.1 C 7.75 g/m*3 10.1 C 0 km/h
1904 26-02-2008 20:58:02 9.8 C 7.33 g/m*3 9.8 C 0 km/h
1905 26-02-2008 21:10:03 9.7 C 6.27 g/m*3 9.7 C 0 km/h
1906 26-02-2008 21:22:03 9.3 C 6.2 g/m*3 9.3 C 0 km/h
1907 26-02-2008 21:34:02 9.4 C 6.15 g/m*3 9.4 C 0 km/h
1908 26-02-2008 21:46:02 9.2 C 6.16 g/m*3 9.2 C 0 km/h
1909 26-02-2008 21:58:02 9.3 C 6.2 g/m*3 9.3 C 0 km/h
1910 26-02-2008 22:10:02 9.3 C 6.29 g/m*3 9.3 C 0 km/h
1911 26-02-2008 22:23:03 9.2 C 6.16 g/m*3 9.2 C 0 km/h
1912 26-02-2008 22:35:04 9 C 6.17 g/m*3 9 C 0 km/h
1913 26-02-2008 22:47:04 8.9 C 6.22 g/m*3 8.9 C 0 km/h
1914 26-02-2008 22:59:04 8.6 C 6.02 g/m*3 8.6 C 0 km/h
1915 26-02-2008 23:11:04 8.7 C 5.97 g/m*3 8.7 C 0 km/h
1916 26-02-2008 23:23:04 8.4 C 5.94 g/m*3 8.4 C 0 km/h
1917 26-02-2008 23:35:04 8.1 C 5.91 g/m*3 8.1 C 0 km/h
1918 26-02-2008 23:47:04 8.1 C 5.74 g/m*3 8.1 C 0 km/h
1919 26-02-2008 23:59:04 8 C 5.79 g/m*3 8 C 0 km/h
1920 27-02-2008 00:11:04 7.8 C 5.63 g/m*3 7.8 C 0 km/h
1921 27-02-2008 00:23:04 7.8 C 5.14 g/m*3 7.8 C 0 km/h
1922 27-02-2008 00:35:04 7.6 C 5.08 g/m*3 7.6 C 0 km/h
1923 27-02-2008 00:47:04 7.6 C 4.91 g/m*3 7.6 C 0 km/h
1924 27-02-2008 00:59:04 7.8 C 4.82 g/m*3 7.8 C 0 km/h
1925 27-02-2008 01:11:04 7.6 C 4.67 g/m*3 7.6 C 0 km/h
Sensor: Nr:Datum:Temp:Abs-Feuchte:Windchill:Wind:
Aussen-T/F 1926 27-02-2008 01:23:04 7.4 C 4.69 g/m*3 7.4 C 0 km/h
1927 27-02-2008 01:35:04 7.4 C 4.69 g/m*3 7.4 C 0 km/h
1928 27-02-2008 01:47:04 7.5 C 4.72 g/m*3 7.5 C 0 km/h
1929 27-02-2008 01:59:04 7.4 C 4.69 g/m*3 7.4 C 0 km/h
1930 27-02-2008 02:11:04 7.4 C 4.69 g/m*3 7.4 C 0 km/h
1931 27-02-2008 02:23:04 7.4 C 4.69 g/m*3 7.4 C 0 km/h
1932 27-02-2008 02:35:04 7.3 C 4.66 g/m*3 7.3 C 0 km/h
1933 27-02-2008 02:47:05 7.1 C 4.68 g/m*3 7.1 C 0 km/h
1934 27-02-2008 02:59:05 6.9 C 4.77 g/m*3 6.9 C 0 km/h
1935 27-02-2008 03:11:05 6.9 C 4.77 g/m*3 6.9 C 0 km/h
1936 27-02-2008 03:23:05 6.9 C 4.62 g/m*3 6.9 C 0 km/h
1937 27-02-2008 03:35:05 6.9 C 4.54 g/m*3 6.9 C 0 km/h
1938 27-02-2008 03:47:05 7 C 4.42 g/m*3 7 C 0 km/h
1939 27-02-2008 03:59:05 6.9 C 4.46 g/m*3 6.9 C 0 km/h
1940 27-02-2008 04:11:05 6.9 C 4.54 g/m*3 6.9 C 0 km/h
1941 27-02-2008 04:23:05 6.9 C 4.54 g/m*3 6.9 C 0 km/h
1942 27-02-2008 04:35:05 6.9 C 4.54 g/m*3 6.9 C 0 km/h
1943 27-02-2008 04:47:05 6.7 C 4.64 g/m*3 6.7 C 0 km/h
1944 27-02-2008 04:59:05 6.4 C 4.69 g/m*3 6.4 C 0 km/h
1945 27-02-2008 05:11:05 6.3 C 4.74 g/m*3 6.3 C 0 km/h
1946 27-02-2008 05:23:05 6.2 C 4.78 g/m*3 6.2 C 0 km/h
1947 27-02-2008 05:35:05 5.9 C 4.76 g/m*3 5.9 C 0 km/h
1948 27-02-2008 05:47:05 5.9 C 4.76 g/m*3 5.9 C 0 km/h
1949 27-02-2008 05:59:05 5.7 C 4.77 g/m*3 5.7 C 0 km/h
1950 27-02-2008 06:11:05 5.4 C 4.81 g/m*3 5.4 C 0 km/h
Sensor: Nr:Datum:Temp:Abs-Feuchte:Windchill:Wind:
Aussen-T/F 1951 27-02-2008 06:23:05 5.4 C 4.81 g/m*3 5.4 C 0 km/h
1952 27-02-2008 06:35:05 5.6 C 4.81 g/m*3 5.6 C 0 km/h
1953 27-02-2008 06:47:06 5.6 C 4.81 g/m*3 5.6 C 0 km/h
1954 27-02-2008 06:59:06 5.6 C 4.81 g/m*3 5.6 C 0 km/h
1955 27-02-2008 07:11:03 5.6 C 4.81 g/m*3 5.6 C 0 km/h
1956 27-02-2008 07:23:02 5.4 C 4.81 g/m*3 5.4 C 0 km/h
1957 27-02-2008 07:35:03 5.2 C 4.75 g/m*3 5.2 C 0 km/h
1958 27-02-2008 07:47:03 5.1 C 4.79 g/m*3 5.1 C 0 km/h
1959 27-02-2008 07:59:03 5.1 C 4.86 g/m*3 5.1 C 0 km/h
1960 27-02-2008 08:11:02 5.2 C 4.82 g/m*3 5.2 C 0 km/h
1961 27-02-2008 08:23:02 5.9 C 4.83 g/m*3 5.9 C 0 km/h
1962 27-02-2008 08:35:03 6.3 C 4.66 g/m*3 6.3 C 0 km/h
1963 27-02-2008 08:47:03 6.4 C 4.69 g/m*3 6.4 C 0 km/h
1964 27-02-2008 08:59:03 6.8 C 4.82 g/m*3 6.8 C 0 km/h
1965 27-02-2008 09:11:02 6.7 C 4.71 g/m*3 6.7 C 0 km/h
1966 27-02-2008 09:23:02 6.8 C 4.74 g/m*3 6.8 C 0 km/h
1967 27-02-2008 09:35:03 6.9 C 4.7 g/m*3 6.9 C 0 km/h
1968 27-02-2008 09:47:02 7 C 4.65 g/m*3 7 C 0 km/h
1969 27-02-2008 09:59:02 7.4 C 4.69 g/m*3 7.4 C 0 km/h
1970 27-02-2008 10:11:02 7.5 C 4.64 g/m*3 7.5 C 0 km/h
1971 27-02-2008 10:23:02 7.8 C 4.57 g/m*3 7.8 C 0 km/h
1972 27-02-2008 10:35:02 8.5 C 4.53 g/m*3 8.5 C 0 km/h
1973 27-02-2008 10:47:02 8.9 C 4.47 g/m*3 8.9 C 0 km/h
1974 27-02-2008 10:59:02 8.8 C 4.35 g/m*3 8.8 C 0 km/h
1975 27-02-2008 11:11:02 8.7 C 4.41 g/m*3 8.7 C 0 km/h
Sensor: Nr:Datum:Temp:Abs-Feuchte:Windchill:Wind:
Aussen-T/F 1976 27-02-2008 11:23:02 8.9 C 4.38 g/m*3 8.9 C 0 km/h
1977 27-02-2008 11:35:01 9 C 4.32 g/m*3 9 C 0 km/h
1978 27-02-2008 11:47:01 9.2 C 4.38 g/m*3 9.2 C 0 km/h
1979 27-02-2008 11:59:01 9.4 C 4.25 g/m*3 9.4 C 0 km/h
1980 27-02-2008 12:11:02 9.8 C 4.18 g/m*3 9.8 C 0 km/h
1981 27-02-2008 12:23:02 9.6 C 3.94 g/m*3 9.6 C 0 km/h
1982 27-02-2008 12:35:01 9.8 C 4.18 g/m*3 9.8 C 0 km/h
1983 27-02-2008 12:47:01 9.8 C 4.18 g/m*3 9.8 C 0 km/h
1984 27-02-2008 12:59:01 10 C 4.04 g/m*3 10 C 0 km/h
1985 27-02-2008 13:11:02 10.1 C 4.07 g/m*3 10.1 C 0 km/h
1986 27-02-2008 13:23:01 10 C 3.85 g/m*3 10 C 0 km/h
1987 27-02-2008 13:35:02 10 C 3.95 g/m*3 10 C 0 km/h
1988 27-02-2008 13:47:03 10.4 C 3.86 g/m*3 10.4 C 0 km/h
1989 27-02-2008 13:59:03 10.4 C 3.95 g/m*3 10.4 C 0 km/h
1990 27-02-2008 14:11:02 10.1 C 3.97 g/m*3 10.1 C 0 km/h
1991 27-02-2008 14:23:02 10.1 C 3.88 g/m*3 10.1 C 0 km/h
1992 27-02-2008 14:35:03 10.1 C 3.88 g/m*3 10.1 C 0 km/h
1993 27-02-2008 14:47:02 11.3 C 3.98 g/m*3 11.3 C 0 km/h
1994 27-02-2008 14:59:02 10.9 C 3.98 g/m*3 10.9 C 0 km/h
1995 27-02-2008 15:11:02 11.8 C 3.89 g/m*3 11.8 C 0 km/h
1996 27-02-2008 15:23:02 11.2 C 3.75 g/m*3 11.2 C 0 km/h
1997 27-02-2008 15:35:02 10.9 C 3.68 g/m*3 10.9 C 0 km/h
1998 27-02-2008 15:47:02 11.1 C 3.73 g/m*3 11.1 C 0 km/h
1999 27-02-2008 15:59:02 10.6 C 3.9 g/m*3 10.6 C 0 km/h
2000 27-02-2008 16:11:02 10.7 C 3.83 g/m*3 10.7 C 0 km/h
Sensor: Nr:Datum:Temp:Abs-Feuchte:Windchill:Wind:
Aussen-T/F 2001 27-02-2008 16:23:02 10.6 C 3.71 g/m*3 10.6 C 0 km/h
2002 27-02-2008 16:35:02 10.8 C 3.66 g/m*3 10.8 C 0 km/h
2003 27-02-2008 16:47:02 11 C 3.5 g/m*3 11 C 0 km/h
2004 27-02-2008 16:59:02 10.7 C 3.54 g/m*3 10.7 C 0 km/h
2005 27-02-2008 17:11:01 10.8 C 3.85 g/m*3 10.8 C 0 km/h
2006 27-02-2008 17:23:02 10.6 C 3.71 g/m*3 10.6 C 0 km/h
2007 27-02-2008 17:35:02 10.4 C 3.66 g/m*3 10.4 C 0 km/h
2008 27-02-2008 17:47:02 10.1 C 3.69 g/m*3 10.1 C 0 km/h
2009 27-02-2008 17:59:02 9.7 C 3.87 g/m*3 9.7 C 0 km/h
2010 27-02-2008 18:11:01 9.3 C 4.04 g/m*3 9.3 C 0 km/h
2011 27-02-2008 18:23:01 8.8 C 4.09 g/m*3 8.8 C 0 km/h
2012 27-02-2008 18:35:02 8.6 C 4.04 g/m*3 8.6 C 0 km/h
2013 27-02-2008 18:47:01 8.3 C 4.05 g/m*3 8.3 C 0 km/h
2014 27-02-2008 18:59:01 7.9 C 4.11 g/m*3 7.9 C 0 km/h
2015 27-02-2008 19:11:02 7.6 C 4.11 g/m*3 7.6 C 0 km/h
2016 27-02-2008 19:23:01 7.3 C 4.03 g/m*3 7.3 C 0 km/h
2017 27-02-2008 19:35:01 7.1 C 4.06 g/m*3 7.1 C 0 km/h
2018 27-02-2008 19:47:01 6.9 C 4.08 g/m*3 6.9 C 0 km/h
2019 27-02-2008 19:59:01 6.7 C 4.1 g/m*3 6.7 C 0 km/h
2020 27-02-2008 20:11:02 6.6 C 4.08 g/m*3 6.6 C 0 km/h
2021 27-02-2008 20:23:01 6.8 C 4.13 g/m*3 6.8 C 0 km/h
2022 27-02-2008 20:35:01 6.6 C 4.15 g/m*3 6.6 C 0 km/h
2023 27-02-2008 20:47:01 6.3 C 4.15 g/m*3 6.3 C 0 km/h
2024 27-02-2008 20:59:01 6 C 4.14 g/m*3 6 C 0 km/h
2025 27-02-2008 21:11:01 5.9 C 4.33 g/m*3 5.9 C 0 km/h
Sensor: Nr:Datum:Temp:Abs-Feuchte:Windchill:Wind:
Aussen-T/F 2026 27-02-2008 21:23:02 5.8 C 4.37 g/m*3 5.8 C 0 km/h
2027 27-02-2008 21:35:01 5.7 C 4.34 g/m*3 5.7 C 0 km/h
2028 27-02-2008 21:47:02 5.7 C 4.34 g/m*3 5.7 C 0 km/h
2029 27-02-2008 21:59:02 5.3 C 4.3 g/m*3 5.3 C 0 km/h
2030 27-02-2008 22:11:02 5.1 C 4.31 g/m*3 5.1 C 0 km/h
2031 27-02-2008 22:23:01 5 C 4.35 g/m*3 5 C 0 km/h
2032 27-02-2008 22:35:02 5 C 4.35 g/m*3 5 C 0 km/h
2033 27-02-2008 22:47:02 5 C 4.35 g/m*3 5 C 0 km/h
2034 27-02-2008 22:59:02 5.1 C 4.38 g/m*3 5.1 C 0 km/h
2035 27-02-2008 23:11:01 5.4 C 4.4 g/m*3 5.4 C 0 km/h
2036 27-02-2008 23:24:02 5.5 C 4.42 g/m*3 5.5 C 0 km/h
2037 27-02-2008 23:36:02 5.6 C 4.45 g/m*3 5.6 C 0 km/h
2038 27-02-2008 23:48:02 5.7 C 4.41 g/m*3 5.7 C 0 km/h
2039 28-02-2008 00:00:02 5.7 C 4.41 g/m*3 5.7 C 0 km/h
2040 28-02-2008 00:12:02 5.7 C 4.48 g/m*3 5.7 C 0 km/h
2041 28-02-2008 00:24:02 5.7 C 4.48 g/m*3 5.7 C 0 km/h
2042 28-02-2008 00:36:02 5.8 C 4.51 g/m*3 5.8 C 0 km/h
2043 28-02-2008 00:48:02 5.8 C 4.51 g/m*3 5.8 C 0 km/h
2044 28-02-2008 01:00:02 5.8 C 4.51 g/m*3 5.8 C 0 km/h
2045 28-02-2008 01:12:02 5.9 C 4.54 g/m*3 5.9 C 0 km/h
2046 28-02-2008 01:24:03 6 C 4.5 g/m*3 6 C 0 km/h
2047 28-02-2008 01:36:03 6 C 4.5 g/m*3 6 C 0 km/h
2048 28-02-2008 01:48:03 5.9 C 4.54 g/m*3 5.9 C 0 km/h
2049 28-02-2008 02:00:03 5.9 C 4.61 g/m*3 5.9 C 0 km/h
2050 28-02-2008 02:12:03 5.8 C 4.58 g/m*3 5.8 C 0 km/h
Sensor: Nr:Datum:Temp:Abs-Feuchte:Windchill:Wind:
Aussen-T/F 2051 28-02-2008 02:24:03 5.7 C 4.63 g/m*3 5.7 C 0 km/h
2052 28-02-2008 02:36:03 5.3 C 4.57 g/m*3 5.3 C 0 km/h
2053 28-02-2008 02:48:03 5 C 4.48 g/m*3 5 C 0 km/h
2054 28-02-2008 03:00:03 4.9 C 4.59 g/m*3 4.9 C 0 km/h
2055 28-02-2008 03:12:03 4.8 C 4.56 g/m*3 4.8 C 0 km/h
2056 28-02-2008 03:24:03 4.7 C 4.53 g/m*3 4.7 C 0 km/h
2057 28-02-2008 03:36:03 4.5 C 4.47 g/m*3 4.5 C 0 km/h
2058 28-02-2008 03:48:03 4.4 C 4.51 g/m*3 4.4 C 0 km/h
2059 28-02-2008 04:00:03 4 C 4.39 g/m*3 4 C 0 km/h
2060 28-02-2008 04:12:03 3.9 C 4.48 g/m*3 3.9 C 0 km/h
2061 28-02-2008 04:24:03 4.1 C 4.48 g/m*3 4.1 C 0 km/h
2062 28-02-2008 04:36:03 4.2 C 4.57 g/m*3 4.2 C 0 km/h
2063 28-02-2008 04:48:03 4.3 C 4.67 g/m*3 4.3 C 0 km/h
2064 28-02-2008 05:00:03 4.4 C 4.7 g/m*3 4.4 C 0 km/h
2065 28-02-2008 05:12:04 4.3 C 4.67 g/m*3 4.3 C 0 km/h
2066 28-02-2008 05:24:04 4.5 C 4.73 g/m*3 4.5 C 0 km/h
2067 28-02-2008 05:36:04 4.1 C 4.61 g/m*3 4.1 C 0 km/h
2068 28-02-2008 05:48:04 4.3 C 4.67 g/m*3 4.3 C 0 km/h
2069 28-02-2008 06:00:04 4.5 C 4.67 g/m*3 4.5 C 0 km/h
2070 28-02-2008 06:12:04 4.4 C 4.57 g/m*3 4.4 C 0 km/h
2071 28-02-2008 06:24:04 4.7 C 4.66 g/m*3 4.7 C 0 km/h
2072 28-02-2008 06:36:04 4.8 C 4.56 g/m*3 4.8 C 0 km/h
2073 28-02-2008 06:48:04 4.9 C 4.59 g/m*3 4.9 C 0 km/h
2074 28-02-2008 07:00:04 4.9 C 4.66 g/m*3 4.9 C 0 km/h
2075 28-02-2008 07:12:02 5 C 4.55 g/m*3 5 C 0 km/h
Sensor: Nr:Datum:Temp:Abs-Feuchte:Windchill:Wind:
Aussen-T/F 2076 28-02-2008 07:24:02 5.1 C 4.58 g/m*3 5.1 C 0 km/h
2077 28-02-2008 07:36:01 5.2 C 4.54 g/m*3 5.2 C 0 km/h
2078 28-02-2008 07:48:02 5.1 C 4.58 g/m*3 5.1 C 0 km/h
2079 28-02-2008 08:00:02 5.3 C 4.64 g/m*3 5.3 C 0 km/h
2080 28-02-2008 08:12:02 5.5 C 4.64 g/m*3 5.5 C 0 km/h
2081 28-02-2008 08:24:02 5.6 C 4.67 g/m*3 5.6 C 0 km/h
2082 28-02-2008 08:36:02 5.8 C 4.66 g/m*3 5.8 C 0 km/h
2083 28-02-2008 08:48:02 5.8 C 4.73 g/m*3 5.8 C 0 km/h
2084 28-02-2008 09:00:02 5.9 C 4.69 g/m*3 5.9 C 0 km/h
2085 28-02-2008 09:12:02 6 C 4.65 g/m*3 6 C 0 km/h
2086 28-02-2008 09:24:01 6.2 C 4.56 g/m*3 6.2 C 0 km/h
2087 28-02-2008 09:36:01 6.6 C 4.6 g/m*3 6.6 C 0 km/h
2088 28-02-2008 09:48:01 6.9 C 4.7 g/m*3 6.9 C 0 km/h
2089 28-02-2008 10:00:01 7.1 C 4.6 g/m*3 7.1 C 0 km/h
2090 28-02-2008 10:12:02 7.4 C 4.61 g/m*3 7.4 C 0 km/h
2091 28-02-2008 10:24:01 7.6 C 4.59 g/m*3 7.6 C 0 km/h
2092 28-02-2008 10:36:01 8 C 4.55 g/m*3 8 C 0 km/h
2093 28-02-2008 10:48:01 8.2 C 4.61 g/m*3 8.2 C 0 km/h
2094 28-02-2008 11:00:01 8.5 C 4.53 g/m*3 8.5 C 0 km/h
2095 28-02-2008 11:12:01 9 C 4.58 g/m*3 9 C 0 km/h
2096 28-02-2008 11:24:02 9.3 C 4.22 g/m*3 9.3 C 0 km/h
2097 28-02-2008 11:36:01 9.3 C 4.04 g/m*3 9.3 C 0 km/h
2098 28-02-2008 11:48:02 9.6 C 3.76 g/m*3 9.6 C 0 km/h
2099 28-02-2008 12:00:02 9.8 C 3.34 g/m*3 9.8 C 0 km/h
2100 28-02-2008 12:12:02 9.8 C 2.97 g/m*3 9.8 C 0 km/h
Sensor: Nr:Datum:Temp:Abs-Feuchte:Windchill:Wind:
Aussen-T/F 2101 28-02-2008 12:24:02 10 C 3.01 g/m*3 10 C 0 km/h
2102 28-02-2008 12:36:01 10.3 C 3.06 g/m*3 10.3 C 0 km/h
2103 28-02-2008 12:48:01 10.8 C 3.06 g/m*3 10.8 C 0 km/h
2104 28-02-2008 13:00:01 11 C 2.9 g/m*3 11 C 0 km/h
2105 28-02-2008 13:12:02 11.2 C 2.94 g/m*3 11.2 C 0 km/h
2106 28-02-2008 13:24:02 11.4 C 3.08 g/m*3 11.4 C 0 km/h
2107 28-02-2008 13:36:02 11.6 C 3.01 g/m*3 11.6 C 0 km/h
2108 28-02-2008 13:48:02 11.5 C 3 g/m*3 11.5 C 0 km/h
2109 28-02-2008 14:00:02 11.7 C 3.14 g/m*3 11.7 C 0 km/h
2110 28-02-2008 14:12:02 11.8 C 3.16 g/m*3 11.8 C 0 km/h
2111 28-02-2008 14:24:02 11.8 C 3.05 g/m*3 11.8 C 0 km/h
2112 28-02-2008 14:36:02 11.8 C 3.05 g/m*3 11.8 C 0 km/h
2113 28-02-2008 14:48:02 12.2 C 3.13 g/m*3 12.2 C 0 km/h
2114 28-02-2008 15:00:02 12.4 C 3.06 g/m*3 12.4 C 0 km/h
2115 28-02-2008 15:12:02 12.4 C 3.06 g/m*3 12.4 C 0 km/h
2116 28-02-2008 15:24:02 12.3 C 3.15 g/m*3 12.3 C 0 km/h
2117 28-02-2008 15:36:01 11.9 C 3.28 g/m*3 11.9 C 0 km/h
2118 28-02-2008 15:48:01 11.8 C 3.26 g/m*3 11.8 C 0 km/h
2119 28-02-2008 16:00:01 11.7 C 3.35 g/m*3 11.7 C 0 km/h
2120 28-02-2008 16:12:02 11.7 C 3.35 g/m*3 11.7 C 0 km/h
2121 28-02-2008 16:24:02 11.8 C 3.37 g/m*3 11.8 C 0 km/h
2122 28-02-2008 16:36:02 11.7 C 3.45 g/m*3 11.7 C 0 km/h
2123 28-02-2008 16:48:02 11.4 C 3.49 g/m*3 11.4 C 0 km/h
2124 28-02-2008 17:00:02 11.4 C 3.59 g/m*3 11.4 C 0 km/h
2125 28-02-2008 17:12:02 11.3 C 3.57 g/m*3 11.3 C 0 km/h
Sensor: Nr:Datum:Temp:Abs-Feuchte:Windchill:Wind:
Aussen-T/F 2126 28-02-2008 17:24:02 11.2 C 3.65 g/m*3 11.2 C 0 km/h
2127 28-02-2008 17:36:02 11.1 C 3.63 g/m*3 11.1 C 0 km/h
2128 28-02-2008 17:48:02 10.7 C 4.22 g/m*3 10.7 C 0 km/h
2129 28-02-2008 18:00:02 10 C 4.79 g/m*3 10 C 0 km/h
2130 28-02-2008 18:12:02 9.1 C 5.23 g/m*3 9.1 C 0 km/h
2131 28-02-2008 18:24:02 8.7 C 5.36 g/m*3 8.7 C 0 km/h
2132 28-02-2008 18:36:01 8.5 C 5.64 g/m*3 8.5 C 0 km/h
2133 28-02-2008 18:48:01 8.2 C 5.78 g/m*3 8.2 C 0 km/h
2134 28-02-2008 19:00:01 7.9 C 6.16 g/m*3 7.9 C 0 km/h
2135 28-02-2008 19:12:02 7.5 C 6.32 g/m*3 7.5 C 0 km/h
2136 28-02-2008 19:24:02 7.5 C 6.56 g/m*3 7.5 C 0 km/h
2137 28-02-2008 19:36:02 7.5 C 6.72 g/m*3 7.5 C 0 km/h
2138 28-02-2008 19:48:02 7.5 C 6.72 g/m*3 7.5 C 0 km/h
2139 28-02-2008 20:00:02 7.7 C 6.81 g/m*3 7.7 C 0 km/h
2140 28-02-2008 20:12:02 7.5 C 6.8 g/m*3 7.5 C 0 km/h
2141 28-02-2008 20:24:02 7.6 C 6.93 g/m*3 7.6 C 0 km/h
2142 28-02-2008 20:36:02 7.5 C 6.96 g/m*3 7.5 C 0 km/h
2143 28-02-2008 20:48:01 7.5 C 6.96 g/m*3 7.5 C 0 km/h
2144 28-02-2008 21:00:01 7.4 C 6.92 g/m*3 7.4 C 0 km/h
2145 28-02-2008 21:12:01 7.4 C 7 g/m*3 7.4 C 0 km/h
2146 28-02-2008 21:24:01 7.3 C 6.95 g/m*3 7.3 C 0 km/h
2147 28-02-2008 21:36:02 7.3 C 6.95 g/m*3 7.3 C 0 km/h
2148 28-02-2008 21:48:02 7.2 C 6.99 g/m*3 7.2 C 0 km/h
2149 28-02-2008 22:00:02 7.2 C 6.99 g/m*3 7.2 C 0 km/h
2150 28-02-2008 22:12:02 7.2 C 6.99 g/m*3 7.2 C 0 km/h
Sensor: Nr:Datum:Temp:Abs-Feuchte:Windchill:Wind:
Aussen-T/F 2151 28-02-2008 22:24:02 7.2 C 6.99 g/m*3 7.2 C 0 km/h
2152 28-02-2008 22:36:03 7.2 C 7.06 g/m*3 7.2 C 0 km/h
2153 28-02-2008 22:49:04 7.2 C 7.06 g/m*3 7.2 C 0 km/h
2154 28-02-2008 23:01:04 7.2 C 7.06 g/m*3 7.2 C 0 km/h
2155 28-02-2008 23:13:04 7.1 C 7.02 g/m*3 7.1 C 0 km/h
2156 28-02-2008 23:25:04 7.1 C 7.02 g/m*3 7.1 C 0 km/h
2157 28-02-2008 23:37:04 7.1 C 7.02 g/m*3 7.1 C 0 km/h
2158 28-02-2008 23:49:04 7.1 C 7.1 g/m*3 7.1 C 0 km/h
2159 29-02-2008 00:01:04 7.2 C 7.14 g/m*3 7.2 C 0 km/h
2160 29-02-2008 00:13:04 7.1 C 7.1 g/m*3 7.1 C 0 km/h
2161 29-02-2008 00:25:04 7 C 7.05 g/m*3 7 C 0 km/h
2162 29-02-2008 00:37:04 7 C 7.05 g/m*3 7 C 0 km/h
2163 29-02-2008 00:49:04 7 C 7.05 g/m*3 7 C 0 km/h
2164 29-02-2008 01:01:04 6.8 C 7.04 g/m*3 6.8 C 0 km/h
2165 29-02-2008 01:13:05 6.9 C 7.16 g/m*3 6.9 C 0 km/h
2166 29-02-2008 01:25:05 6.9 C 7.16 g/m*3 6.9 C 0 km/h
2167 29-02-2008 01:37:05 7 C 7.13 g/m*3 7 C 0 km/h
2168 29-02-2008 01:49:05 7 C 7.21 g/m*3 7 C 0 km/h
2169 29-02-2008 02:01:05 7 C 7.21 g/m*3 7 C 0 km/h
2170 29-02-2008 02:13:05 7 C 7.21 g/m*3 7 C 0 km/h
2171 29-02-2008 02:25:05 7 C 7.21 g/m*3 7 C 0 km/h
2172 29-02-2008 02:37:05 7.1 C 7.25 g/m*3 7.1 C 0 km/h
2173 29-02-2008 02:49:05 7.1 C 7.25 g/m*3 7.1 C 0 km/h
2174 29-02-2008 03:01:05 7.1 C 7.25 g/m*3 7.1 C 0 km/h
2175 29-02-2008 03:13:05 7.1 C 7.25 g/m*3 7.1 C 0 km/h
Sensor: Nr:Datum:Temp:Abs-Feuchte:Windchill:Wind:
Aussen-T/F 2176 29-02-2008 03:25:05 7 C 7.21 g/m*3 7 C 0 km/h
2177 29-02-2008 03:37:05 7 C 7.21 g/m*3 7 C 0 km/h
2178 29-02-2008 03:49:05 7 C 7.21 g/m*3 7 C 0 km/h
2179 29-02-2008 04:01:05 7 C 7.21 g/m*3 7 C 0 km/h
2180 29-02-2008 04:13:05 6.9 C 7.24 g/m*3 6.9 C 0 km/h
2181 29-02-2008 04:25:05 6.9 C 7.24 g/m*3 6.9 C 0 km/h
2182 29-02-2008 04:37:05 7 C 7.28 g/m*3 7 C 0 km/h
2183 29-02-2008 04:49:05 7 C 7.28 g/m*3 7 C 0 km/h
2184 29-02-2008 05:01:06 6.9 C 7.24 g/m*3 6.9 C 0 km/h
2185 29-02-2008 05:13:06 6.9 C 7.31 g/m*3 6.9 C 0 km/h
2186 29-02-2008 05:25:06 7 C 7.28 g/m*3 7 C 0 km/h
2187 29-02-2008 05:37:06 7 C 7.28 g/m*3 7 C 0 km/h
2188 29-02-2008 05:49:06 7.1 C 7.33 g/m*3 7.1 C 0 km/h
2189 29-02-2008 06:01:06 7.1 C 7.33 g/m*3 7.1 C 0 km/h
2190 29-02-2008 06:13:06 7.1 C 7.33 g/m*3 7.1 C 0 km/h
2191 29-02-2008 06:25:06 7.1 C 7.41 g/m*3 7.1 C 0 km/h
2192 29-02-2008 06:37:06 7.1 C 7.41 g/m*3 7.1 C 0 km/h
2193 29-02-2008 06:49:01 7.1 C 7.41 g/m*3 7.1 C 0 km/h
2194 29-02-2008 07:01:02 7.1 C 7.41 g/m*3 7.1 C 0 km/h
2195 29-02-2008 07:13:02 7 C 7.36 g/m*3 7 C 0 km/h
2196 29-02-2008 07:25:01 7.1 C 7.41 g/m*3 7.1 C 0 km/h
2197 29-02-2008 07:37:01 7.2 C 7.46 g/m*3 7.2 C 0 km/h
2198 29-02-2008 07:49:01 7.3 C 7.51 g/m*3 7.3 C 0 km/h
2199 29-02-2008 08:01:02 7.4 C 7.55 g/m*3 7.4 C 0 km/h
2200 29-02-2008 08:13:02 7.3 C 7.51 g/m*3 7.3 C 0 km/h
Sensor: Nr:Datum:Temp:Abs-Feuchte:Windchill:Wind:
Aussen-T/F 2201 29-02-2008 08:25:01 7.4 C 7.55 g/m*3 7.4 C 0 km/h
2202 29-02-2008 08:37:01 7.4 C 7.55 g/m*3 7.4 C 0 km/h
2203 29-02-2008 08:49:02 7.4 C 7.55 g/m*3 7.4 C 0 km/h
2204 29-02-2008 09:01:02 7.4 C 7.55 g/m*3 7.4 C 0 km/h
2205 29-02-2008 09:13:03 7.4 C 7.55 g/m*3 7.4 C 0 km/h
2206 29-02-2008 09:25:02 7.8 C 7.75 g/m*3 7.8 C 0 km/h
2207 29-02-2008 09:37:03 7.8 C 7.75 g/m*3 7.8 C 0 km/h
2208 29-02-2008 09:49:02 7.7 C 7.7 g/m*3 7.7 C 0 km/h
2209 29-02-2008 10:01:02 7.9 C 7.8 g/m*3 7.9 C 0 km/h
2210 29-02-2008 10:13:02 8 C 7.85 g/m*3 8 C 0 km/h
2211 29-02-2008 10:25:02 8.3 C 8.01 g/m*3 8.3 C 0 km/h
2212 29-02-2008 10:37:02 8.6 C 8.16 g/m*3 8.6 C 0 km/h
2213 29-02-2008 10:49:02 8.8 C 8.27 g/m*3 8.8 C 0 km/h
2214 29-02-2008 11:01:02 8.8 C 8.27 g/m*3 8.8 C 0 km/h
2215 29-02-2008 11:13:02 9 C 8.38 g/m*3 9 C 0 km/h
2216 29-02-2008 11:25:01 9.1 C 8.43 g/m*3 9.1 C 0 km/h
2217 29-02-2008 11:37:02 9.1 C 8.43 g/m*3 9.1 C 0 km/h
2218 29-02-2008 11:49:02 9.1 C 8.43 g/m*3 9.1 C 0 km/h
2219 29-02-2008 12:01:01 9.5 C 8.65 g/m*3 9.5 C 0 km/h
2220 29-02-2008 12:13:01 9.8 C 8.81 g/m*3 9.8 C 0 km/h
2221 29-02-2008 12:25:01 10 C 8.83 g/m*3 10 C 0 km/h
2222 29-02-2008 12:37:02 9.9 C 8.78 g/m*3 9.9 C 0 km/h
2223 29-02-2008 12:49:02 10.2 C 8.85 g/m*3 10.2 C 0 km/h
2224 29-02-2008 13:01:02 10 C 8.64 g/m*3 10 C 0 km/h
2225 29-02-2008 13:13:02 9.9 C 8.68 g/m*3 9.9 C 0 km/h
Sensor: Nr:Datum:Temp:Abs-Feuchte:Windchill:Wind:
Aussen-T/F 2226 29-02-2008 13:25:02 10 C 8.64 g/m*3 10 C 0 km/h
2227 29-02-2008 13:37:02 10.2 C 8.76 g/m*3 10.2 C 0 km/h
2228 29-02-2008 13:49:02 10.6 C 8.88 g/m*3 10.6 C 0 km/h
2229 29-02-2008 14:01:02 11 C 9.01 g/m*3 11 C 0 km/h
2230 29-02-2008 14:13:02 11.1 C 8.86 g/m*3 11.1 C 0 km/h
2231 29-02-2008 14:25:01 11.1 C 8.46 g/m*3 11.1 C 0 km/h
2232 29-02-2008 14:37:02 11.1 C 8.26 g/m*3 11.1 C 0 km/h
2233 29-02-2008 14:49:02 11 C 8.11 g/m*3 11 C 0 km/h
2234 29-02-2008 15:01:03 10.9 C 6.86 g/m*3 10.9 C 0 km/h
2235 29-02-2008 15:13:03 10.8 C 6.23 g/m*3 10.8 C 0 km/h
2236 29-02-2008 15:25:02 10.7 C 6.09 g/m*3 10.7 C 0 km/h
2237 29-02-2008 15:37:02 10.7 C 6.09 g/m*3 10.7 C 0 km/h
2238 29-02-2008 15:49:01 10.7 C 5.89 g/m*3 10.7 C 0 km/h
2239 29-02-2008 16:01:02 10.8 C 5.83 g/m*3 10.8 C 0 km/h
2240 29-02-2008 16:13:02 10.8 C 5.83 g/m*3 10.8 C 0 km/h
2241 29-02-2008 16:25:02 10.6 C 5.56 g/m*3 10.6 C 0 km/h
2242 29-02-2008 16:37:01 10.5 C 5.63 g/m*3 10.5 C 0 km/h
2243 29-02-2008 16:49:01 10.5 C 5.53 g/m*3 10.5 C 0 km/h
2244 29-02-2008 17:01:02 10.4 C 5.49 g/m*3 10.4 C 0 km/h
2245 29-02-2008 17:13:02 10.4 C 5.49 g/m*3 10.4 C 0 km/h
2246 29-02-2008 17:25:02 10.3 C 5.55 g/m*3 10.3 C 0 km/h
2247 29-02-2008 17:37:02 10.2 C 5.61 g/m*3 10.2 C 0 km/h
2248 29-02-2008 17:49:02 10.2 C 5.61 g/m*3 10.2 C 0 km/h
2249 29-02-2008 18:01:02 10.1 C 5.77 g/m*3 10.1 C 0 km/h
2250 29-02-2008 18:13:02 9.9 C 5.88 g/m*3 9.9 C 0 km/h
Sensor: Nr:Datum:Temp:Abs-Feuchte:Windchill:Wind:
Aussen-T/F 2251 29-02-2008 18:25:02 9.8 C 5.94 g/m*3 9.8 C 0 km/h
2252 29-02-2008 18:37:02 9.8 C 6.12 g/m*3 9.8 C 0 km/h
2253 29-02-2008 18:49:02 9.7 C 5.99 g/m*3 9.7 C 0 km/h
2254 29-02-2008 19:01:02 9.6 C 6.05 g/m*3 9.6 C 0 km/h
2255 29-02-2008 19:13:02 9.6 C 6.14 g/m*3 9.6 C 0 km/h
2256 29-02-2008 19:25:02 9.6 C 6.14 g/m*3 9.6 C 0 km/h
2257 29-02-2008 19:37:02 9.5 C 6.28 g/m*3 9.5 C 0 km/h
2258 29-02-2008 19:49:02 9.5 C 6.37 g/m*3 9.5 C 0 km/h
2259 29-02-2008 20:01:02 9.5 C 6.37 g/m*3 9.5 C 0 km/h
2260 29-02-2008 20:13:02 9.5 C 6.37 g/m*3 9.5 C 0 km/h
2261 29-02-2008 20:25:02 9.6 C 6.5 g/m*3 9.6 C 0 km/h
2262 29-02-2008 20:37:02 9.6 C 6.5 g/m*3 9.6 C 0 km/h
2263 29-02-2008 20:49:02 9.7 C 6.55 g/m*3 9.7 C 0 km/h
2264 29-02-2008 21:01:02 9.8 C 6.49 g/m*3 9.8 C 0 km/h
2265 29-02-2008 21:13:02 10 C 6.39 g/m*3 10 C 0 km/h
2266 29-02-2008 21:25:03 10.2 C 6.38 g/m*3 10.2 C 0 km/h
2267 29-02-2008 21:37:02 10.3 C 6.32 g/m*3 10.3 C 0 km/h
2268 29-02-2008 21:49:01 10.3 C 6.42 g/m*3 10.3 C 0 km/h
2269 29-02-2008 22:01:01 10.4 C 6.26 g/m*3 10.4 C 0 km/h
2270 29-02-2008 22:13:01 10.3 C 6.22 g/m*3 10.3 C 0 km/h
2271 29-02-2008 22:25:02 10.2 C 6.09 g/m*3 10.2 C 0 km/h
2272 29-02-2008 22:37:02 10 C 6.11 g/m*3 10 C 0 km/h
2273 29-02-2008 22:49:02 9.9 C 6.26 g/m*3 9.9 C 0 km/h
2274 29-02-2008 23:01:02 9.9 C 6.26 g/m*3 9.9 C 0 km/h
2275 29-02-2008 23:13:02 9.8 C 6.03 g/m*3 9.8 C 0 km/h
Sensor: Nr:Datum:Temp:Abs-Feuchte:Windchill:Wind:
Aussen-T/F 2276 29-02-2008 23:25:02 9.7 C 5.99 g/m*3 9.7 C 0 km/h
2277 29-02-2008 23:37:02 9.5 C 6.01 g/m*3 9.5 C 0 km/h
2278 29-02-2008 23:49:01 9.4 C 6.15 g/m*3 9.4 C 0 km/h
2279 01-03-2008 00:01:01 9.2 C 6.25 g/m*3 9.2 C 0 km/h
2280 01-03-2008 00:13:01 9.2 C 6.43 g/m*3 9.2 C 0 km/h
2281 01-03-2008 00:25:01 9.3 C 6.47 g/m*3 9.3 C 0 km/h
2282 01-03-2008 00:37:01 9.4 C 6.6 g/m*3 9.4 C 0 km/h
2283 01-03-2008 00:49:01 9.6 C 6.5 g/m*3 9.6 C 0 km/h
2284 01-03-2008 01:01:02 9.6 C 6.5 g/m*3 9.6 C 0 km/h
2285 01-03-2008 01:13:02 9.6 C 6.6 g/m*3 9.6 C 0 km/h
2286 01-03-2008 01:25:01 9.8 C 6.68 g/m*3 9.8 C 0 km/h
2287 01-03-2008 01:37:01 9.9 C 6.72 g/m*3 9.9 C 0 km/h
2288 01-03-2008 01:49:01 10.1 C 6.62 g/m*3 10.1 C 0 km/h
2289 01-03-2008 02:01:02 10.2 C 6.76 g/m*3 10.2 C 0 km/h
2290 01-03-2008 02:13:02 10.3 C 6.9 g/m*3 10.3 C 0 km/h
2291 01-03-2008 02:25:01 10.1 C 7.09 g/m*3 10.1 C 0 km/h
2292 01-03-2008 02:37:01 10.2 C 7.04 g/m*3 10.2 C 0 km/h
2293 01-03-2008 02:50:02 10.3 C 7.09 g/m*3 10.3 C 0 km/h
2294 01-03-2008 03:02:02 10.3 C 7.09 g/m*3 10.3 C 0 km/h
2295 01-03-2008 03:14:03 10.2 C 7.04 g/m*3 10.2 C 0 km/h
2296 01-03-2008 03:26:03 10 C 7.14 g/m*3 10 C 0 km/h
2297 01-03-2008 03:38:01 10.1 C 7.19 g/m*3 10.1 C 0 km/h
2298 01-03-2008 03:50:01 10 C 7.05 g/m*3 10 C 0 km/h
2299 01-03-2008 04:02:02 10 C 7.14 g/m*3 10 C 0 km/h
2300 01-03-2008 04:14:02 10 C 7.05 g/m*3 10 C 0 km/h
Sensor: Nr:Datum:Temp:Abs-Feuchte:Windchill:Wind:
Aussen-T/F 2301 01-03-2008 04:26:02 10.1 C 7 g/m*3 10.1 C 0 km/h
2302 01-03-2008 04:38:01 9.9 C 7.19 g/m*3 9.9 C 0 km/h
2303 01-03-2008 04:50:01 9.8 C 7.42 g/m*3 9.8 C 0 km/h
2304 01-03-2008 05:02:02 9.8 C 7.42 g/m*3 9.8 C 0 km/h
2305 01-03-2008 05:14:02 9.9 C 7.47 g/m*3 9.9 C 0 km/h
2306 01-03-2008 05:26:02 9.9 C 7.56 g/m*3 9.9 C 0 km/h
2307 01-03-2008 05:38:01 10 C 7.42 g/m*3 10 C 0 km/h
2308 01-03-2008 05:50:02 10 C 7.42 g/m*3 10 C 0 km/h
2309 01-03-2008 06:02:02 10 C 7.71 g/m*3 10 C 0 km/h
2310 01-03-2008 06:14:02 9.6 C 7.79 g/m*3 9.6 C 0 km/h
2311 01-03-2008 06:26:01 10.1 C 7.47 g/m*3 10.1 C 0 km/h
2312 01-03-2008 06:38:02 10.7 C 6.97 g/m*3 10.7 C 0 km/h
2313 01-03-2008 06:50:53 11.1 C 6.55 g/m*3 11.1 C 0 km/h
2314 01-03-2008 07:02:53 7 C 5.5 g/m*3 7 C 0 km/h
2315 01-03-2008 07:14:53 5.8 C 5.8 g/m*3 5.8 C 0 km/h
2316 01-03-2008 07:26:53 6.1 C 5.84 g/m*3 6.1 C 0 km/h
2317 01-03-2008 07:38:53 6.6 C 5.28 g/m*3 6.6 C 0 km/h
2318 01-03-2008 07:50:53 7.1 C 4.76 g/m*3 7.1 C 0 km/h
2319 01-03-2008 08:02:03 7.4 C 4.69 g/m*3 7.4 C 0 km/h
2320 01-03-2008 08:14:03 7.7 C 4.62 g/m*3 7.7 C 0 km/h
2321 01-03-2008 08:26:03 7.9 C 4.52 g/m*3 7.9 C 0 km/h
2322 01-03-2008 08:38:02 8.2 C 4.35 g/m*3 8.2 C 0 km/h
2323 01-03-2008 08:50:02 8.5 C 4.27 g/m*3 8.5 C 0 km/h
2324 01-03-2008 09:02:02 8.5 C 4.18 g/m*3 8.5 C 0 km/h
2325 01-03-2008 09:14:02 8.6 C 3.87 g/m*3 8.6 C 0 km/h
Sensor: Nr:Datum:Temp:Abs-Feuchte:Windchill:Wind:
Aussen-T/F 2326 01-03-2008 09:26:02 8.7 C 3.89 g/m*3 8.7 C 0 km/h
2327 01-03-2008 09:38:02 9 C 3.61 g/m*3 9 C 0 km/h
2328 01-03-2008 09:50:02 9 C 3.7 g/m*3 9 C 0 km/h
2329 01-03-2008 10:02:02 9.2 C 3.75 g/m*3 9.2 C 0 km/h
2330 01-03-2008 10:14:02 9.2 C 3.75 g/m*3 9.2 C 0 km/h
2331 01-03-2008 10:26:01 9.3 C 3.77 g/m*3 9.3 C 0 km/h
2332 01-03-2008 10:38:01 9.2 C 3.75 g/m*3 9.2 C 0 km/h
2333 01-03-2008 10:50:02 9.1 C 3.73 g/m*3 9.1 C 0 km/h
2334 01-03-2008 11:02:01 9.2 C 3.75 g/m*3 9.2 C 0 km/h
2335 01-03-2008 11:14:01 9.2 C 3.75 g/m*3 9.2 C 0 km/h
2336 01-03-2008 11:26:01 9.1 C 3.9 g/m*3 9.1 C 0 km/h
2337 01-03-2008 11:38:02 9.2 C 3.93 g/m*3 9.2 C 0 km/h
2338 01-03-2008 11:50:01 9.3 C 3.95 g/m*3 9.3 C 0 km/h
2339 01-03-2008 12:02:02 9.3 C 4.13 g/m*3 9.3 C 0 km/h
2340 01-03-2008 12:14:02 9.4 C 4.16 g/m*3 9.4 C 0 km/h
2341 01-03-2008 12:26:02 9.4 C 4.07 g/m*3 9.4 C 0 km/h
2342 01-03-2008 12:38:01 9.5 C 4.01 g/m*3 9.5 C 0 km/h
2343 01-03-2008 12:50:02 9.4 C 4.07 g/m*3 9.4 C 0 km/h
2344 01-03-2008 13:02:01 9.3 C 4.13 g/m*3 9.3 C 0 km/h
2345 01-03-2008 13:14:01 9.2 C 4.11 g/m*3 9.2 C 0 km/h
2346 01-03-2008 13:26:01 9.1 C 4.17 g/m*3 9.1 C 0 km/h
2347 01-03-2008 13:38:02 9.2 C 4.11 g/m*3 9.2 C 0 km/h
2348 01-03-2008 13:50:01 9.3 C 4.04 g/m*3 9.3 C 0 km/h
2349 01-03-2008 14:02:02 9.6 C 4.12 g/m*3 9.6 C 0 km/h
2350 01-03-2008 14:14:02 9.7 C 3.96 g/m*3 9.7 C 0 km/h
Sensor: Nr:Datum:Temp:Abs-Feuchte:Windchill:Wind:
Aussen-T/F 2351 01-03-2008 14:26:02 9.9 C 3.92 g/m*3 9.9 C 0 km/h
2352 01-03-2008 14:38:01 10.4 C 3.86 g/m*3 10.4 C 0 km/h
2353 01-03-2008 14:50:02 11.1 C 3.63 g/m*3 11.1 C 0 km/h
2354 01-03-2008 15:02:01 11.3 C 3.57 g/m*3 11.3 C 0 km/h
2355 01-03-2008 15:14:01 11.5 C 3.41 g/m*3 11.5 C 0 km/h
2356 01-03-2008 15:26:01 11.3 C 3.26 g/m*3 11.3 C 0 km/h
2357 01-03-2008 15:38:02 11.5 C 3.31 g/m*3 11.5 C 0 km/h
2358 01-03-2008 15:50:02 11.3 C 3.06 g/m*3 11.3 C 0 km/h
2359 01-03-2008 16:02:02 11.4 C 2.98 g/m*3 11.4 C 0 km/h
2360 01-03-2008 16:14:02 11.5 C 2.89 g/m*3 11.5 C 0 km/h
2361 01-03-2008 16:26:02 11.1 C 2.82 g/m*3 11.1 C 0 km/h
2362 01-03-2008 16:38:03 10.8 C 2.87 g/m*3 10.8 C 0 km/h
2363 01-03-2008 16:50:01 10.6 C 2.93 g/m*3 10.6 C 0 km/h
2364 01-03-2008 17:02:02 10.7 C 3.04 g/m*3 10.7 C 0 km/h
2365 01-03-2008 17:14:02 10.8 C 2.97 g/m*3 10.8 C 0 km/h
2366 01-03-2008 17:26:02 10.5 C 3.01 g/m*3 10.5 C 0 km/h
2367 01-03-2008 17:38:01 10.4 C 2.99 g/m*3 10.4 C 0 km/h
2368 01-03-2008 17:50:02 10.1 C 3.22 g/m*3 10.1 C 0 km/h
2369 01-03-2008 18:02:02 10 C 3.29 g/m*3 10 C 0 km/h
2370 01-03-2008 18:14:02 9.8 C 3.34 g/m*3 9.8 C 0 km/h
2371 01-03-2008 18:26:02 9.7 C 3.5 g/m*3 9.7 C 0 km/h
2372 01-03-2008 18:38:02 9.6 C 3.48 g/m*3 9.6 C 0 km/h
2373 01-03-2008 18:50:02 9.5 C 3.55 g/m*3 9.5 C 0 km/h
2374 01-03-2008 19:02:02 9.5 C 3.55 g/m*3 9.5 C 0 km/h
2375 01-03-2008 19:14:02 9.3 C 3.59 g/m*3 9.3 C 0 km/h
Sensor: Nr:Datum:Temp:Abs-Feuchte:Windchill:Wind:
Aussen-T/F 2376 01-03-2008 19:26:02 9.3 C 3.59 g/m*3 9.3 C 0 km/h
2377 01-03-2008 19:38:01 9.3 C 3.68 g/m*3 9.3 C 0 km/h
2378 01-03-2008 19:50:02 9.2 C 3.75 g/m*3 9.2 C 0 km/h
2379 01-03-2008 20:02:01 8.6 C 4.3 g/m*3 8.6 C 0 km/h
2380 01-03-2008 20:14:01 8.4 C 4.41 g/m*3 8.4 C 0 km/h
2381 01-03-2008 20:26:02 8.6 C 4.38 g/m*3 8.6 C 0 km/h
2382 01-03-2008 20:38:02 8.8 C 4.35 g/m*3 8.8 C 0 km/h
2383 01-03-2008 20:50:02 8.9 C 4.38 g/m*3 8.9 C 0 km/h
2384 01-03-2008 21:02:01 8.9 C 4.47 g/m*3 8.9 C 0 km/h
2385 01-03-2008 21:14:01 8.9 C 4.38 g/m*3 8.9 C 0 km/h
2386 01-03-2008 21:26:01 9 C 4.32 g/m*3 9 C 0 km/h
2387 01-03-2008 21:38:02 9 C 4.32 g/m*3 9 C 0 km/h
2388 01-03-2008 21:50:02 8.9 C 4.29 g/m*3 8.9 C 0 km/h
2389 01-03-2008 22:02:02 8.8 C 4.35 g/m*3 8.8 C 0 km/h
2390 01-03-2008 22:14:02 8.7 C 4.41 g/m*3 8.7 C 0 km/h
2391 01-03-2008 22:26:02 8.7 C 4.41 g/m*3 8.7 C 0 km/h
2392 01-03-2008 22:38:03 8.9 C 4.29 g/m*3 8.9 C 0 km/h
2393 01-03-2008 22:50:02 8.9 C 4.2 g/m*3 8.9 C 0 km/h
2394 01-03-2008 23:02:02 8.9 C 4.2 g/m*3 8.9 C 0 km/h
2395 01-03-2008 23:14:03 8.8 C 4.09 g/m*3 8.8 C 0 km/h
2396 01-03-2008 23:26:02 8.7 C 4.06 g/m*3 8.7 C 0 km/h
2397 01-03-2008 23:38:01 8.8 C 4 g/m*3 8.8 C 0 km/h
2398 01-03-2008 23:50:01 8.7 C 4.06 g/m*3 8.7 C 0 km/h
2399 02-03-2008 00:02:02 8.7 C 4.06 g/m*3 8.7 C 0 km/h
2400 02-03-2008 00:14:02 8.7 C 3.98 g/m*3 8.7 C 0 km/h
Sensor: Nr:Datum:Temp:Abs-Feuchte:Windchill:Wind:
Aussen-T/F 2401 02-03-2008 00:27:04 8.7 C 4.06 g/m*3 8.7 C 0 km/h
2402 02-03-2008 00:39:04 8.6 C 4.04 g/m*3 8.6 C 0 km/h
2403 02-03-2008 00:51:04 8.5 C 4.1 g/m*3 8.5 C 0 km/h
2404 02-03-2008 01:03:04 8.5 C 4.1 g/m*3 8.5 C 0 km/h
2405 02-03-2008 01:15:04 8.5 C 4.18 g/m*3 8.5 C 0 km/h
2406 02-03-2008 01:27:04 8.6 C 4.12 g/m*3 8.6 C 0 km/h
2407 02-03-2008 01:39:05 8.6 C 4.21 g/m*3 8.6 C 0 km/h
2408 02-03-2008 01:51:05 8.6 C 4.21 g/m*3 8.6 C 0 km/h
2409 02-03-2008 02:03:05 8.7 C 4.24 g/m*3 8.7 C 0 km/h
2410 02-03-2008 02:15:05 8.6 C 4.38 g/m*3 8.6 C 0 km/h
2411 02-03-2008 02:27:05 8.6 C 4.47 g/m*3 8.6 C 0 km/h
2412 02-03-2008 02:39:05 8.7 C 4.41 g/m*3 8.7 C 0 km/h
2413 02-03-2008 02:51:05 8.7 C 4.41 g/m*3 8.7 C 0 km/h
2414 02-03-2008 03:03:05 8.7 C 4.5 g/m*3 8.7 C 0 km/h
2415 02-03-2008 03:15:05 8.7 C 4.58 g/m*3 8.7 C 0 km/h
2416 02-03-2008 03:27:05 8.6 C 4.64 g/m*3 8.6 C 0 km/h
2417 02-03-2008 03:39:05 8.6 C 4.73 g/m*3 8.6 C 0 km/h
2418 02-03-2008 03:51:05 8.5 C 4.87 g/m*3 8.5 C 0 km/h
2419 02-03-2008 04:03:05 8.4 C 5.09 g/m*3 8.4 C 0 km/h
2420 02-03-2008 04:15:05 8.3 C 5.23 g/m*3 8.3 C 0 km/h
2421 02-03-2008 04:27:05 8.3 C 5.31 g/m*3 8.3 C 0 km/h
2422 02-03-2008 04:39:05 8.4 C 5.51 g/m*3 8.4 C 0 km/h
2423 02-03-2008 04:51:05 8.5 C 5.55 g/m*3 8.5 C 0 km/h
2424 02-03-2008 05:03:05 8.5 C 5.64 g/m*3 8.5 C 0 km/h
2425 02-03-2008 05:15:05 8.4 C 5.94 g/m*3 8.4 C 0 km/h
Sensor: Nr:Datum:Temp:Abs-Feuchte:Windchill:Wind:
Aussen-T/F 2426 02-03-2008 05:27:06 8.4 C 6.19 g/m*3 8.4 C 0 km/h
2427 02-03-2008 05:39:06 8.3 C 6.41 g/m*3 8.3 C 0 km/h
2428 02-03-2008 05:51:06 8.2 C 6.53 g/m*3 8.2 C 0 km/h
2429 02-03-2008 06:03:06 8.4 C 6.62 g/m*3 8.4 C 0 km/h
2430 02-03-2008 06:15:06 8.5 C 6.74 g/m*3 8.5 C 0 km/h
2431 02-03-2008 06:27:06 8.9 C 6.75 g/m*3 8.9 C 0 km/h
2432 02-03-2008 06:39:06 9 C 6.61 g/m*3 9 C 0 km/h
2433 02-03-2008 06:51:06 9.2 C 6.61 g/m*3 9.2 C 0 km/h
2434 02-03-2008 07:03:06 9.2 C 6.61 g/m*3 9.2 C 0 km/h
2435 02-03-2008 07:15:06 9 C 6.79 g/m*3 9 C 0 km/h
2436 02-03-2008 07:27:06 9 C 7.05 g/m*3 9 C 0 km/h
2437 02-03-2008 07:39:06 8.8 C 7.22 g/m*3 8.8 C 0 km/h
2438 02-03-2008 07:51:06 8.8 C 7.4 g/m*3 8.8 C 0 km/h
2439 02-03-2008 08:03:06 8.8 C 7.49 g/m*3 8.8 C 0 km/h
2440 02-03-2008 08:15:06 8.8 C 7.57 g/m*3 8.8 C 0 km/h
2441 02-03-2008 08:27:06 9 C 7.49 g/m*3 9 C 0 km/h
2442 02-03-2008 08:39:06 9.2 C 7.5 g/m*3 9.2 C 0 km/h
2443 02-03-2008 08:51:02 9.9 C 7.56 g/m*3 9.9 C 0 km/h
2444 02-03-2008 09:03:02 10.4 C 7.04 g/m*3 10.4 C 0 km/h
2445 02-03-2008 09:15:02 10.9 C 6.76 g/m*3 10.9 C 0 km/h
2446 02-03-2008 09:27:02 11.3 C 6.43 g/m*3 11.3 C 0 km/h
2447 02-03-2008 09:39:02 11.4 C 6.57 g/m*3 11.4 C 0 km/h
2448 02-03-2008 09:51:02 11.5 C 6.51 g/m*3 11.5 C 0 km/h
2449 02-03-2008 10:03:02 11.2 C 6.69 g/m*3 11.2 C 0 km/h
2450 02-03-2008 10:15:02 11.6 C 6.65 g/m*3 11.6 C 0 km/h
Sensor: Nr:Datum:Temp:Abs-Feuchte:Windchill:Wind:
Aussen-T/F 2451 02-03-2008 10:27:02 12 C 6.29 g/m*3 12 C 0 km/h
2452 02-03-2008 10:39:02 12.3 C 5.86 g/m*3 12.3 C 0 km/h
2453 02-03-2008 10:51:02 12.4 C 5.79 g/m*3 12.4 C 0 km/h
2454 02-03-2008 11:03:01 12.7 C 5.68 g/m*3 12.7 C 0 km/h
2455 02-03-2008 11:15:01 13 C 5.44 g/m*3 13 C 0 km/h
2456 02-03-2008 11:27:01 13.2 C 5.28 g/m*3 13.2 C 0 km/h
2457 02-03-2008 11:39:02 13.2 C 4.94 g/m*3 13.2 C 0 km/h
2458 02-03-2008 11:51:03 13.6 C 4.71 g/m*3 13.6 C 0 km/h
2459 02-03-2008 12:03:03 13.5 C 4.8 g/m*3 13.5 C 0 km/h
2460 02-03-2008 12:15:02 13.6 C 4.94 g/m*3 13.6 C 0 km/h
2461 02-03-2008 12:27:02 13.8 C 4.77 g/m*3 13.8 C 0 km/h
2462 02-03-2008 12:39:03 13.8 C 4.77 g/m*3 13.8 C 0 km/h
2463 02-03-2008 12:51:02 13.4 C 5.11 g/m*3 13.4 C 0 km/h
2464 02-03-2008 13:03:02 13.1 C 5.25 g/m*3 13.1 C 0 km/h
2465 02-03-2008 13:15:02 13.6 C 5.3 g/m*3 13.6 C 0 km/h
2466 02-03-2008 13:27:02 14.3 C 4.91 g/m*3 14.3 C 0 km/h
2467 02-03-2008 13:39:02 14.1 C 4.98 g/m*3 14.1 C 0 km/h
2468 02-03-2008 13:51:02 14 C 5.07 g/m*3 14 C 0 km/h
2469 02-03-2008 14:03:01 13.9 C 5.04 g/m*3 13.9 C 0 km/h
2470 02-03-2008 14:15:02 14 C 4.95 g/m*3 14 C 0 km/h
2471 02-03-2008 14:27:02 14.1 C 4.85 g/m*3 14.1 C 0 km/h
2472 02-03-2008 14:39:02 14.1 C 4.61 g/m*3 14.1 C 0 km/h
2473 02-03-2008 14:51:02 14 C 4.7 g/m*3 14 C 0 km/h
2474 02-03-2008 15:03:02 13.7 C 4.86 g/m*3 13.7 C 0 km/h
2475 02-03-2008 15:15:01 13.7 C 4.86 g/m*3 13.7 C 0 km/h
Sensor: Nr:Datum:Temp:Abs-Feuchte:Windchill:Wind:
Aussen-T/F 2476 02-03-2008 15:27:01 13.9 C 4.8 g/m*3 13.9 C 0 km/h
2477 02-03-2008 15:39:01 14.4 C 4.57 g/m*3 14.4 C 0 km/h
2478 02-03-2008 15:51:01 14.3 C 4.55 g/m*3 14.3 C 0 km/h
2479 02-03-2008 16:03:02 14.2 C 4.52 g/m*3 14.2 C 0 km/h
2480 02-03-2008 16:15:02 13.9 C 4.8 g/m*3 13.9 C 0 km/h
2481 02-03-2008 16:27:02 13.8 C 4.77 g/m*3 13.8 C 0 km/h
2482 02-03-2008 16:39:01 13.5 C 4.68 g/m*3 13.5 C 0 km/h
2483 02-03-2008 16:51:02 13.5 C 4.68 g/m*3 13.5 C 0 km/h
2484 02-03-2008 17:03:01 13.4 C 4.65 g/m*3 13.4 C 0 km/h
2485 02-03-2008 17:15:02 13.4 C 4.65 g/m*3 13.4 C 0 km/h
2486 02-03-2008 17:27:02 13.4 C 4.65 g/m*3 13.4 C 0 km/h
2487 02-03-2008 17:39:02 13.2 C 4.94 g/m*3 13.2 C 0 km/h
2488 02-03-2008 17:51:02 13.1 C 4.91 g/m*3 13.1 C 0 km/h
2489 02-03-2008 18:03:02 13.1 C 4.68 g/m*3 13.1 C 0 km/h
2490 02-03-2008 18:15:02 13 C 4.65 g/m*3 13 C 0 km/h
2491 02-03-2008 18:27:02 12.8 C 4.59 g/m*3 12.8 C 0 km/h
2492 02-03-2008 18:39:03 12.9 C 4.51 g/m*3 12.9 C 0 km/h
2493 02-03-2008 18:51:02 12.8 C 4.48 g/m*3 12.8 C 0 km/h
2494 02-03-2008 19:03:02 12.8 C 4.59 g/m*3 12.8 C 0 km/h
2495 02-03-2008 19:15:02 12.7 C 4.68 g/m*3 12.7 C 0 km/h
2496 02-03-2008 19:27:02 12.5 C 4.84 g/m*3 12.5 C 0 km/h
2497 02-03-2008 19:39:01 12.5 C 4.62 g/m*3 12.5 C 0 km/h
2498 02-03-2008 19:51:02 12.4 C 4.59 g/m*3 12.4 C 0 km/h
2499 02-03-2008 20:03:01 12.3 C 4.34 g/m*3 12.3 C 0 km/h
2500 02-03-2008 20:15:02 12.1 C 4.29 g/m*3 12.1 C 0 km/h
Sensor: Nr:Datum:Temp:Abs-Feuchte:Windchill:Wind:
Aussen-T/F 2501 02-03-2008 20:27:02 12.1 C 4.18 g/m*3 12.1 C 0 km/h
2502 02-03-2008 20:39:02 12 C 4.26 g/m*3 12 C 0 km/h
2503 02-03-2008 20:51:02 12 C 4.26 g/m*3 12 C 0 km/h
2504 02-03-2008 21:03:01 11.9 C 4.34 g/m*3 11.9 C 0 km/h
2505 02-03-2008 21:15:02 11.8 C 4.32 g/m*3 11.8 C 0 km/h
2506 02-03-2008 21:27:02 11.9 C 4.34 g/m*3 11.9 C 0 km/h
2507 02-03-2008 21:39:01 11.7 C 4.39 g/m*3 11.7 C 0 km/h
2508 02-03-2008 21:51:02 11.8 C 4.42 g/m*3 11.8 C 0 km/h
2509 02-03-2008 22:03:02 11.7 C 4.5 g/m*3 11.7 C 0 km/h
2510 02-03-2008 22:16:02 11.6 C 4.68 g/m*3 11.6 C 0 km/h
2511 02-03-2008 22:28:02 11.4 C 4.72 g/m*3 11.4 C 0 km/h
2512 02-03-2008 22:40:02 11.4 C 4.82 g/m*3 11.4 C 0 km/h
2513 02-03-2008 22:52:02 11.2 C 5.07 g/m*3 11.2 C 0 km/h
2514 02-03-2008 23:04:02 10.5 C 5.72 g/m*3 10.5 C 0 km/h
2515 02-03-2008 23:16:02 10.5 C 6.01 g/m*3 10.5 C 0 km/h
2516 02-03-2008 23:28:02 10.4 C 6.07 g/m*3 10.4 C 0 km/h
2517 02-03-2008 23:40:02 10.4 C 6.07 g/m*3 10.4 C 0 km/h
2518 02-03-2008 23:52:02 10.5 C 6.11 g/m*3 10.5 C 0 km/h
2519 03-03-2008 00:04:02 10.4 C 6.26 g/m*3 10.4 C 0 km/h
2520 03-03-2008 00:16:02 9.8 C 6.96 g/m*3 9.8 C 0 km/h
2521 03-03-2008 00:28:02 9.5 C 7.19 g/m*3 9.5 C 0 km/h
2522 03-03-2008 00:40:02 9.4 C 7.33 g/m*3 9.4 C 0 km/h
2523 03-03-2008 00:52:02 9.3 C 7.19 g/m*3 9.3 C 0 km/h
2524 03-03-2008 01:04:02 9.4 C 6.33 g/m*3 9.4 C 0 km/h
2525 03-03-2008 01:16:02 9.6 C 5.31 g/m*3 9.6 C 0 km/h
Sensor: Nr:Datum:Temp:Abs-Feuchte:Windchill:Wind:
Aussen-T/F 2526 03-03-2008 01:28:02 9.6 C 4.86 g/m*3 9.6 C 0 km/h
2527 03-03-2008 01:40:03 9.4 C 4.79 g/m*3 9.4 C 0 km/h
2528 03-03-2008 01:52:03 9.1 C 4.88 g/m*3 9.1 C 0 km/h
2529 03-03-2008 02:04:03 9 C 4.85 g/m*3 9 C 0 km/h
2530 03-03-2008 02:16:03 9 C 5.03 g/m*3 9 C 0 km/h
2531 03-03-2008 02:28:03 9 C 5.11 g/m*3 9 C 0 km/h
2532 03-03-2008 02:40:03 9 C 5.03 g/m*3 9 C 0 km/h
2533 03-03-2008 02:52:03 9 C 4.94 g/m*3 9 C 0 km/h
2534 03-03-2008 03:04:03 9 C 4.85 g/m*3 9 C 0 km/h
2535 03-03-2008 03:16:03 9.1 C 4.88 g/m*3 9.1 C 0 km/h
2536 03-03-2008 03:28:03 9 C 5.03 g/m*3 9 C 0 km/h
2537 03-03-2008 03:40:03 8.9 C 5.17 g/m*3 8.9 C 0 km/h
2538 03-03-2008 03:52:03 8.9 C 4.99 g/m*3 8.9 C 0 km/h
2539 03-03-2008 04:04:03 9 C 4.94 g/m*3 9 C 0 km/h
2540 03-03-2008 04:16:03 9 C 4.94 g/m*3 9 C 0 km/h
2541 03-03-2008 04:28:03 9 C 4.94 g/m*3 9 C 0 km/h
2542 03-03-2008 04:40:03 8.9 C 4.99 g/m*3 8.9 C 0 km/h
2543 03-03-2008 04:52:03 8.9 C 5.08 g/m*3 8.9 C 0 km/h
2544 03-03-2008 05:04:03 8.9 C 5.08 g/m*3 8.9 C 0 km/h
2545 03-03-2008 05:16:03 8.9 C 5.17 g/m*3 8.9 C 0 km/h
2546 03-03-2008 05:28:03 8.9 C 5.26 g/m*3 8.9 C 0 km/h
2547 03-03-2008 05:40:04 8.7 C 5.53 g/m*3 8.7 C 0 km/h
2548 03-03-2008 05:52:04 8.4 C 5.85 g/m*3 8.4 C 0 km/h
2549 03-03-2008 06:04:04 8.3 C 5.9 g/m*3 8.3 C 0 km/h
2550 03-03-2008 06:16:04 8.4 C 6.02 g/m*3 8.4 C 0 km/h
Sensor: Nr:Datum:Temp:Abs-Feuchte:Windchill:Wind:
Aussen-T/F 2551 03-03-2008 06:28:04 8.4 C 5.94 g/m*3 8.4 C 0 km/h
2552 03-03-2008 06:40:04 8.5 C 5.89 g/m*3 8.5 C 0 km/h
2553 03-03-2008 06:52:04 8.5 C 5.89 g/m*3 8.5 C 0 km/h
2554 03-03-2008 07:04:02 8.2 C 5.86 g/m*3 8.2 C 0 km/h
2555 03-03-2008 07:16:02 8 C 5.87 g/m*3 8 C 0 km/h
2556 03-03-2008 07:28:02 7.9 C 6 g/m*3 7.9 C 0 km/h
2557 03-03-2008 07:40:02 7.8 C 6.12 g/m*3 7.8 C 0 km/h
2558 03-03-2008 07:52:02 7.6 C 6.12 g/m*3 7.6 C 0 km/h
2559 03-03-2008 08:04:02 7.6 C 6.2 g/m*3 7.6 C 0 km/h
2560 03-03-2008 08:16:02 7.3 C 6 g/m*3 7.3 C 0 km/h
2561 03-03-2008 08:28:02 7.3 C 6.08 g/m*3 7.3 C 0 km/h
2562 03-03-2008 08:40:02 7.3 C 6.16 g/m*3 7.3 C 0 km/h
2563 03-03-2008 08:52:02 7.3 C 6.16 g/m*3 7.3 C 0 km/h
2564 03-03-2008 09:04:03 7.4 C 6.28 g/m*3 7.4 C 0 km/h
2565 03-03-2008 09:16:02 7.2 C 6.04 g/m*3 7.2 C 0 km/h
2566 03-03-2008 09:28:02 7.3 C 6 g/m*3 7.3 C 0 km/h
2567 03-03-2008 09:40:02 7.6 C 5.8 g/m*3 7.6 C 0 km/h
2568 03-03-2008 09:52:01 7.7 C 5.51 g/m*3 7.7 C 0 km/h
2569 03-03-2008 10:04:02 7.5 C 5.36 g/m*3 7.5 C 0 km/h
2570 03-03-2008 10:16:01 7 C 5.27 g/m*3 7 C 0 km/h
2571 03-03-2008 10:28:01 6.6 C 5.44 g/m*3 6.6 C 0 km/h
2572 03-03-2008 10:40:01 6.7 C 5.62 g/m*3 6.7 C 0 km/h
2573 03-03-2008 10:52:01 6.7 C 5.62 g/m*3 6.7 C 0 km/h
2574 03-03-2008 11:04:02 7.2 C 5.65 g/m*3 7.2 C 0 km/h
2575 03-03-2008 11:16:02 7.4 C 5.25 g/m*3 7.4 C 0 km/h
Sensor: Nr:Datum:Temp:Abs-Feuchte:Windchill:Wind:
Aussen-T/F 2576 03-03-2008 11:28:02 7.8 C 5.22 g/m*3 7.8 C 0 km/h
2577 03-03-2008 11:40:01 7.8 C 4.98 g/m*3 7.8 C 0 km/h
2578 03-03-2008 11:52:02 7.9 C 4.93 g/m*3 7.9 C 0 km/h
2579 03-03-2008 12:04:01 8.5 C 4.87 g/m*3 8.5 C 0 km/h
2580 03-03-2008 12:16:02 8.5 C 4.87 g/m*3 8.5 C 0 km/h
2581 03-03-2008 12:28:02 8.4 C 4.92 g/m*3 8.4 C 0 km/h
2582 03-03-2008 12:40:02 8.6 C 4.9 g/m*3 8.6 C 0 km/h
2583 03-03-2008 12:52:02 8.6 C 4.55 g/m*3 8.6 C 0 km/h
2584 03-03-2008 13:04:02 8.9 C 4.47 g/m*3 8.9 C 0 km/h
2585 03-03-2008 13:16:02 8.7 C 4.41 g/m*3 8.7 C 0 km/h
2586 03-03-2008 13:28:02 8.8 C 4.35 g/m*3 8.8 C 0 km/h
2587 03-03-2008 13:40:02 8.9 C 4.29 g/m*3 8.9 C 0 km/h
2588 03-03-2008 13:52:02 9 C 4.23 g/m*3 9 C 0 km/h
2589 03-03-2008 14:04:01 9.3 C 3.5 g/m*3 9.3 C 0 km/h
2590 03-03-2008 14:16:01 9.4 C 3.44 g/m*3 9.4 C 0 km/h
2591 03-03-2008 14:28:01 9.5 C 3.19 g/m*3 9.5 C 0 km/h
2592 03-03-2008 14:40:02 9.2 C 3.13 g/m*3 9.2 C 0 km/h
2593 03-03-2008 14:52:02 9.2 C 2.86 g/m*3 9.2 C 0 km/h
2594 03-03-2008 15:04:02 9.3 C 2.7 g/m*3 9.3 C 0 km/h
2595 03-03-2008 15:16:02 9.5 C 2.28 g/m*3 9.5 C 0 km/h
2596 03-03-2008 15:28:02 9.8 C 2.32 g/m*3 9.8 C 0 km/h
2597 03-03-2008 15:40:03 9.7 C 1.94 g/m*3 9.7 C 0 km/h
2598 03-03-2008 15:52:02 9.3 C 1.8 g/m*3 9.3 C 0 km/h
2599 03-03-2008 16:04:02 9 C 2.29 g/m*3 9 C 0 km/h
2600 03-03-2008 16:16:02 8.5 C 2.31 g/m*3 8.5 C 0 km/h
Sensor: Nr:Datum:Temp:Abs-Feuchte:Windchill:Wind:
Aussen-T/F 2601 03-03-2008 16:28:02 9.1 C 1.77 g/m*3 9.1 C 0 km/h
2602 03-03-2008 16:40:02 8.7 C 1.73 g/m*3 8.7 C 0 km/h
2603 03-03-2008 16:52:02 9.5 C 1.82 g/m*3 9.5 C 0 km/h
2604 03-03-2008 17:04:02 9 C 1.76 g/m*3 9 C 0 km/h
2605 03-03-2008 17:16:02 8.8 C 1.74 g/m*3 8.8 C 0 km/h
2606 03-03-2008 17:28:02 8.4 C 1.7 g/m*3 8.4 C 0 km/h
2607 03-03-2008 17:40:02 8.5 C 1.71 g/m*3 8.5 C 0 km/h
2608 03-03-2008 17:52:02 8.1 C 1.66 g/m*3 8.1 C 0 km/h
2609 03-03-2008 18:04:02 7.6 C 1.61 g/m*3 7.6 C 0 km/h
2610 03-03-2008 18:16:03 7.3 C 1.58 g/m*3 7.3 C 0 km/h
2611 03-03-2008 18:28:03 7.1 C 1.56 g/m*3 7.1 C 0 km/h
2612 03-03-2008 18:40:02 6.9 C 1.54 g/m*3 6.9 C 0 km/h
2613 03-03-2008 18:52:02 6.5 C 1.5 g/m*3 6.5 C 0 km/h
2614 03-03-2008 19:04:02 6.4 C 1.49 g/m*3 6.4 C 0 km/h
2615 03-03-2008 19:16:02 6.3 C 1.48 g/m*3 6.3 C 0 km/h
2616 03-03-2008 19:28:02 6.1 C 1.83 g/m*3 6.1 C 0 km/h
2617 03-03-2008 19:40:02 5.9 C 1.87 g/m*3 5.9 C 0 km/h
2618 03-03-2008 19:52:03 5.5 C 2.04 g/m*3 5.5 C 0 km/h
2619 03-03-2008 20:04:02 5.1 C 2.19 g/m*3 5.1 C 0 km/h
2620 03-03-2008 20:16:02 4.7 C 2.33 g/m*3 4.7 C 0 km/h
2621 03-03-2008 20:28:02 4.5 C 2.37 g/m*3 4.5 C 0 km/h
2622 03-03-2008 20:40:03 4.5 C 2.43 g/m*3 4.5 C 0 km/h
2623 03-03-2008 20:52:02 4.2 C 2.38 g/m*3 4.2 C 0 km/h
2624 03-03-2008 21:04:02 4.1 C 2.5 g/m*3 4.1 C 0 km/h
2625 03-03-2008 21:16:02 3.8 C 2.57 g/m*3 3.8 C 0 km/h
Sensor: Nr:Datum:Temp:Abs-Feuchte:Windchill:Wind:
Aussen-T/F 2626 03-03-2008 21:28:02 3.7 C 2.62 g/m*3 3.7 C 0 km/h
2627 03-03-2008 21:40:02 3.7 C 2.55 g/m*3 3.7 C 0 km/h
2628 03-03-2008 21:52:02 3.6 C 2.6 g/m*3 3.6 C 0 km/h
2629 03-03-2008 22:04:02 3.4 C 2.63 g/m*3 3.4 C 0 km/h
2630 03-03-2008 22:16:02 3.3 C 2.73 g/m*3 3.3 C 0 km/h
2631 03-03-2008 22:28:02 3.3 C 2.73 g/m*3 3.3 C 0 km/h
2632 03-03-2008 22:41:02 3.2 C 2.71 g/m*3 3.2 C 0 km/h
2633 03-03-2008 22:53:02 3.1 C 2.75 g/m*3 3.1 C 0 km/h
2634 03-03-2008 23:05:02 3.1 C 2.75 g/m*3 3.1 C 0 km/h
2635 03-03-2008 23:17:02 2.9 C 2.78 g/m*3 2.9 C 0 km/h
2636 03-03-2008 23:29:02 2.6 C 2.84 g/m*3 2.6 C 0 km/h
2637 03-03-2008 23:41:02 2.4 C 2.85 g/m*3 2.4 C 0 km/h
2638 03-03-2008 23:53:02 2.2 C 2.93 g/m*3 2.2 C 0 km/h
2639 04-03-2008 00:05:02 2.1 C 2.97 g/m*3 2.1 C 0 km/h
2640 04-03-2008 00:17:02 2 C 2.95 g/m*3 2 C 0 km/h
2641 04-03-2008 00:29:02 2 C 3 g/m*3 2 C 0 km/h
2642 04-03-2008 00:41:02 1.9 C 3.04 g/m*3 1.9 C 0 km/h
2643 04-03-2008 00:53:02 1.8 C 3.07 g/m*3 1.8 C 0 km/h
2644 04-03-2008 01:05:02 2 C 3.06 g/m*3 2 C 0 km/h
2645 04-03-2008 01:17:02 2.3 C 3.06 g/m*3 2.3 C 0 km/h
2646 04-03-2008 01:29:02 2.3 C 3.12 g/m*3 2.3 C 0 km/h
2647 04-03-2008 01:41:02 2.2 C 3.1 g/m*3 2.2 C 0 km/h
2648 04-03-2008 01:53:02 2.2 C 3.15 g/m*3 2.2 C 0 km/h
2649 04-03-2008 02:05:02 2.3 C 3.18 g/m*3 2.3 C 0 km/h
2650 04-03-2008 02:17:03 2.4 C 3.2 g/m*3 2.4 C 0 km/h
Sensor: Nr:Datum:Temp:Abs-Feuchte:Windchill:Wind:
Aussen-T/F 2651 04-03-2008 02:29:03 2.5 C 3.22 g/m*3 2.5 C 0 km/h
2652 04-03-2008 02:41:03 2.4 C 3.25 g/m*3 2.4 C 0 km/h
2653 04-03-2008 02:53:03 2.3 C 3.29 g/m*3 2.3 C 0 km/h
2654 04-03-2008 03:05:03 2.3 C 3.29 g/m*3 2.3 C 0 km/h
2655 04-03-2008 03:17:03 2.5 C 3.45 g/m*3 2.5 C 0 km/h
2656 04-03-2008 03:29:03 2.5 C 3.56 g/m*3 2.5 C 0 km/h
2657 04-03-2008 03:41:03 2.5 C 3.74 g/m*3 2.5 C 0 km/h
2658 04-03-2008 03:53:03 2.3 C 3.86 g/m*3 2.3 C 0 km/h
2659 04-03-2008 04:05:03 2.2 C 3.94 g/m*3 2.2 C 0 km/h
2660 04-03-2008 04:17:03 2 C 4.11 g/m*3 2 C 0 km/h
2661 04-03-2008 04:29:03 2.2 C 4.28 g/m*3 2.2 C 0 km/h
2662 04-03-2008 04:41:03 2 C 4.33 g/m*3 2 C 0 km/h
2663 04-03-2008 04:53:03 1.9 C 4.42 g/m*3 1.9 C 0 km/h
2664 04-03-2008 05:05:03 1.6 C 4.38 g/m*3 1.6 C 0 km/h
2665 04-03-2008 05:17:03 1.5 C 4.4 g/m*3 1.5 C 0 km/h
2666 04-03-2008 05:29:03 1.3 C 4.4 g/m*3 1.3 C 0 km/h
2667 04-03-2008 05:41:03 1.2 C 4.42 g/m*3 1.2 C 0 km/h
2668 04-03-2008 05:53:03 1.1 C 4.44 g/m*3 1.1 C 0 km/h
2669 04-03-2008 06:05:03 0.7 C 4.37 g/m*3 0.7 C 0 km/h
2670 04-03-2008 06:17:03 0.5 C 4.31 g/m*3 0.5 C 0 km/h
2671 04-03-2008 06:29:04 0.5 C 4.36 g/m*3 0.5 C 0 km/h
2672 04-03-2008 06:41:04 0.4 C 4.33 g/m*3 0.4 C 0 km/h
2673 04-03-2008 06:53:04 0.3 C 4.35 g/m*3 0.3 C 0 km/h
2674 04-03-2008 07:05:04 0.3 C 4.4 g/m*3 0.3 C 0 km/h
2675 04-03-2008 07:17:02 0.3 C 4.4 g/m*3 0.3 C 0 km/h
Sensor: Nr:Datum:Temp:Abs-Feuchte:Windchill:Wind:
Aussen-T/F 2676 04-03-2008 07:29:02 0.2 C 4.37 g/m*3 0.2 C 0 km/h
2677 04-03-2008 07:41:02 0.3 C 4.45 g/m*3 0.3 C 0 km/h
2678 04-03-2008 07:53:02 0.3 C 4.45 g/m*3 0.3 C 0 km/h
2679 04-03-2008 08:05:02 0.3 C 4.45 g/m*3 0.3 C 0 km/h
2680 04-03-2008 08:17:02 0.3 C 4.45 g/m*3 0.3 C 0 km/h
2681 04-03-2008 08:29:02 0.3 C 4.45 g/m*3 0.3 C 0 km/h
2682 04-03-2008 08:41:02 0.3 C 4.5 g/m*3 0.3 C 0 km/h
2683 04-03-2008 08:53:01 0.4 C 4.53 g/m*3 0.4 C 0 km/h
2684 04-03-2008 09:05:02 0.5 C 4.56 g/m*3 0.5 C 0 km/h
2685 04-03-2008 09:17:02 0.5 C 4.51 g/m*3 0.5 C 0 km/h
2686 04-03-2008 09:29:02 0.5 C 4.56 g/m*3 0.5 C 0 km/h
2687 04-03-2008 09:41:01 0.6 C 4.54 g/m*3 0.6 C 0 km/h
2688 04-03-2008 09:53:02 0.6 C 4.54 g/m*3 0.6 C 0 km/h
2689 04-03-2008 10:05:02 0.7 C 4.58 g/m*3 0.7 C 0 km/h
2690 04-03-2008 10:17:02 0.8 C 4.61 g/m*3 0.8 C 0 km/h
2691 04-03-2008 10:29:02 1 C 4.67 g/m*3 1 C 0 km/h
2692 04-03-2008 10:41:02 1.2 C 4.68 g/m*3 1.2 C 0 km/h
2693 04-03-2008 10:53:02 1.5 C 4.78 g/m*3 1.5 C 0 km/h
2694 04-03-2008 11:05:01 1.8 C 4.88 g/m*3 1.8 C 0 km/h
2695 04-03-2008 11:17:01 1.9 C 4.91 g/m*3 1.9 C 0 km/h
2696 04-03-2008 11:29:01 2.2 C 4.96 g/m*3 2.2 C 0 km/h
2697 04-03-2008 11:41:02 2.8 C 5.22 g/m*3 2.8 C 0 km/h
2698 04-03-2008 11:53:02 3.2 C 5.18 g/m*3 3.2 C 0 km/h
2699 04-03-2008 12:05:03 3.3 C 4.85 g/m*3 3.3 C 0 km/h
2700 04-03-2008 12:17:02 3.8 C 4.64 g/m*3 3.8 C 0 km/h
Sensor: Nr:Datum:Temp:Abs-Feuchte:Windchill:Wind:
Aussen-T/F 2701 04-03-2008 12:29:03 4 C 4.39 g/m*3 4 C 0 km/h
2702 04-03-2008 12:41:02 4.3 C 4.35 g/m*3 4.3 C 0 km/h
2703 04-03-2008 12:53:02 4.4 C 4.18 g/m*3 4.4 C 0 km/h
2704 04-03-2008 13:05:01 4.7 C 4.26 g/m*3 4.7 C 0 km/h
2705 04-03-2008 13:17:01 4.8 C 4.22 g/m*3 4.8 C 0 km/h
2706 04-03-2008 13:29:01 4.7 C 4.13 g/m*3 4.7 C 0 km/h
2707 04-03-2008 13:41:02 5.3 C 4.37 g/m*3 5.3 C 0 km/h
2708 04-03-2008 13:53:02 5 C 4.08 g/m*3 5 C 0 km/h
2709 04-03-2008 14:05:03 5 C 4.08 g/m*3 5 C 0 km/h
2710 04-03-2008 14:17:02 5.4 C 4.19 g/m*3 5.4 C 0 km/h
2711 04-03-2008 14:29:02 5.4 C 4.12 g/m*3 5.4 C 0 km/h
2712 04-03-2008 14:41:02 5 C 4.01 g/m*3 5 C 0 km/h
2713 04-03-2008 14:53:01 5.3 C 4.09 g/m*3 5.3 C 0 km/h
2714 04-03-2008 15:05:02 5.5 C 4.14 g/m*3 5.5 C 0 km/h
2715 04-03-2008 15:17:02 6.1 C 4.16 g/m*3 6.1 C 0 km/h
2716 04-03-2008 15:29:02 5.5 C 3.93 g/m*3 5.5 C 0 km/h
2717 04-03-2008 15:41:01 5.2 C 3.99 g/m*3 5.2 C 0 km/h
2718 04-03-2008 15:53:02 5.4 C 4.12 g/m*3 5.4 C 0 km/h
2719 04-03-2008 16:05:01 5.7 C 3.91 g/m*3 5.7 C 0 km/h
2720 04-03-2008 16:17:01 6 C 3.85 g/m*3 6 C 0 km/h
2721 04-03-2008 16:29:01 6.2 C 3.82 g/m*3 6.2 C 0 km/h
2722 04-03-2008 16:41:02 6.2 C 3.75 g/m*3 6.2 C 0 km/h
2723 04-03-2008 16:53:02 5.5 C 3.86 g/m*3 5.5 C 0 km/h
2724 04-03-2008 17:05:01 5.8 C 3.94 g/m*3 5.8 C 0 km/h
2725 04-03-2008 17:17:01 5.3 C 3.88 g/m*3 5.3 C 0 km/h
Sensor: Nr:Datum:Temp:Abs-Feuchte:Windchill:Wind:
Aussen-T/F 2726 04-03-2008 17:29:01 5.2 C 3.86 g/m*3 5.2 C 0 km/h
2727 04-03-2008 17:41:02 4.9 C 3.98 g/m*3 4.9 C 0 km/h
2728 04-03-2008 17:53:02 4.8 C 4.02 g/m*3 4.8 C 0 km/h
2729 04-03-2008 18:05:02 4.6 C 3.97 g/m*3 4.6 C 0 km/h
2730 04-03-2008 18:17:02 4.5 C 3.88 g/m*3 4.5 C 0 km/h
2731 04-03-2008 18:29:02 4.3 C 3.83 g/m*3 4.3 C 0 km/h
2732 04-03-2008 18:41:02 4.1 C 3.84 g/m*3 4.1 C 0 km/h
2733 04-03-2008 18:53:02 3.9 C 3.79 g/m*3 3.9 C 0 km/h
2734 04-03-2008 19:05:02 3.4 C 3.66 g/m*3 3.4 C 0 km/h
2735 04-03-2008 19:17:02 3.1 C 3.83 g/m*3 3.1 C 0 km/h
2736 04-03-2008 19:29:02 3 C 3.86 g/m*3 3 C 0 km/h
2737 04-03-2008 19:41:02 3.6 C 3.78 g/m*3 3.6 C 0 km/h
2738 04-03-2008 19:53:02 3.8 C 3.64 g/m*3 3.8 C 0 km/h
2739 04-03-2008 20:05:02 4 C 3.62 g/m*3 4 C 0 km/h
2740 04-03-2008 20:17:03 3.9 C 3.73 g/m*3 3.9 C 0 km/h
2741 04-03-2008 20:29:03 3.7 C 3.61 g/m*3 3.7 C 0 km/h
2742 04-03-2008 20:41:02 3.3 C 3.52 g/m*3 3.3 C 0 km/h
2743 04-03-2008 20:53:02 3 C 3.45 g/m*3 3 C 0 km/h
2744 04-03-2008 21:05:02 3 C 3.51 g/m*3 3 C 0 km/h
2745 04-03-2008 21:17:01 3.5 C 3.32 g/m*3 3.5 C 0 km/h
2746 04-03-2008 21:29:01 3.3 C 3.46 g/m*3 3.3 C 0 km/h
2747 04-03-2008 21:42:02 3.1 C 3.65 g/m*3 3.1 C 0 km/h
2748 04-03-2008 21:54:02 3 C 3.81 g/m*3 3 C 0 km/h
2749 04-03-2008 22:06:02 2.5 C 3.91 g/m*3 2.5 C 0 km/h
2750 04-03-2008 22:18:02 2 C 3.83 g/m*3 2 C 0 km/h
Sensor: Nr:Datum:Temp:Abs-Feuchte:Windchill:Wind:
Aussen-T/F 2751 04-03-2008 22:30:02 1.7 C 3.92 g/m*3 1.7 C 0 km/h
2752 04-03-2008 22:42:02 1.4 C 3.89 g/m*3 1.4 C 0 km/h
2753 04-03-2008 22:54:03 1.5 C 4.03 g/m*3 1.5 C 0 km/h
2754 04-03-2008 23:06:03 1.7 C 4.08 g/m*3 1.7 C 0 km/h
2755 04-03-2008 23:18:03 1.5 C 3.97 g/m*3 1.5 C 0 km/h
2756 04-03-2008 23:30:03 1.5 C 4.03 g/m*3 1.5 C 0 km/h
2757 04-03-2008 23:42:03 1.7 C 4.03 g/m*3 1.7 C 0 km/h
2758 04-03-2008 23:54:03 2 C 3.89 g/m*3 2 C 0 km/h
2759 05-03-2008 00:06:03 1.9 C 3.92 g/m*3 1.9 C 0 km/h
2760 05-03-2008 00:18:03 1.9 C 3.92 g/m*3 1.9 C 0 km/h
2761 05-03-2008 00:30:03 1.7 C 3.92 g/m*3 1.7 C 0 km/h
2762 05-03-2008 00:42:03 1.5 C 3.71 g/m*3 1.5 C 0 km/h
2763 05-03-2008 00:54:03 1.5 C 3.6 g/m*3 1.5 C 0 km/h
2764 05-03-2008 01:06:03 1.4 C 3.57 g/m*3 1.4 C 0 km/h
2765 05-03-2008 01:18:03 1.3 C 3.6 g/m*3 1.3 C 0 km/h
2766 05-03-2008 01:30:03 1.3 C 3.5 g/m*3 1.3 C 0 km/h
2767 05-03-2008 01:42:03 1.2 C 3.53 g/m*3 1.2 C 0 km/h
2768 05-03-2008 01:54:03 0.9 C 3.51 g/m*3 0.9 C 0 km/h
2769 05-03-2008 02:06:03 0.7 C 3.51 g/m*3 0.7 C 0 km/h
2770 05-03-2008 02:18:03 0.5 C 3.46 g/m*3 0.5 C 0 km/h
2771 05-03-2008 02:30:03 0.4 C 3.39 g/m*3 0.4 C 0 km/h
2772 05-03-2008 02:42:03 0.3 C 3.36 g/m*3 0.3 C 0 km/h
2773 05-03-2008 02:54:04 0.1 C 3.27 g/m*3 0.1 C 0 km/h
2774 05-03-2008 03:06:04 0.1 C 3.27 g/m*3 0.1 C 0 km/h
2775 05-03-2008 03:18:04 0 C 3.25 g/m*3 0 C 0 km/h
Sensor: Nr:Datum:Temp:Abs-Feuchte:Windchill:Wind:
Aussen-T/F 2776 05-03-2008 03:30:04 -0.2 C 3.3 g/m*3 -0.2 C 0 km/h
2777 05-03-2008 03:42:04 -0.4 C 3.25 g/m*3 -0.4 C 0 km/h
2778 05-03-2008 03:54:04 -0.5 C 3.32 g/m*3 -0.5 C 0 km/h
2779 05-03-2008 04:06:04 -0.5 C 3.37 g/m*3 -0.5 C 0 km/h
2780 05-03-2008 04:18:04 -0.4 C 3.35 g/m*3 -0.4 C 0 km/h
2781 05-03-2008 04:30:04 -0.4 C 3.35 g/m*3 -0.4 C 0 km/h
2782 05-03-2008 04:42:04 -0.6 C 3.3 g/m*3 -0.6 C 0 km/h
2783 05-03-2008 04:54:04 -0.6 C 3.39 g/m*3 -0.6 C 0 km/h
2784 05-03-2008 05:06:04 -0.5 C 3.46 g/m*3 -0.5 C 0 km/h
2785 05-03-2008 05:18:04 -0.3 C 3.51 g/m*3 -0.3 C 0 km/h
2786 05-03-2008 05:30:04 -0.4 C 3.44 g/m*3 -0.4 C 0 km/h
2787 05-03-2008 05:42:04 -0.4 C 3.44 g/m*3 -0.4 C 0 km/h
2788 05-03-2008 05:54:04 -0.7 C 3.42 g/m*3 -0.7 C 0 km/h
2789 05-03-2008 06:06:04 -0.7 C 3.42 g/m*3 -0.7 C 0 km/h
2790 05-03-2008 06:18:04 -0.5 C 3.42 g/m*3 -0.5 C 0 km/h
2791 05-03-2008 06:30:04 -0.9 C 3.32 g/m*3 -0.9 C 0 km/h
2792 05-03-2008 06:42:04 -0.9 C 3.37 g/m*3 -0.9 C 0 km/h
2793 05-03-2008 06:54:04 -0.8 C 3.39 g/m*3 -0.8 C 0 km/h
2794 05-03-2008 07:06:02 -0.8 C 3.35 g/m*3 -0.8 C 0 km/h
2795 05-03-2008 07:18:02 -1 C 3.35 g/m*3 -1 C 0 km/h
2796 05-03-2008 07:30:02 -0.9 C 3.37 g/m*3 -0.9 C 0 km/h
2797 05-03-2008 07:42:02 -0.5 C 3.42 g/m*3 -0.5 C 0 km/h
2798 05-03-2008 07:54:02 -0.4 C 3.35 g/m*3 -0.4 C 0 km/h
2799 05-03-2008 08:06:04 -0.2 C 3.35 g/m*3 -0.2 C 0 km/h
2800 05-03-2008 08:18:02 0 C 3.34 g/m*3 0 C 0 km/h
Sensor: Nr:Datum:Temp:Abs-Feuchte:Windchill:Wind:
Aussen-T/F 2801 05-03-2008 08:30:02 0 C 3.29 g/m*3 0 C 0 km/h
2802 05-03-2008 08:42:02 0 C 3.2 g/m*3 0 C 0 km/h
2803 05-03-2008 08:54:02 -0.1 C 3.18 g/m*3 -0.1 C 0 km/h
2804 05-03-2008 09:06:03 0.5 C 3.31 g/m*3 0.5 C 0 km/h
2805 05-03-2008 09:18:02 0.6 C 3.18 g/m*3 0.6 C 0 km/h
2806 05-03-2008 09:30:02 0.9 C 3.2 g/m*3 0.9 C 0 km/h
2807 05-03-2008 09:42:02 0.8 C 3.12 g/m*3 0.8 C 0 km/h
2808 05-03-2008 09:54:01 0.6 C 3.13 g/m*3 0.6 C 0 km/h
2809 05-03-2008 10:06:01 0.9 C 3.14 g/m*3 0.9 C 0 km/h
2810 05-03-2008 10:18:02 1.4 C 3.09 g/m*3 1.4 C 0 km/h
2811 05-03-2008 10:30:02 1.7 C 3.1 g/m*3 1.7 C 0 km/h
2812 05-03-2008 10:42:02 2.2 C 3.1 g/m*3 2.2 C 0 km/h
2813 05-03-2008 10:54:02 2.5 C 2.99 g/m*3 2.5 C 0 km/h
2814 05-03-2008 11:06:02 3.1 C 2.93 g/m*3 3.1 C 0 km/h
2815 05-03-2008 11:18:02 2.8 C 2.87 g/m*3 2.8 C 0 km/h
2816 05-03-2008 11:30:02 2.5 C 2.87 g/m*3 2.5 C 0 km/h
2817 05-03-2008 11:42:02 3.1 C 2.81 g/m*3 3.1 C 0 km/h
2818 05-03-2008 11:54:02 3.2 C 2.59 g/m*3 3.2 C 0 km/h
2819 05-03-2008 12:06:02 3 C 2.62 g/m*3 3 C 0 km/h
2820 05-03-2008 12:18:01 3.8 C 2.63 g/m*3 3.8 C 0 km/h
2821 05-03-2008 12:30:01 4.3 C 2.27 g/m*3 4.3 C 0 km/h
2822 05-03-2008 12:42:01 3.5 C 2.52 g/m*3 3.5 C 0 km/h
2823 05-03-2008 12:54:02 4.3 C 2.53 g/m*3 4.3 C 0 km/h
2824 05-03-2008 13:06:02 4.6 C 2.25 g/m*3 4.6 C 0 km/h
2825 05-03-2008 13:18:02 5.3 C 2.08 g/m*3 5.3 C 0 km/h
Sensor: Nr:Datum:Temp:Abs-Feuchte:Windchill:Wind:
Aussen-T/F 2826 05-03-2008 13:30:02 4.3 C 1.82 g/m*3 4.3 C 0 km/h
2827 05-03-2008 13:42:02 5.7 C 1.85 g/m*3 5.7 C 0 km/h
2828 05-03-2008 13:54:02 3.8 C 2.63 g/m*3 3.8 C 0 km/h
2829 05-03-2008 14:06:02 3.7 C 2.87 g/m*3 3.7 C 0 km/h
2830 05-03-2008 14:18:01 4.8 C 2.62 g/m*3 4.8 C 0 km/h
2831 05-03-2008 14:30:01 5.3 C 2.5 g/m*3 5.3 C 0 km/h
2832 05-03-2008 14:42:02 6 C 2.18 g/m*3 6 C 0 km/h
2833 05-03-2008 14:54:02 6.5 C 2.02 g/m*3 6.5 C 0 km/h
2834 05-03-2008 15:06:01 4.9 C 2.23 g/m*3 4.9 C 0 km/h
2835 05-03-2008 15:18:01 4.5 C 2.43 g/m*3 4.5 C 0 km/h
2836 05-03-2008 15:30:01 6.1 C 2.34 g/m*3 6.1 C 0 km/h
2837 05-03-2008 15:42:01 6.7 C 2.13 g/m*3 6.7 C 0 km/h
2838 05-03-2008 15:54:02 5.4 C 2.3 g/m*3 5.4 C 0 km/h
2839 05-03-2008 16:06:01 5.2 C 2.27 g/m*3 5.2 C 0 km/h
2840 05-03-2008 16:18:02 5.5 C 2.18 g/m*3 5.5 C 0 km/h
2841 05-03-2008 16:30:02 6.1 C 2.05 g/m*3 6.1 C 0 km/h
2842 05-03-2008 16:42:02 6.9 C 2.31 g/m*3 6.9 C 0 km/h
2843 05-03-2008 16:54:02 6.7 C 2.05 g/m*3 6.7 C 0 km/h
2844 05-03-2008 17:06:02 6.3 C 1.85 g/m*3 6.3 C 0 km/h
2845 05-03-2008 17:18:02 5.7 C 1.78 g/m*3 5.7 C 0 km/h
2846 05-03-2008 17:30:03 6.1 C 1.9 g/m*3 6.1 C 0 km/h
2847 05-03-2008 17:42:02 5.7 C 1.92 g/m*3 5.7 C 0 km/h
2848 05-03-2008 17:54:02 5 C 2.04 g/m*3 5 C 0 km/h
2849 05-03-2008 18:06:02 4.4 C 2.09 g/m*3 4.4 C 0 km/h
2850 05-03-2008 18:18:02 3.8 C 2.57 g/m*3 3.8 C 0 km/h
Sensor: Nr:Datum:Temp:Abs-Feuchte:Windchill:Wind:
Aussen-T/F 2851 05-03-2008 18:30:02 3.2 C 2.59 g/m*3 3.2 C 0 km/h
2852 05-03-2008 18:42:03 2.7 C 2.74 g/m*3 2.7 C 0 km/h
2853 05-03-2008 18:54:02 2.3 C 2.67 g/m*3 2.3 C 0 km/h
2854 05-03-2008 19:06:02 2 C 2.67 g/m*3 2 C 0 km/h
2855 05-03-2008 19:18:02 1.7 C 2.72 g/m*3 1.7 C 0 km/h
2856 05-03-2008 19:30:02 1.5 C 2.79 g/m*3 1.5 C 0 km/h
2857 05-03-2008 19:42:01 1.3 C 2.86 g/m*3 1.3 C 0 km/h
2858 05-03-2008 19:54:02 1.2 C 2.89 g/m*3 1.2 C 0 km/h
2859 05-03-2008 20:06:02 0.9 C 2.94 g/m*3 0.9 C 0 km/h
2860 05-03-2008 20:18:02 0.7 C 2.95 g/m*3 0.7 C 0 km/h
2861 05-03-2008 20:30:02 0.6 C 2.88 g/m*3 0.6 C 0 km/h
2862 05-03-2008 20:42:02 0.5 C 2.86 g/m*3 0.5 C 0 km/h
2863 05-03-2008 20:54:02 0.4 C 2.89 g/m*3 0.4 C 0 km/h
2864 05-03-2008 21:06:01 0.3 C 2.82 g/m*3 0.3 C 0 km/h
2865 05-03-2008 21:18:02 0.1 C 2.83 g/m*3 0.1 C 0 km/h
2866 05-03-2008 21:30:02 0 C 2.91 g/m*3 0 C 0 km/h
2867 05-03-2008 21:42:01 0 C 2.91 g/m*3 0 C 0 km/h
2868 05-03-2008 21:54:02 -0.2 C 2.91 g/m*3 -0.2 C 0 km/h
2869 05-03-2008 22:07:02 -0.2 C 2.91 g/m*3 -0.2 C 0 km/h
2870 05-03-2008 22:19:02 -0.3 C 2.94 g/m*3 -0.3 C 0 km/h
2871 05-03-2008 22:31:02 -0.5 C 2.9 g/m*3 -0.5 C 0 km/h
2872 05-03-2008 22:43:02 -0.7 C 2.86 g/m*3 -0.7 C 0 km/h
2873 05-03-2008 22:55:02 -0.8 C 2.89 g/m*3 -0.8 C 0 km/h
2874 05-03-2008 23:07:02 -0.9 C 2.91 g/m*3 -0.9 C 0 km/h
2875 05-03-2008 23:19:02 -1 C 2.89 g/m*3 -1 C 0 km/h
Sensor: Nr:Datum:Temp:Abs-Feuchte:Windchill:Wind:
Aussen-T/F 2876 05-03-2008 23:31:02 -1.1 C 2.87 g/m*3 -1.1 C 0 km/h
2877 05-03-2008 23:43:02 -1.1 C 2.92 g/m*3 -1.1 C 0 km/h
2878 05-03-2008 23:55:02 -1.2 C 2.94 g/m*3 -1.2 C 0 km/h
2879 06-03-2008 00:07:02 -1.1 C 2.92 g/m*3 -1.1 C 0 km/h
2880 06-03-2008 00:19:02 -1.3 C 2.92 g/m*3 -1.3 C 0 km/h
2881 06-03-2008 00:31:02 -1.4 C 2.9 g/m*3 -1.4 C 0 km/h
2882 06-03-2008 00:43:03 -1.3 C 2.92 g/m*3 -1.3 C 0 km/h
2883 06-03-2008 00:55:03 -1.3 C 2.97 g/m*3 -1.3 C 0 km/h
2884 06-03-2008 01:07:03 -1.3 C 2.97 g/m*3 -1.3 C 0 km/h
2885 06-03-2008 01:19:03 -1.3 C 2.97 g/m*3 -1.3 C 0 km/h
2886 06-03-2008 01:31:03 -1.2 C 2.94 g/m*3 -1.2 C 0 km/h
2887 06-03-2008 01:43:03 -1.2 C 2.94 g/m*3 -1.2 C 0 km/h
2888 06-03-2008 01:55:03 -1.2 C 2.94 g/m*3 -1.2 C 0 km/h
2889 06-03-2008 02:07:03 -1.2 C 2.9 g/m*3 -1.2 C 0 km/h
2890 06-03-2008 02:19:03 -1.1 C 2.92 g/m*3 -1.1 C 0 km/h
2891 06-03-2008 02:31:03 -1.1 C 2.92 g/m*3 -1.1 C 0 km/h
2892 06-03-2008 02:43:03 -1.2 C 2.9 g/m*3 -1.2 C 0 km/h
2893 06-03-2008 02:55:03 -1.3 C 2.88 g/m*3 -1.3 C 0 km/h
2894 06-03-2008 03:07:03 -1.3 C 2.92 g/m*3 -1.3 C 0 km/h
2895 06-03-2008 03:19:03 -1.3 C 2.88 g/m*3 -1.3 C 0 km/h
2896 06-03-2008 03:31:03 -1.3 C 2.88 g/m*3 -1.3 C 0 km/h
2897 06-03-2008 03:43:03 -1.3 C 2.88 g/m*3 -1.3 C 0 km/h
2898 06-03-2008 03:55:03 -1.4 C 2.86 g/m*3 -1.4 C 0 km/h
2899 06-03-2008 04:07:03 -1.3 C 2.88 g/m*3 -1.3 C 0 km/h
2900 06-03-2008 04:19:03 -1.4 C 2.86 g/m*3 -1.4 C 0 km/h
Sensor: Nr:Datum:Temp:Abs-Feuchte:Windchill:Wind:
Aussen-T/F 2901 06-03-2008 04:31:03 -1.2 C 2.85 g/m*3 -1.2 C 0 km/h
2902 06-03-2008 04:43:03 -1.2 C 2.85 g/m*3 -1.2 C 0 km/h
2903 06-03-2008 04:55:04 -1.5 C 2.79 g/m*3 -1.5 C 0 km/h
2904 06-03-2008 05:07:04 -1.4 C 2.81 g/m*3 -1.4 C 0 km/h
2905 06-03-2008 05:19:04 -1.5 C 2.75 g/m*3 -1.5 C 0 km/h
2906 06-03-2008 05:31:04 -1.3 C 2.79 g/m*3 -1.3 C 0 km/h
2907 06-03-2008 05:43:04 -1 C 2.71 g/m*3 -1 C 0 km/h
2908 06-03-2008 05:55:04 -0.5 C 2.62 g/m*3 -0.5 C 0 km/h
2909 06-03-2008 06:07:04 -0.2 C 2.58 g/m*3 -0.2 C 0 km/h
2910 06-03-2008 06:19:04 0.3 C 2.57 g/m*3 0.3 C 0 km/h
2911 06-03-2008 06:31:04 0.6 C 2.52 g/m*3 0.6 C 0 km/h
2912 06-03-2008 06:43:04 0.8 C 2.56 g/m*3 0.8 C 0 km/h
2913 06-03-2008 06:55:04 0.8 C 2.56 g/m*3 0.8 C 0 km/h
2914 06-03-2008 07:07:02 0.9 C 2.63 g/m*3 0.9 C 0 km/h
2915 06-03-2008 07:19:02 0.9 C 2.63 g/m*3 0.9 C 0 km/h
2916 06-03-2008 07:31:02 0.8 C 2.66 g/m*3 0.8 C 0 km/h
2917 06-03-2008 07:43:02 0.8 C 2.61 g/m*3 0.8 C 0 km/h
2918 06-03-2008 07:55:02 0.9 C 2.58 g/m*3 0.9 C 0 km/h
2919 06-03-2008 08:07:02 1 C 2.54 g/m*3 1 C 0 km/h
2920 06-03-2008 08:19:02 1.1 C 2.56 g/m*3 1.1 C 0 km/h
2921 06-03-2008 08:31:03 1.1 C 2.56 g/m*3 1.1 C 0 km/h
2922 06-03-2008 08:43:03 1.3 C 2.54 g/m*3 1.3 C 0 km/h
2923 06-03-2008 08:55:02 1.5 C 2.58 g/m*3 1.5 C 0 km/h
2924 06-03-2008 09:07:02 1.5 C 2.58 g/m*3 1.5 C 0 km/h
2925 06-03-2008 09:19:01 1.7 C 2.61 g/m*3 1.7 C 0 km/h
Sensor: Nr:Datum:Temp:Abs-Feuchte:Windchill:Wind:
Aussen-T/F 2926 06-03-2008 09:31:02 1.8 C 2.58 g/m*3 1.8 C 0 km/h
2927 06-03-2008 09:43:02 2 C 2.56 g/m*3 2 C 0 km/h
2928 06-03-2008 09:55:02 2.1 C 2.57 g/m*3 2.1 C 0 km/h
2929 06-03-2008 10:07:01 2.2 C 2.59 g/m*3 2.2 C 0 km/h
2930 06-03-2008 10:19:01 2.4 C 2.63 g/m*3 2.4 C 0 km/h
2931 06-03-2008 10:31:02 2.6 C 2.66 g/m*3 2.6 C 0 km/h
2932 06-03-2008 10:43:02 2.8 C 2.64 g/m*3 2.8 C 0 km/h
2933 06-03-2008 10:55:02 3 C 2.62 g/m*3 3 C 0 km/h
2934 06-03-2008 11:07:02 3.2 C 2.65 g/m*3 3.2 C 0 km/h
2935 06-03-2008 11:19:02 3.5 C 2.64 g/m*3 3.5 C 0 km/h
2936 06-03-2008 11:31:02 4 C 2.67 g/m*3 4 C 0 km/h
2937 06-03-2008 11:43:02 4 C 2.61 g/m*3 4 C 0 km/h
2938 06-03-2008 11:55:01 4 C 2.61 g/m*3 4 C 0 km/h
2939 06-03-2008 12:07:01 4.4 C 2.68 g/m*3 4.4 C 0 km/h
2940 06-03-2008 12:19:02 4.5 C 2.63 g/m*3 4.5 C 0 km/h
2941 06-03-2008 12:31:01 4.3 C 2.66 g/m*3 4.3 C 0 km/h
2942 06-03-2008 12:43:01 4.2 C 2.71 g/m*3 4.2 C 0 km/h
2943 06-03-2008 12:55:02 4.3 C 2.72 g/m*3 4.3 C 0 km/h
2944 06-03-2008 13:07:01 4.6 C 2.71 g/m*3 4.6 C 0 km/h
2945 06-03-2008 13:19:02 4.8 C 2.68 g/m*3 4.8 C 0 km/h
2946 06-03-2008 13:31:02 4.8 C 2.75 g/m*3 4.8 C 0 km/h
2947 06-03-2008 13:43:03 5.2 C 2.75 g/m*3 5.2 C 0 km/h
2948 06-03-2008 13:55:02 5.2 C 2.69 g/m*3 5.2 C 0 km/h
2949 06-03-2008 14:07:02 5.4 C 2.79 g/m*3 5.4 C 0 km/h
2950 06-03-2008 14:19:02 5.4 C 2.79 g/m*3 5.4 C 0 km/h
Sensor: Nr:Datum:Temp:Abs-Feuchte:Windchill:Wind:
Aussen-T/F 2951 06-03-2008 14:31:02 5.6 C 2.83 g/m*3 5.6 C 0 km/h
2952 06-03-2008 14:43:02 5.5 C 2.81 g/m*3 5.5 C 0 km/h
2953 06-03-2008 14:55:02 5.8 C 2.87 g/m*3 5.8 C 0 km/h
2954 06-03-2008 15:07:02 5.7 C 2.85 g/m*3 5.7 C 0 km/h
2955 06-03-2008 15:19:01 6.1 C 2.92 g/m*3 6.1 C 0 km/h
2956 06-03-2008 15:31:02 5.9 C 2.88 g/m*3 5.9 C 0 km/h
2957 06-03-2008 15:43:02 6 C 2.98 g/m*3 6 C 0 km/h
2958 06-03-2008 15:55:01 6.1 C 2.92 g/m*3 6.1 C 0 km/h
2959 06-03-2008 16:07:02 6.1 C 2.92 g/m*3 6.1 C 0 km/h
2960 06-03-2008 16:19:02 6.2 C 3.02 g/m*3 6.2 C 0 km/h
2961 06-03-2008 16:31:01 6.2 C 3.02 g/m*3 6.2 C 0 km/h
2962 06-03-2008 16:43:01 6.3 C 3.03 g/m*3 6.3 C 0 km/h
2963 06-03-2008 16:55:02 6.3 C 3.03 g/m*3 6.3 C 0 km/h
2964 06-03-2008 17:07:01 6.2 C 3.02 g/m*3 6.2 C 0 km/h
2965 06-03-2008 17:19:02 6.1 C 3.07 g/m*3 6.1 C 0 km/h
2966 06-03-2008 17:31:02 6.1 C 3.14 g/m*3 6.1 C 0 km/h
2967 06-03-2008 17:43:02 5.9 C 3.24 g/m*3 5.9 C 0 km/h
2968 06-03-2008 17:55:02 5.7 C 3.2 g/m*3 5.7 C 0 km/h
2969 06-03-2008 18:07:02 5.7 C 3.2 g/m*3 5.7 C 0 km/h
2970 06-03-2008 18:19:02 5.6 C 3.25 g/m*3 5.6 C 0 km/h
2971 06-03-2008 18:31:02 5.4 C 3.28 g/m*3 5.4 C 0 km/h
2972 06-03-2008 18:43:02 5.3 C 3.26 g/m*3 5.3 C 0 km/h
2973 06-03-2008 18:55:02 5.3 C 3.33 g/m*3 5.3 C 0 km/h
2974 06-03-2008 19:07:02 5.3 C 3.33 g/m*3 5.3 C 0 km/h
2975 06-03-2008 19:19:02 5.4 C 3.28 g/m*3 5.4 C 0 km/h
Sensor: Nr:Datum:Temp:Abs-Feuchte:Windchill:Wind:
Aussen-T/F 2976 06-03-2008 19:31:02 5.4 C 3.35 g/m*3 5.4 C 0 km/h
2977 06-03-2008 19:43:02 5.4 C 3.49 g/m*3 5.4 C 0 km/h
2978 06-03-2008 19:55:02 5.3 C 3.53 g/m*3 5.3 C 0 km/h
2979 06-03-2008 20:07:01 5.2 C 3.44 g/m*3 5.2 C 0 km/h
2980 06-03-2008 20:19:02 5.3 C 3.4 g/m*3 5.3 C 0 km/h
2981 06-03-2008 20:31:02 5.3 C 3.47 g/m*3 5.3 C 0 km/h
2982 06-03-2008 20:43:02 5.2 C 3.51 g/m*3 5.2 C 0 km/h
2983 06-03-2008 20:55:02 5.1 C 3.56 g/m*3 5.1 C 0 km/h
2984 06-03-2008 21:07:02 5.2 C 3.51 g/m*3 5.2 C 0 km/h
2985 06-03-2008 21:19:02 5.2 C 3.58 g/m*3 5.2 C 0 km/h
2986 06-03-2008 21:31:03 5.1 C 3.56 g/m*3 5.1 C 0 km/h
2987 06-03-2008 21:43:03 5.2 C 3.58 g/m*3 5.2 C 0 km/h
2988 06-03-2008 21:56:02 5.2 C 3.65 g/m*3 5.2 C 0 km/h
2989 06-03-2008 22:08:02 5.3 C 3.6 g/m*3 5.3 C 0 km/h
2990 06-03-2008 22:20:02 5.2 C 3.65 g/m*3 5.2 C 0 km/h
2991 06-03-2008 22:32:02 5.2 C 3.65 g/m*3 5.2 C 0 km/h
2992 06-03-2008 22:44:02 5.1 C 3.63 g/m*3 5.1 C 0 km/h
2993 06-03-2008 22:56:02 5.1 C 3.56 g/m*3 5.1 C 0 km/h
2994 06-03-2008 23:08:02 5.1 C 3.63 g/m*3 5.1 C 0 km/h
2995 06-03-2008 23:20:03 5.1 C 3.63 g/m*3 5.1 C 0 km/h
2996 06-03-2008 23:32:03 5.1 C 3.63 g/m*3 5.1 C 0 km/h
2997 06-03-2008 23:44:03 5 C 3.67 g/m*3 5 C 0 km/h
2998 06-03-2008 23:56:03 5.1 C 3.69 g/m*3 5.1 C 0 km/h
2999 07-03-2008 00:08:03 5 C 3.74 g/m*3 5 C 0 km/h
3000 07-03-2008 00:20:03 5 C 3.67 g/m*3 5 C 0 km/h
Sensor: Nr:Datum:Temp:Abs-Feuchte:Windchill:Wind:
Aussen-T/F 3001 07-03-2008 00:32:03 5 C 3.87 g/m*3 5 C 0 km/h
3002 07-03-2008 00:44:03 5 C 3.81 g/m*3 5 C 0 km/h
3003 07-03-2008 00:56:03 4.9 C 3.92 g/m*3 4.9 C 0 km/h
3004 07-03-2008 01:08:03 5 C 3.87 g/m*3 5 C 0 km/h
3005 07-03-2008 01:20:03 5 C 3.87 g/m*3 5 C 0 km/h
3006 07-03-2008 01:32:03 4.9 C 3.98 g/m*3 4.9 C 0 km/h
3007 07-03-2008 01:44:03 4.9 C 3.98 g/m*3 4.9 C 0 km/h
3008 07-03-2008 01:56:03 4.9 C 3.92 g/m*3 4.9 C 0 km/h
3009 07-03-2008 02:08:03 4.8 C 3.82 g/m*3 4.8 C 0 km/h
3010 07-03-2008 02:20:03 4.8 C 3.89 g/m*3 4.8 C 0 km/h
3011 07-03-2008 02:32:03 4.8 C 3.89 g/m*3 4.8 C 0 km/h
3012 07-03-2008 02:44:03 4.8 C 3.96 g/m*3 4.8 C 0 km/h
3013 07-03-2008 02:56:03 4.8 C 3.96 g/m*3 4.8 C 0 km/h
3014 07-03-2008 03:08:03 4.8 C 3.96 g/m*3 4.8 C 0 km/h
3015 07-03-2008 03:20:04 4.8 C 4.02 g/m*3 4.8 C 0 km/h
3016 07-03-2008 03:32:04 4.8 C 4.02 g/m*3 4.8 C 0 km/h
3017 07-03-2008 03:44:04 4.8 C 4.02 g/m*3 4.8 C 0 km/h
3018 07-03-2008 03:56:04 4.8 C 4.02 g/m*3 4.8 C 0 km/h
3019 07-03-2008 04:08:04 4.8 C 4.02 g/m*3 4.8 C 0 km/h
3020 07-03-2008 04:20:04 4.8 C 4.09 g/m*3 4.8 C 0 km/h
3021 07-03-2008 04:32:04 4.8 C 4.16 g/m*3 4.8 C 0 km/h
3022 07-03-2008 04:44:04 4.7 C 4.2 g/m*3 4.7 C 0 km/h
3023 07-03-2008 04:56:04 4.5 C 4.27 g/m*3 4.5 C 0 km/h
3024 07-03-2008 05:08:04 4.4 C 4.44 g/m*3 4.4 C 0 km/h
3025 07-03-2008 05:20:04 4.3 C 4.61 g/m*3 4.3 C 0 km/h
Sensor: Nr:Datum:Temp:Abs-Feuchte:Windchill:Wind:
Aussen-T/F 3026 07-03-2008 05:32:04 4.2 C 4.7 g/m*3 4.2 C 0 km/h
3027 07-03-2008 05:44:04 4.3 C 4.74 g/m*3 4.3 C 0 km/h
3028 07-03-2008 05:56:04 4.4 C 4.77 g/m*3 4.4 C 0 km/h
3029 07-03-2008 06:08:04 4.2 C 4.77 g/m*3 4.2 C 0 km/h
3030 07-03-2008 06:20:04 3.9 C 4.74 g/m*3 3.9 C 0 km/h
3031 07-03-2008 06:32:04 3.7 C 4.8 g/m*3 3.7 C 0 km/h
3032 07-03-2008 06:44:04 3.4 C 4.76 g/m*3 3.4 C 0 km/h
3033 07-03-2008 06:56:04 3.4 C 4.83 g/m*3 3.4 C 0 km/h
3034 07-03-2008 07:08:03 3.3 C 4.79 g/m*3 3.3 C 0 km/h
3035 07-03-2008 07:20:03 3 C 4.7 g/m*3 3 C 0 km/h
3036 07-03-2008 07:32:02 2.9 C 4.78 g/m*3 2.9 C 0 km/h
3037 07-03-2008 07:44:02 2.7 C 4.72 g/m*3 2.7 C 0 km/h
3038 07-03-2008 07:56:01 2.8 C 4.87 g/m*3 2.8 C 0 km/h
3039 07-03-2008 08:08:02 3 C 4.88 g/m*3 3 C 0 km/h
3040 07-03-2008 08:20:02 3.2 C 5 g/m*3 3.2 C 0 km/h
3041 07-03-2008 08:32:01 3.7 C 5.23 g/m*3 3.7 C 0 km/h
3042 07-03-2008 08:44:01 4.4 C 5.42 g/m*3 4.4 C 0 km/h
3043 07-03-2008 08:56:01 5 C 5.5 g/m*3 5 C 0 km/h
3044 07-03-2008 09:08:02 5.4 C 5.3 g/m*3 5.4 C 0 km/h
3045 07-03-2008 09:20:02 5.8 C 5.23 g/m*3 5.8 C 0 km/h
3046 07-03-2008 09:32:02 6.2 C 5.07 g/m*3 6.2 C 0 km/h
3047 07-03-2008 09:44:02 6.3 C 4.89 g/m*3 6.3 C 0 km/h
3048 07-03-2008 09:56:02 6.4 C 4.84 g/m*3 6.4 C 0 km/h
3049 07-03-2008 10:08:02 6.9 C 5 g/m*3 6.9 C 0 km/h
3050 07-03-2008 10:20:02 7 C 4.8 g/m*3 7 C 0 km/h
Sensor: Nr:Datum:Temp:Abs-Feuchte:Windchill:Wind:
Aussen-T/F 3051 07-03-2008 10:32:02 7.4 C 4.93 g/m*3 7.4 C 0 km/h
3052 07-03-2008 10:44:02 7.4 C 4.77 g/m*3 7.4 C 0 km/h
3053 07-03-2008 10:56:02 7.6 C 4.83 g/m*3 7.6 C 0 km/h
3054 07-03-2008 11:08:02 7.8 C 4.9 g/m*3 7.8 C 0 km/h
3055 07-03-2008 11:20:01 7.7 C 4.78 g/m*3 7.7 C 0 km/h
3056 07-03-2008 11:32:01 7.9 C 4.85 g/m*3 7.9 C 0 km/h
3057 07-03-2008 11:44:01 8.1 C 4.83 g/m*3 8.1 C 0 km/h
3058 07-03-2008 11:56:01 8.4 C 4.84 g/m*3 8.4 C 0 km/h
3059 07-03-2008 12:08:02 8.5 C 4.78 g/m*3 8.5 C 0 km/h
3060 07-03-2008 12:20:02 8.4 C 4.75 g/m*3 8.4 C 0 km/h
3061 07-03-2008 12:32:01 8.3 C 4.72 g/m*3 8.3 C 0 km/h
3062 07-03-2008 12:44:01 8.5 C 4.78 g/m*3 8.5 C 0 km/h
3063 07-03-2008 12:56:01 8.6 C 4.81 g/m*3 8.6 C 0 km/h
3064 07-03-2008 13:08:02 8.8 C 4.79 g/m*3 8.8 C 0 km/h
3065 07-03-2008 13:20:02 9.6 C 4.76 g/m*3 9.6 C 0 km/h
3066 07-03-2008 13:32:02 10.5 C 4.75 g/m*3 10.5 C 0 km/h
3067 07-03-2008 13:44:02 10.5 C 4.56 g/m*3 10.5 C 0 km/h
3068 07-03-2008 13:56:02 10.5 C 4.56 g/m*3 10.5 C 0 km/h
3069 07-03-2008 14:08:02 10.7 C 4.62 g/m*3 10.7 C 0 km/h
3070 07-03-2008 14:20:02 10.7 C 4.52 g/m*3 10.7 C 0 km/h
3071 07-03-2008 14:32:02 11 C 4.6 g/m*3 11 C 0 km/h
3072 07-03-2008 14:44:02 10.9 C 4.48 g/m*3 10.9 C 0 km/h
3073 07-03-2008 14:56:01 10.8 C 4.55 g/m*3 10.8 C 0 km/h
3074 07-03-2008 15:08:01 11.6 C 4.68 g/m*3 11.6 C 0 km/h
3075 07-03-2008 15:20:02 11.8 C 4.74 g/m*3 11.8 C 0 km/h
Sensor: Nr:Datum:Temp:Abs-Feuchte:Windchill:Wind:
Aussen-T/F 3076 07-03-2008 15:32:01 11.1 C 4.53 g/m*3 11.1 C 0 km/h
3077 07-03-2008 15:44:01 10.6 C 4.59 g/m*3 10.6 C 0 km/h
3078 07-03-2008 15:56:02 10.3 C 4.6 g/m*3 10.3 C 0 km/h
3079 07-03-2008 16:08:02 10.1 C 4.73 g/m*3 10.1 C 0 km/h
3080 07-03-2008 16:20:02 9.9 C 4.76 g/m*3 9.9 C 0 km/h
3081 07-03-2008 16:32:03 9.8 C 4.82 g/m*3 9.8 C 0 km/h
3082 07-03-2008 16:44:03 9.5 C 4.73 g/m*3 9.5 C 0 km/h
3083 07-03-2008 16:56:03 9.2 C 4.73 g/m*3 9.2 C 0 km/h
3084 07-03-2008 17:08:02 9.3 C 4.85 g/m*3 9.3 C 0 km/h
3085 07-03-2008 17:20:02 9.4 C 4.88 g/m*3 9.4 C 0 km/h
3086 07-03-2008 17:32:03 9.5 C 4.92 g/m*3 9.5 C 0 km/h
3087 07-03-2008 17:44:04 9.4 C 4.97 g/m*3 9.4 C 0 km/h
3088 07-03-2008 17:56:02 9.3 C 5.03 g/m*3 9.3 C 0 km/h
3089 07-03-2008 18:08:01 9.2 C 5.09 g/m*3 9.2 C 0 km/h
3090 07-03-2008 18:20:01 9 C 5.11 g/m*3 9 C 0 km/h
3091 07-03-2008 18:32:01 8.8 C 5.22 g/m*3 8.8 C 0 km/h
3092 07-03-2008 18:44:01 8.6 C 5.24 g/m*3 8.6 C 0 km/h
3093 07-03-2008 18:56:02 8.5 C 5.21 g/m*3 8.5 C 0 km/h
3094 07-03-2008 19:08:01 8.4 C 5.17 g/m*3 8.4 C 0 km/h
3095 07-03-2008 19:20:02 8.4 C 5.09 g/m*3 8.4 C 0 km/h
3096 07-03-2008 19:32:02 8.4 C 5.01 g/m*3 8.4 C 0 km/h
3097 07-03-2008 19:44:02 8.4 C 4.67 g/m*3 8.4 C 0 km/h
3098 07-03-2008 19:56:02 8.2 C 4.77 g/m*3 8.2 C 0 km/h
3099 07-03-2008 20:08:02 7.9 C 4.93 g/m*3 7.9 C 0 km/h
3100 07-03-2008 20:20:03 7.7 C 5.11 g/m*3 7.7 C 0 km/h
Sensor: Nr:Datum:Temp:Abs-Feuchte:Windchill:Wind:
Aussen-T/F 3101 07-03-2008 20:32:02 7.7 C 5.19 g/m*3 7.7 C 0 km/h
3102 07-03-2008 20:44:03 7.7 C 5.11 g/m*3 7.7 C 0 km/h
3103 07-03-2008 20:56:02 7.6 C 5.08 g/m*3 7.6 C 0 km/h
3104 07-03-2008 21:08:02 7.6 C 5.08 g/m*3 7.6 C 0 km/h
3105 07-03-2008 21:20:02 7.5 C 5.04 g/m*3 7.5 C 0 km/h
3106 07-03-2008 21:32:02 7.5 C 4.96 g/m*3 7.5 C 0 km/h
3107 07-03-2008 21:44:02 7.5 C 4.96 g/m*3 7.5 C 0 km/h
3108 07-03-2008 21:56:02 7.4 C 4.93 g/m*3 7.4 C 0 km/h
3109 07-03-2008 22:09:02 7.4 C 5.01 g/m*3 7.4 C 0 km/h
3110 07-03-2008 22:21:02 7.4 C 5.01 g/m*3 7.4 C 0 km/h
3111 07-03-2008 22:33:03 7.3 C 4.9 g/m*3 7.3 C 0 km/h
3112 07-03-2008 22:45:03 7.2 C 4.95 g/m*3 7.2 C 0 km/h
3113 07-03-2008 22:57:03 7.1 C 4.99 g/m*3 7.1 C 0 km/h
3114 07-03-2008 23:09:03 7.1 C 4.99 g/m*3 7.1 C 0 km/h
3115 07-03-2008 23:21:03 7 C 4.96 g/m*3 7 C 0 km/h
3116 07-03-2008 23:33:03 7.1 C 4.91 g/m*3 7.1 C 0 km/h
3117 07-03-2008 23:45:03 7.1 C 4.84 g/m*3 7.1 C 0 km/h
3118 07-03-2008 23:57:03 7.1 C 4.84 g/m*3 7.1 C 0 km/h
3119 08-03-2008 00:09:03 7 C 4.8 g/m*3 7 C 0 km/h
3120 08-03-2008 00:21:03 7.1 C 4.84 g/m*3 7.1 C 0 km/h
3121 08-03-2008 00:33:03 7 C 4.88 g/m*3 7 C 0 km/h
3122 08-03-2008 00:45:03 6.9 C 5 g/m*3 6.9 C 0 km/h
3123 08-03-2008 00:57:03 6.8 C 5.05 g/m*3 6.8 C 0 km/h
3124 08-03-2008 01:09:03 6.7 C 5.17 g/m*3 6.7 C 0 km/h
3125 08-03-2008 01:21:03 6.7 C 5.24 g/m*3 6.7 C 0 km/h
Sensor: Nr:Datum:Temp:Abs-Feuchte:Windchill:Wind:
Aussen-T/F 3126 08-03-2008 01:33:03 6.7 C 5.24 g/m*3 6.7 C 0 km/h
3127 08-03-2008 01:45:03 6.7 C 5.24 g/m*3 6.7 C 0 km/h
3128 08-03-2008 01:57:03 6.7 C 5.17 g/m*3 6.7 C 0 km/h
3129 08-03-2008 02:09:03 6.7 C 5.17 g/m*3 6.7 C 0 km/h
3130 08-03-2008 02:21:04 6.7 C 5.24 g/m*3 6.7 C 0 km/h
3131 08-03-2008 02:33:04 6.4 C 5.29 g/m*3 6.4 C 0 km/h
3132 08-03-2008 02:45:04 6.2 C 5.44 g/m*3 6.2 C 0 km/h
3133 08-03-2008 02:57:04 6.1 C 5.48 g/m*3 6.1 C 0 km/h
3134 08-03-2008 03:09:04 6.1 C 5.55 g/m*3 6.1 C 0 km/h
3135 08-03-2008 03:21:04 6 C 5.59 g/m*3 6 C 0 km/h
3136 08-03-2008 03:33:04 5.9 C 5.7 g/m*3 5.9 C 0 km/h
3137 08-03-2008 03:45:04 5.9 C 5.77 g/m*3 5.9 C 0 km/h
3138 08-03-2008 03:57:04 5.9 C 5.77 g/m*3 5.9 C 0 km/h
3139 08-03-2008 04:09:04 5.9 C 5.77 g/m*3 5.9 C 0 km/h
3140 08-03-2008 04:21:04 5.8 C 5.73 g/m*3 5.8 C 0 km/h
3141 08-03-2008 04:33:04 5.7 C 5.76 g/m*3 5.7 C 0 km/h
3142 08-03-2008 04:45:04 5.7 C 5.84 g/m*3 5.7 C 0 km/h
3143 08-03-2008 04:57:04 5.7 C 5.76 g/m*3 5.7 C 0 km/h
3144 08-03-2008 05:09:04 5.7 C 5.76 g/m*3 5.7 C 0 km/h
3145 08-03-2008 05:21:04 5.5 C 5.69 g/m*3 5.5 C 0 km/h
3146 08-03-2008 05:33:04 5.3 C 5.61 g/m*3 5.3 C 0 km/h
3147 08-03-2008 05:45:04 5.2 C 5.65 g/m*3 5.2 C 0 km/h
3148 08-03-2008 05:57:04 4.9 C 5.54 g/m*3 4.9 C 0 km/h
3149 08-03-2008 06:09:04 4.6 C 5.43 g/m*3 4.6 C 0 km/h
3150 08-03-2008 06:21:05 4.4 C 5.35 g/m*3 4.4 C 0 km/h
Sensor: Nr:Datum:Temp:Abs-Feuchte:Windchill:Wind:
Aussen-T/F 3151 08-03-2008 06:33:05 4.2 C 5.28 g/m*3 4.2 C 0 km/h
3152 08-03-2008 06:45:05 4.2 C 5.35 g/m*3 4.2 C 0 km/h
3153 08-03-2008 06:57:05 3.9 C 5.31 g/m*3 3.9 C 0 km/h
3154 08-03-2008 07:09:05 4.2 C 5.41 g/m*3 4.2 C 0 km/h
3155 08-03-2008 07:21:05 4.1 C 5.44 g/m*3 4.1 C 0 km/h
3156 08-03-2008 07:33:05 4.1 C 5.5 g/m*3 4.1 C 0 km/h
3157 08-03-2008 07:45:05 4.1 C 5.5 g/m*3 4.1 C 0 km/h
3158 08-03-2008 07:57:05 4.4 C 5.68 g/m*3 4.4 C 0 km/h
3159 08-03-2008 08:09:05 4.4 C 5.62 g/m*3 4.4 C 0 km/h
3160 08-03-2008 08:21:05 4.3 C 5.58 g/m*3 4.3 C 0 km/h
3161 08-03-2008 08:33:05 4 C 5.4 g/m*3 4 C 0 km/h
3162 08-03-2008 08:45:05 4 C 5.53 g/m*3 4 C 0 km/h
3163 08-03-2008 08:57:05 4.1 C 5.63 g/m*3 4.1 C 0 km/h
3164 08-03-2008 09:09:05 4.4 C 5.75 g/m*3 4.4 C 0 km/h
3165 08-03-2008 09:21:05 4.5 C 5.72 g/m*3 4.5 C 0 km/h
3166 08-03-2008 09:33:05 4.8 C 5.77 g/m*3 4.8 C 0 km/h
3167 08-03-2008 09:45:02 5.2 C 5.58 g/m*3 5.2 C 0 km/h
3168 08-03-2008 09:57:02 5.6 C 5.37 g/m*3 5.6 C 0 km/h
3169 08-03-2008 10:09:02 6 C 4.94 g/m*3 6 C 0 km/h
3170 08-03-2008 10:21:02 6.4 C 4.62 g/m*3 6.4 C 0 km/h
3171 08-03-2008 10:33:02 6.8 C 4.13 g/m*3 6.8 C 0 km/h
3172 08-03-2008 10:45:01 6.9 C 4.16 g/m*3 6.9 C 0 km/h
3173 08-03-2008 10:57:01 7.3 C 3.87 g/m*3 7.3 C 0 km/h
3174 08-03-2008 11:09:02 7.4 C 3.9 g/m*3 7.4 C 0 km/h
3175 08-03-2008 11:21:01 7.6 C 3.63 g/m*3 7.6 C 0 km/h
Sensor: Nr:Datum:Temp:Abs-Feuchte:Windchill:Wind:
Aussen-T/F 3176 08-03-2008 11:33:01 8.1 C 3.33 g/m*3 8.1 C 0 km/h
3177 08-03-2008 11:45:02 8.2 C 3.18 g/m*3 8.2 C 0 km/h
3178 08-03-2008 11:57:02 8.6 C 3.27 g/m*3 8.6 C 0 km/h
3179 08-03-2008 12:09:03 8.8 C 3.22 g/m*3 8.8 C 0 km/h
3180 08-03-2008 12:21:02 9.1 C 3.28 g/m*3 9.1 C 0 km/h
3181 08-03-2008 12:33:02 9.1 C 3.37 g/m*3 9.1 C 0 km/h
3182 08-03-2008 12:45:01 9.4 C 3.35 g/m*3 9.4 C 0 km/h
3183 08-03-2008 12:57:01 9.7 C 3.41 g/m*3 9.7 C 0 km/h
3184 08-03-2008 13:09:01 10 C 3.29 g/m*3 10 C 0 km/h
3185 08-03-2008 13:21:01 10.3 C 3.26 g/m*3 10.3 C 0 km/h
3186 08-03-2008 13:33:01 10.9 C 3.08 g/m*3 10.9 C 0 km/h
3187 08-03-2008 13:45:02 11 C 3.1 g/m*3 11 C 0 km/h
3188 08-03-2008 13:57:02 11.2 C 3.14 g/m*3 11.2 C 0 km/h
3189 08-03-2008 14:09:02 11.3 C 3.26 g/m*3 11.3 C 0 km/h
3190 08-03-2008 14:21:02 11.1 C 3.22 g/m*3 11.1 C 0 km/h
3191 08-03-2008 14:33:01 11.1 C 3.22 g/m*3 11.1 C 0 km/h
3192 08-03-2008 14:45:01 10.6 C 3.42 g/m*3 10.6 C 0 km/h
3193 08-03-2008 14:57:01 10.3 C 3.35 g/m*3 10.3 C 0 km/h
3194 08-03-2008 15:09:02 10.7 C 3.44 g/m*3 10.7 C 0 km/h
3195 08-03-2008 15:21:01 11.2 C 3.34 g/m*3 11.2 C 0 km/h
3196 08-03-2008 15:33:01 10.8 C 3.46 g/m*3 10.8 C 0 km/h
3197 08-03-2008 15:45:01 11.2 C 3.45 g/m*3 11.2 C 0 km/h
3198 08-03-2008 15:57:01 11.3 C 3.37 g/m*3 11.3 C 0 km/h
3199 08-03-2008 16:09:01 10.9 C 3.18 g/m*3 10.9 C 0 km/h
3200 08-03-2008 16:21:02 10.6 C 3.22 g/m*3 10.6 C 0 km/h
Sensor: Nr:Datum:Temp:Abs-Feuchte:Windchill:Wind:
Aussen-T/F 3201 08-03-2008 16:33:01 10.4 C 3.28 g/m*3 10.4 C 0 km/h
3202 08-03-2008 16:45:02 10.4 C 3.28 g/m*3 10.4 C 0 km/h
3203 08-03-2008 16:57:02 10.1 C 3.31 g/m*3 10.1 C 0 km/h
3204 08-03-2008 17:09:01 9.9 C 3.36 g/m*3 9.9 C 0 km/h
3205 08-03-2008 17:21:02 9.7 C 3.23 g/m*3 9.7 C 0 km/h
3206 08-03-2008 17:33:02 9.7 C 3.23 g/m*3 9.7 C 0 km/h
3207 08-03-2008 17:45:02 9.6 C 3.21 g/m*3 9.6 C 0 km/h
3208 08-03-2008 17:57:02 9.5 C 3.28 g/m*3 9.5 C 0 km/h
3209 08-03-2008 18:09:02 8.9 C 3.5 g/m*3 8.9 C 0 km/h
3210 08-03-2008 18:21:02 8.3 C 3.54 g/m*3 8.3 C 0 km/h
3211 08-03-2008 18:33:02 7.6 C 3.71 g/m*3 7.6 C 0 km/h
3212 08-03-2008 18:45:01 7.5 C 3.6 g/m*3 7.5 C 0 km/h
3213 08-03-2008 18:57:01 7.4 C 3.5 g/m*3 7.4 C 0 km/h
3214 08-03-2008 19:09:02 7.3 C 3.48 g/m*3 7.3 C 0 km/h
3215 08-03-2008 19:21:02 7.1 C 3.43 g/m*3 7.1 C 0 km/h
3216 08-03-2008 19:33:01 6.9 C 3.46 g/m*3 6.9 C 0 km/h
3217 08-03-2008 19:45:02 6.8 C 3.44 g/m*3 6.8 C 0 km/h
3218 08-03-2008 19:57:02 6.7 C 3.57 g/m*3 6.7 C 0 km/h
3219 08-03-2008 20:09:02 6.2 C 3.6 g/m*3 6.2 C 0 km/h
3220 08-03-2008 20:21:02 6.1 C 3.65 g/m*3 6.1 C 0 km/h
3221 08-03-2008 20:33:01 6 C 3.63 g/m*3 6 C 0 km/h
3222 08-03-2008 20:45:02 6 C 3.63 g/m*3 6 C 0 km/h
3223 08-03-2008 20:57:02 5.8 C 3.72 g/m*3 5.8 C 0 km/h
3224 08-03-2008 21:09:02 5.5 C 3.79 g/m*3 5.5 C 0 km/h
3225 08-03-2008 21:21:02 5.6 C 3.68 g/m*3 5.6 C 0 km/h
Sensor: Nr:Datum:Temp:Abs-Feuchte:Windchill:Wind:
Aussen-T/F 3226 08-03-2008 21:33:02 5.4 C 3.7 g/m*3 5.4 C 0 km/h
3227 08-03-2008 21:45:03 5.4 C 3.7 g/m*3 5.4 C 0 km/h
3228 08-03-2008 21:57:03 5.2 C 3.79 g/m*3 5.2 C 0 km/h
3229 08-03-2008 22:09:02 5 C 3.74 g/m*3 5 C 0 km/h
3230 08-03-2008 22:21:02 4.8 C 3.76 g/m*3 4.8 C 0 km/h
3231 08-03-2008 22:34:03 4.6 C 3.77 g/m*3 4.6 C 0 km/h
3232 08-03-2008 22:46:03 4.5 C 3.81 g/m*3 4.5 C 0 km/h
3233 08-03-2008 22:58:03 4.5 C 3.88 g/m*3 4.5 C 0 km/h
3234 08-03-2008 23:10:03 4.5 C 3.88 g/m*3 4.5 C 0 km/h
3235 08-03-2008 23:22:04 4.5 C 3.94 g/m*3 4.5 C 0 km/h
3236 08-03-2008 23:34:04 4.3 C 3.96 g/m*3 4.3 C 0 km/h
3237 08-03-2008 23:46:04 4.4 C 4.05 g/m*3 4.4 C 0 km/h
3238 08-03-2008 23:58:04 4.5 C 4.14 g/m*3 4.5 C 0 km/h
3239 09-03-2008 00:10:04 4.4 C 4.11 g/m*3 4.4 C 0 km/h
</